No downloads here. Check the wiki to understand what this site is about.

PRE DATA

Datetime Category Release
2021-06-27 00:01:52 FLAC The_Clientele-Alone_And_Unreal_The_Best_Of_The_Clientele-CD-FLAC-2015-ERP
2021-06-27 00:01:59 MP3 VA-Wind_Layers-(7K031)-WEB-2021-BABAS
2021-06-27 00:02:09 TV-HD-FR Schitts.Creek.S02E12.FRENCH.720p.WEB.H264-PROPJOE
2021-06-27 00:02:19 TV-SD-FR Schitts.Creek.S02E12.FRENCH.WEB.H264-PROPJOE
2021-06-27 00:02:44 MP3 Oh_No--Oh_No_Vs__Now-Again_2-(NAML007)-WEB-2021-BABAS
2021-06-27 00:03:26 MP3 Tony_Riparetti--The_Interrogation_of_Cheryl_Cooper-OST-WEB-2021-BABAS
2021-06-27 00:04:03 MP3 Msotja--Delayed_Time-(VDR026)-WEB-2021-BABAS
2021-06-27 00:04:20 FLAC The_Clientele-God_Save_The_Clientele-CD-FLAC-2007-ERP
2021-06-27 00:04:41 MP3 Giadar--Antartic_Radio_Broadcast-(MN013)-WEB-2021-BABAS
2021-06-27 00:05:07 MP3 Markus_Schulz_-_Global_DJ_Broadcast-SAT-06-24-2021-TALiON
2021-06-27 00:05:20 MP3 Trevor_G_x_Donald-tek--Pandemic_EP-(VDR021)-WEB-2021-BABAS
2021-06-27 00:05:58 MP3 Marigold_Sun--Swimming-(HH139)-WEB-2021-BABAS
2021-06-27 00:06:06 MP3 Don_Diablo_-_Hexagon_Radio_334-SAT-06-24-2021-TALiON
2021-06-27 00:06:17 MP3 Martin_Ikin-1LIVE_DJ_Session-SAT-26-06-2021-1KING
2021-06-27 00:06:35 MP3 Gerome_Sportelli--Fading_Memories-(SPT13)-WEB-2021-BABAS
2021-06-27 00:07:06 MP3 Chris_Malinchak_-_Malinchak_Show-SAT-06-25-2021-TALiON
2021-06-27 00:07:09 TV-HD-FR Schitts.Creek.S02E13.FiNAL.FRENCH.720p.WEB.H264-PROPJOE
2021-06-27 00:07:12 MP3 Liebknecht--527_039-(SCAS4)-WEB-2021-BABAS
2021-06-27 00:07:21 TV-SD-FR Schitts.Creek.S02E13.FiNAL.FRENCH.WEB.H264-PROPJOE
2021-06-27 00:07:47 MP3 Dave_Tempo--My_Audio_Sketches-(VDR028)-WEB-2021-BABAS
2021-06-27 00:08:05 MP3 Rufus_Du_Sol_-_Rose_Avenue_Radio_013-SAT-06-25-2021-TALiON
2021-06-27 00:08:22 MP3 Francois_Dillinger_x_Lloyd_Stellar--Machine_Men-(LDI003)-WEB-2021-BABAS
2021-06-27 00:08:59 MP3 CVSO--Garden_Scene-(KLG001)-WEB-2021-BABAS
2021-06-27 00:09:01 MP3 La_Rondalla_Tapatia-RCA_100_Anos_De_Musica_2a_Parte_Vol._2-(743219759429)-ES-2CD-2002-FREGON
2021-06-27 00:09:05 MP3 Anyma_-_Rose_Avenue_Radio_013-SAT-06-25-2021-TALiON
2021-06-27 00:09:36 FLAC La_Rondalla_Tapatia-RCA_100_Anos_De_Musica_2a_Parte_Vol._2-(743219759429)-ES-2CD-FLAC-2002-FREGON
2021-06-27 00:09:36 MP3 King_Schwarz--Go_Free_Remixes-(VDR029)-WEB-2021-BABAS
2021-06-27 00:10:06 MP3 Alyx_Ander_-_Day_Life_Radio__Incl_Baron_Guestmix-SAT-06-25-2021-TALiON
2021-06-27 00:10:11 MP3 J-Shadow--SNKRX08-(SNKRX08)-WEB-2021-BABAS
2021-06-27 00:10:46 MP3 Sunwald--Konkurs_II-(FAM033)-WEB-2021-BABAS
2021-06-27 00:11:05 MP3 Attom_-_House_of_Chill-SAT-06-25-2021-TALiON
2021-06-27 00:11:23 MP3 Andrea_Tempo--Demolition_EP-(CREDIGIF017)-WEB-2021-BABAS
2021-06-27 00:12:01 MP3 Xila--Spirit_Driver-(LMP115)-WEB-2021-BABAS
2021-06-27 00:12:05 MP3 Trent_Cantrelle_-_Sounds_Like_Radio-SAT-06-26-2021-TALiON
2021-06-27 00:12:38 MP3 Paul_Oednom--Vital_Contrast-(SERE027)-WEB-2021-BABAS
2021-06-27 00:13:07 MP3 Tchami_-_Revelations_Radio-SAT-06-25-2021-TALiON
2021-06-27 00:13:16 MP3 Ndoks_Da_Ox--Enter_Da_Aux-(VDR027)-WEB-2021-BABAS
2021-06-27 00:13:52 MP3 Radikal_Guru_x_Junior_Dread--Overcome_Dub-(MSBTB6)-SINGLE-WEB-2021-BABAS
2021-06-27 00:14:05 MP3 Alison_Wonderland_-_Radio_Wonderland_216-SAT-06-25-2021-TALiON
2021-06-27 00:14:28 MP3 CTM_x_August_Rosenbaum--Celeste-(PI254)-WEB-2021-BABAS
2021-06-27 00:15:05 MP3 Lubelski_-_The_Birdhouse_297-SAT-06-25-2021-TALiON
2021-06-27 00:15:07 MP3 Hydrualx--Home-(VDR022)-SINGLE-WEB-2021-BABAS
2021-06-27 00:15:46 MP3 Gerome_Sportelli--Acid_Krax_Vol_1-(SPT11)-WEB-2021-BABAS
2021-06-27 00:16:05 MP3 Monstercat_-_Call_of_The_Wild-SAT-06-26-2021-TALiON
2021-06-27 00:16:22 MP3 Gerome_Sportelli--Acid_Krax_Vol_2-(SPT12)-WEB-2021-BABAS
2021-06-27 00:16:58 MP3 Shuttle358--Frame_(20th_Anniversary_Edition)-(12K2051)-REMASTERED-WEB-2021-BABAS
2021-06-27 00:17:05 MP3 Tibasko_-_Guest_Room_Mix-SAT-06-26-2021-TALiON
2021-06-27 00:17:39 MP3 VA-Essential_Secrets_Of_Deep_House_Vol_3-(TS216)-WEB-2021-BABAS
2021-06-27 00:18:04 MP3 Gryffin_-_Elevate_Radio_017-SAT-06-25-2021-TALiON
2021-06-27 00:18:16 MP3 Saigg--Uplifter_Two-(BESTIAX08)-WEB-2021-BABAS
2021-06-27 00:18:51 MP3 Dan_Nicholls--Papa-(WJDL65)-SINGLE-WEB-2021-BABAS
2021-06-27 00:19:04 MP3 Two_Friends_-_Friendly_Sessions-SAT-06-25-2021-TALiON
2021-06-27 00:19:17 TV-HD-FR Blindspotting.S01E03.INTERNAL.FRENCH.720p.WEB.H264-SILVIODANTE
2021-06-27 00:19:28 MP3 VA-Improvisations-(GRID001)-WEB-2021-BABAS
2021-06-27 00:19:35 TV-SD-FR Blindspotting.S01E03.INTERNAL.FRENCH.WEB.H264-SILVIODANTE
2021-06-27 00:20:04 MP3 Tiesto_-_Club_Life_743-SAT-06-26-2021-TALiON
2021-06-27 00:20:06 MP3 Thulane_Da_Producer--Underground_Deep_Trax-(DP153)-WEB-2021-BABAS
2021-06-27 00:20:23 TV-SD-FR Run.the.World.S01E06.INTERNAL.FRENCH.WEB.H264-SILVIODANTE
2021-06-27 00:20:32 MP3 Legen_Beltza-Total_Insanity-(EDD134)-BONUS-DVD-2005-FREGON
2021-06-27 00:20:38 TV-HD-FR Run.the.World.S01E06.INTERNAL.FRENCH.720p.WEB.H264-SILVIODANTE
2021-06-27 00:20:44 MP3 Te_Nero--Dejected-(VDR023)-SINGLE-WEB-2021-BABAS
2021-06-27 00:21:04 MP3 Morten_-_Musical_Freedom_Radio-SAT-06-26-2021-TALiON
2021-06-27 00:21:06 FLAC Legen_Beltza-Total_Insanity-(EDD134)-CD-FLAC-2005-FREGON
2021-06-27 00:21:17 MP3 Jason_Nazary--Spring_Collection-(WJLP33)-WEB-2021-BABAS
2021-06-27 00:21:53 FLAC Breez_Evahflowin-Pro-Files_The_EP-PROPER-VINYL-FLAC-2000-THEVOiD
2021-06-27 00:21:53 MP3 Bluetech--Underwater_Cities_Remixed-(ABD001)-WEB-2021-BABAS
2021-06-27 00:22:05 MP3 Freddy_Moreira_-_Moreiras_Mansion_(FunX)-CABLE-06-25-2021-TALiON
2021-06-27 00:22:26 MP3 Remywest_x_Brutu_Music--Think_Too_Much-(VDR024)-SINGLE-WEB-2021-BABAS
2021-06-27 00:23:01 MP3 Epic_SoulStar--Feel_It-(VDR025)-SINGLE-WEB-2021-BABAS
2021-06-27 00:23:05 MP3 Childsplay_-_FunX_Fissa-CABLE-06-25-2021-TALiON
2021-06-27 00:23:36 MP3 Dan_I_x_Dougie_Conscious--Wings_Of_A_Dove-(CS737A)-WEB-2021-BABAS
2021-06-27 00:24:05 MP3 Robin_Roxette_-_FunX_Fissa-CABLE-06-25-2021-TALiON
2021-06-27 00:25:03 MP3 Lucky_Jones_-_Lucky_Hour_(FunX)-CABLE-06-26-2021-TALiON
2021-06-27 00:26:05 MP3 SLAM_MIXMARATHON_-_Meduza-CABLE-06-25-2021-TALiON
2021-06-27 00:27:05 MP3 SLAM_MIXMARATHON_-_Sam_Divine-CABLE-06-25-2021-TALiON
2021-06-27 00:28:04 MP3 SLAM_MIXMARATHON_-_Rob_Boskamp-CABLE-06-25-2021-TALiON
2021-06-27 00:29:06 MP3 SLAM_MIXMARATHON_-_Dina_van_Diest-CABLE-06-25-2021-TALiON
2021-06-27 00:29:12 FLAC Breez_Evahflowin-Dont_Stop-VLS-FLAC-2001-THEVOiD
2021-06-27 00:30:06 MP3 SLAM_MIXMARATHON_-_EDX-CABLE-06-25-2021-TALiON
2021-06-27 00:31:06 MP3 SLAM_MIXMARATHON_-_Maniba-CABLE-06-25-2021-TALiON
2021-06-27 00:32:04 MP3 SLAM_MIXMARATHON_-_Dennis_Cartier-CABLE-06-25-2021-TALiON
2021-06-27 00:32:36 TV-X264 WWE.Friday.Night.Smackdown.2021.06.25.720p.WEB.h264-SPORTSNET
2021-06-27 00:33:06 MP3 SLAM_MIXMARATHON_-_Nome.-CABLE-06-25-2021-TALiON
2021-06-27 00:34:06 MP3 SLAM_MIXMARATHON_-_Avian_Grays-CABLE-06-25-2021-TALiON
2021-06-27 00:34:27 TV-HD-FR Tokyo.Revengers.E05.MULTi.1080p.WEB.x264-AMB3R
2021-06-27 00:35:04 MP3 SLAM_MIXMARATHON_-_Joel_Corry-CABLE-06-25-2021-TALiON
2021-06-27 00:36:05 MP3 Melvo_Baptiste_-_Glitterbox_Radio_220-CABLE-06-20-2021-TALiON
2021-06-27 00:37:04 MP3 Sister_Bliss_-_In_Session-CABLE-06-20-2021-TALiON
2021-06-27 00:38:06 MP3 Kristin_Velvet_-_Traxsource_LIVE_333-CABLE-06-20-2021-TALiON
2021-06-27 00:38:35 TV-HD-IT Central.Park.S01E01.iTALiAN.HDR.2160p.WEB.H265-NTROPiC
2021-06-27 00:39:05 MP3 Sam_Feldt_-_Heartfeldt_Radio_285-CABLE-06-21-2021-TALiON
2021-06-27 00:39:41 TV-HD-IT Central.Park.S01E02.iTALiAN.HDR.2160p.WEB.H265-NTROPiC
2021-06-27 00:40:05 MP3 Lucas_and_Steve_-_Skyline_Sessions_233-CABLE-06-22-2021-TALiON
2021-06-27 00:40:21 TV-X264 WWE.Friday.Night.Smackdown.2021.06.25.1080p.WEB.h264-SPORTSNET
2021-06-27 00:40:42 TV-HD-IT Central.Park.S01E03.iTALiAN.HDR.2160p.WEB.H265-NTROPiC
2021-06-27 00:40:52 TV-X264 The.Bold.and.the.Beautiful.S34E114.720p.WEB.h264-DiRT
2021-06-27 00:41:05 MP3 Judge_Jules_-_Global_Warmup_902-CABLE-06-23-2021-TALiON
2021-06-27 00:41:33 FLAC Seel_Fresh-Nickel_Pimp-VLS-FLAC-2002-THEVOiD
2021-06-27 00:41:36 TV-HD The.Bold.and.the.Beautiful.S34E114.1080p.WEB.h264-DiRT
2021-06-27 00:41:47 TV-HD-IT Central.Park.S01E04.iTALiAN.HDR.2160p.WEB.H265-NTROPiC
2021-06-27 00:41:51 TV-X264 The.Bold.and.the.Beautiful.S34E115.720p.WEB.h264-DiRT
2021-06-27 00:42:05 MP3 EDX_-_No_Xcuses_539-CABLE-06-23-2021-TALiON
2021-06-27 00:42:35 TV-HD The.Bold.and.the.Beautiful.S34E115.1080p.WEB.h264-DiRT
2021-06-27 00:42:46 TV-HD-IT Central.Park.S01E05.iTALiAN.HDR.2160p.WEB.H265-NTROPiC
2021-06-27 00:43:04 MP3 Mike_Williams_-_On_Track_232-CABLE-06-23-2021-TALiON
2021-06-27 00:43:13 TV-X264 The.Bold.and.the.Beautiful.S34E116.720p.WEB.h264-DiRT
2021-06-27 00:43:40 TV-HD The.Bold.and.the.Beautiful.S34E116.1080p.WEB.h264-DiRT
2021-06-27 00:43:46 TV-HD-IT Central.Park.S01E06.iTALiAN.HDR.2160p.WEB.H265-NTROPiC
2021-06-27 00:43:57 TV-X264 The.Bold.and.the.Beautiful.S34E117.720p.WEB.h264-DiRT
2021-06-27 00:44:04 MP3 Sam_Divine_-_Defected_Radio-CABLE-06-24-2021-TALiON
2021-06-27 00:44:20 TV-HD The.Bold.and.the.Beautiful.S34E117.1080p.WEB.h264-DiRT
2021-06-27 00:44:46 TV-HD-IT Central.Park.S01E07.iTALiAN.HDR.2160p.WEB.H265-NTROPiC
2021-06-27 00:44:54 TV-X264 The.Bold.and.the.Beautiful.S34E118.720p.WEB.h264-DiRT
2021-06-27 00:45:06 MP3 Sunnery_James_and_Ryan_Marciano_-_Sexy_by_Nature_367-CABLE-06-24-2021-TALiON
2021-06-27 00:45:26 TV-HD The.Bold.and.the.Beautiful.S34E118.1080p.WEB.h264-DiRT
2021-06-27 00:46:03 TV-X264 The.Bold.and.the.Beautiful.S34E119.720p.WEB.h264-DiRT
2021-06-27 00:46:04 MP3 Robin_Schulz_-_Sugar_Radio-CABLE-06-25-2021-TALiON
2021-06-27 00:46:32 TV-HD The.Bold.and.the.Beautiful.S34E119.1080p.WEB.h264-DiRT
2021-06-27 00:46:58 TV-X264 The.Generals.Daughter.1999.FRENCH.720p.BluRay.x264-Ulysse
2021-06-27 00:47:05 MP3 Lost_Frequencies_-_Lost_Radio_Show-CABLE-06-25-2021-TALiON
2021-06-27 00:47:18 TV-HD The.Generals.Daughter.1999.MULTi.1080p.BluRay.x264-Ulysse
2021-06-27 00:47:27 FLAC Leon_Patillo-Ill_Never_Stop_Lovin_You-LP-FLAC-1982-THEVOiD
2021-06-27 00:48:04 MP3 Oliver_Heldens_-_Heldeep_Radio_367-CABLE-06-25-2021-TALiON
2021-06-27 00:48:26 X264-SD-FR The.Generals.Daughter.1999.FRENCH.BDRip.x264-Ulysse
2021-06-27 00:49:04 MP3 Martin_Garrix_-_The_Martin_Garrix_Radio_Show_354-SAT-06-25-2021-TALiON
2021-06-27 00:50:07 MP3 Zeds_Dead_-_Deadbeats_Radio_208-SAT-06-25-2021-TALiON
2021-06-27 00:51:05 MP3 Nicky_Romero_-_Protocol_Radio_463__Incl_Laura_van_Dam_Guestmix-SAT-06-25-2021-TALiON
2021-06-27 00:51:34 TV-HD-IT Central.Park.S01E08.iTALiAN.HDR.2160p.WEB.H265-NTROPiC
2021-06-27 00:51:48 TV-X264 The.Bold.and.the.Beautiful.S34E120.720p.WEB.h264-DiRT
2021-06-27 00:52:04 TV-HD The.Bold.and.the.Beautiful.S34E120.1080p.WEB.h264-DiRT
2021-06-27 00:52:05 MP3 Eats_Everything_-_Edible_bEats_226-SAT-06-25-2021-TALiON
2021-06-27 00:52:31 TV-X264 The.Bold.and.the.Beautiful.S34E121.720p.WEB.h264-DiRT
2021-06-27 00:52:45 TV-HD The.Bold.and.the.Beautiful.S34E121.1080p.WEB.h264-DiRT
2021-06-27 00:53:06 MP3 Sander_van_Doorn_-_Identity_605-SAT-06-25-2021-TALiON
2021-06-27 00:54:05 MP3 Above_and_Beyond_-_Group_Therapy_439__Incl_Eli_and_Fur_Guestmix-SAT-06-25-2021-TALiON
2021-06-27 00:54:57 TV-X264 The.Bold.and.the.Beautiful.S34E122.720p.WEB.h264-DiRT
2021-06-27 00:55:04 MP3 Adam_Beyer_-_Drumcode_Live_569__Incl_Victor_Ruiz_Guestmix-SAT-06-25-2021-TALiON
2021-06-27 00:55:40 TV-HD The.Bold.and.the.Beautiful.S34E122.1080p.WEB.h264-DiRT
2021-06-27 00:56:05 MP3 Ivo_van_Breukelen_-_Dance_Department_(Radio538)-CABLE-06-26-2021-TALiON
2021-06-27 00:57:06 MP3 Superior_-_Crossover_Radio_(FunX)-CABLE-06-26-2021-TALiON
2021-06-27 00:58:07 MP3 Joris_Voorn_-_Spectrum_Radio_217-SAT-06-26-2021-TALiON
2021-06-27 00:58:37 TV-HD-IT Central.Park.S01E09.iTALiAN.HDR.2160p.WEB.H265-NTROPiC
2021-06-27 01:00:15 MP3 Kideko_-_Diplo_and_Friends-SAT-06-26-2021-TALiON
2021-06-27 01:00:37 TV-HD The.Bold.and.the.Beautiful.S34E123.1080p.WEB.h264-DiRT
2021-06-27 01:01:35 TV-X264 The.Bold.and.the.Beautiful.S34E123.720p.WEB.h264-DiRT
2021-06-27 01:02:36 TV-HD The.Bold.and.the.Beautiful.S34E124.1080p.WEB.h264-DiRT
2021-06-27 01:03:36 TV-X264 The.Bold.and.the.Beautiful.S34E124.720p.WEB.h264-DiRT
2021-06-27 01:04:24 TV-HD-IT Central.Park.S01E10.iTALiAN.FiNAL.HDR.2160p.WEB.H265-NTROPiC
2021-06-27 01:04:37 TV-HD The.Bold.and.the.Beautiful.S34E125.1080p.WEB.h264-DiRT
2021-06-27 01:05:35 TV-X264 The.Bold.and.the.Beautiful.S34E125.720p.WEB.h264-DiRT
2021-06-27 01:06:36 TV-HD The.Bold.and.the.Beautiful.S34E126.1080p.WEB.h264-DiRT
2021-06-27 01:06:55 MP3 Format_B-1LIVE_DJ_Session-SAT-27-06-2021-1KING
2021-06-27 01:07:35 TV-X264 The.Bold.and.the.Beautiful.S34E126.720p.WEB.h264-DiRT
2021-06-27 01:08:37 TV-HD The.Bold.and.the.Beautiful.S34E127.1080p.WEB.h264-DiRT
2021-06-27 01:09:36 TV-X264 The.Bold.and.the.Beautiful.S34E127.720p.WEB.h264-DiRT
2021-06-27 01:10:37 TV-HD The.Bold.and.the.Beautiful.S34E128.1080p.WEB.h264-DiRT
2021-06-27 01:10:38 MP3 Tune_Brothers-Housesession-SAT-06-27-2021-PTC
2021-06-27 01:11:35 TV-X264 The.Bold.and.the.Beautiful.S34E128.720p.WEB.h264-DiRT
2021-06-27 01:12:36 TV-HD The.Bold.and.the.Beautiful.S34E129.1080p.WEB.h264-DiRT
2021-06-27 01:13:35 TV-X264 The.Bold.and.the.Beautiful.S34E129.720p.WEB.h264-DiRT
2021-06-27 01:14:37 TV-HD The.Bold.and.the.Beautiful.S34E130.1080p.WEB.h264-DiRT
2021-06-27 01:15:35 TV-X264 The.Bold.and.the.Beautiful.S34E130.720p.WEB.h264-DiRT
2021-06-27 01:15:38 MP3 Soire--Mystic_Soul-(BTZ165)-REMASTERED-SINGLE-WEB-2021-BABAS
2021-06-27 01:16:14 MP3 FutureffeKts--Wide_Awake-(DCM059)-WEB-2021-BABAS
2021-06-27 01:16:36 TV-HD The.Bold.and.the.Beautiful.S34E131.1080p.WEB.h264-DiRT
2021-06-27 01:16:50 MP3 6th_Sphere--A_Room_With_A_View-(LFR19)-WEB-2021-BABAS
2021-06-27 01:17:25 MP3 Makossa_and_Sugar_B_and_KSAWA-Swound_Sound-SAT-06-26-2021-PTC
2021-06-27 01:17:25 MP3 Henry_Navarro--Road_Of_Dreams-(LFR019)-SINGLE-WEB-2021-BABAS
2021-06-27 01:17:36 TV-X264 The.Bold.and.the.Beautiful.S34E131.720p.WEB.h264-DiRT
2021-06-27 01:18:37 TV-HD The.Bold.and.the.Beautiful.S34E132.1080p.WEB.h264-DiRT
2021-06-27 01:19:35 TV-X264 The.Bold.and.the.Beautiful.S34E132.720p.WEB.h264-DiRT
2021-06-27 01:20:37 TV-HD The.Bold.and.the.Beautiful.S34E133.1080p.WEB.h264-DiRT
2021-06-27 01:21:36 TV-X264 The.Bold.and.the.Beautiful.S34E133.720p.WEB.h264-DiRT
2021-06-27 01:22:37 TV-HD The.Bold.and.the.Beautiful.S34E134.1080p.WEB.h264-DiRT
2021-06-27 01:23:35 TV-X264 The.Bold.and.the.Beautiful.S34E134.720p.WEB.h264-DiRT
2021-06-27 01:24:36 TV-HD The.Bold.and.the.Beautiful.S34E135.1080p.WEB.h264-DiRT
2021-06-27 01:25:36 TV-X264 The.Bold.and.the.Beautiful.S34E135.720p.WEB.h264-DiRT
2021-06-27 01:26:36 TV-HD The.Bold.and.the.Beautiful.S34E136.1080p.WEB.h264-DiRT
2021-06-27 01:27:01 MP3 SONARFACE--Fake_Mood-(7CLOUD1196)-WEB-2021-KPS_INT
2021-06-27 01:27:35 TV-X264 The.Bold.and.the.Beautiful.S34E136.720p.WEB.h264-DiRT
2021-06-27 01:27:54 MP3 Kvinn_and_TRITICUM--What_You_Feel-(DIST003)-WEB-2021-KPS_INT
2021-06-27 01:28:36 TV-HD The.Bold.and.the.Beautiful.S34E137.1080p.WEB.h264-DiRT
2021-06-27 01:28:42 MP3 Prof-Tarzan-SINGLE-WEB-2021-FATHEAD
2021-06-27 01:29:35 TV-X264 The.Bold.and.the.Beautiful.S34E137.720p.WEB.h264-DiRT
2021-06-27 01:30:37 TV-HD The.Bold.and.the.Beautiful.S34E138.1080p.WEB.h264-DiRT
2021-06-27 01:31:35 TV-X264 The.Bold.and.the.Beautiful.S34E138.720p.WEB.h264-DiRT
2021-06-27 01:32:38 TV-HD The.Bold.and.the.Beautiful.S34E139.1080p.WEB.h264-DiRT
2021-06-27 01:33:35 TV-X264 The.Bold.and.the.Beautiful.S34E139.720p.WEB.h264-DiRT
2021-06-27 01:33:36 MP3 DJ_Direkt-Calamity-(MAAD023)-WEB-2021-PTC
2021-06-27 01:33:57 MP3 Faysha-Earthquake-(MAAD021)-WEB-2020-PTC
2021-06-27 01:34:21 MP3 Inspire-Hold_On_Selecta-(MAAD024)-WEB-2021-PTC
2021-06-27 01:34:47 MP3 Leks-Chat_So_Much-(MAAD022)-WEB-2021-PTC
2021-06-27 01:43:29 XXX AuntJudys.21.06.26.Spying.On.Cindy.As.She.Fantasizes.And.Masturbates.XXX.1080p.MP4-WRB
2021-06-27 01:44:42 XXX PornMegaLoad.21.06.26.Sidra.Sage.Sidra.Sucks.And.Fucks.XXX.1080p.MP4-WRB
2021-06-27 01:46:52 XXX BrothaLovers.21.06.25.Niki.Snow.And.Derek.Skeeter.XXX.1080p.MP4-WRB
2021-06-27 01:55:03 MP3 Twice_Vision-Evil_Wants_It_All_(VIP)-(29DNB0041)-SINGLE-WEB-2021-PTC
2021-06-27 01:55:21 XXX MyLifeInMiami.21.06.23.Vina.Sky.And.Kyler.Quinn.Rock.My.World.XXX.2160p.MP4-WRB
2021-06-27 01:55:32 MP3 Scandal-Spirit-(29DNB0042)-WEB-2021-PTC
2021-06-27 01:57:57 XXX TeamSkeetXReislin.21.06.26.Reislin.My.Boyfriends.Bed.XXX.2160p.MP4-WRB
2021-06-27 02:00:40 X264-HD-DE Das.Weihnachtsglueck.Liebe.ist.das.schoenste.Geschenk.2019.German.AC3D.DL.1080p.WEB.H264-CLASSiCALHD
2021-06-27 02:00:54 MP3 Eelke_Kleijn-Days_Like_Nights_Radio_187-SAT-27-06-2021-1KING
2021-06-27 02:02:20 XXX BrazzersExxtra.21.06.27.Alexis.Fawx.Squat.Challenge.XXX.1080p.MP4-WRB
2021-06-27 02:03:12 XXX HotAndMean.21.06.27.Ember.Snow.And.Adira.Allure.Girls.Night.In.XXX.1080p.MP4-WRB
2021-06-27 02:04:09 XXX RKPrime.21.06.27.Indica.Monroe.Performance.Bonuses.For.Fucking.His.Wife.XXX.1080p.MP4-WRB
2021-06-27 02:09:49 MP3 Bunnerz-Box-(TIMELESS001)-WEB-2021-PTC
2021-06-27 02:10:08 XXX InnocentHigh.21.06.26.Lily.Larimar.Ditching.School.XXX.2160p.MP4-WRB
2021-06-27 02:10:32 MP3 Secret_Sound-Vibrations-(TIMELESS002)-WEB-2021-PTC
2021-06-27 02:11:33 MP3 Addicted_and_Jammez-Bumpa-(TIMELESS003)-WEB-2021-PTC
2021-06-27 02:11:37 TV-X264 Parks.and.Recreation.S05E01.1080p.BluRay.x264-BORDURE
2021-06-27 02:12:11 TV-X264 Parks.and.Recreation.S05E02.1080p.BluRay.x264-BORDURE
2021-06-27 02:12:36 TV-X264 Parks.and.Recreation.S05E03.1080p.BluRay.x264-BORDURE
2021-06-27 02:13:07 TV-X264 Parks.and.Recreation.S05E04.1080p.BluRay.x264-BORDURE
2021-06-27 02:13:37 TV-X264 Parks.and.Recreation.S05E05.1080p.BluRay.x264-BORDURE
2021-06-27 02:14:10 TV-X264 Parks.and.Recreation.S05E06.1080p.BluRay.x264-BORDURE
2021-06-27 02:14:28 XXX NaughtyOffice.21.06.26.Spencer.Bradley.XXX.2160p.MP4-WRB
2021-06-27 02:14:37 TV-X264 Parks.and.Recreation.S05E07.1080p.BluRay.x264-BORDURE
2021-06-27 02:15:09 TV-X264 Parks.and.Recreation.S05E08.1080p.BluRay.x264-BORDURE
2021-06-27 02:15:37 TV-X264 Parks.and.Recreation.S05E09.1080p.BluRay.x264-BORDURE
2021-06-27 02:16:08 TV-X264 Parks.and.Recreation.S05E10.1080p.BluRay.x264-BORDURE
2021-06-27 02:16:37 TV-X264 Parks.and.Recreation.S05E11.1080p.BluRay.x264-BORDURE
2021-06-27 02:17:08 TV-X264 Parks.and.Recreation.S05E12.1080p.BluRay.x264-BORDURE
2021-06-27 02:17:36 TV-X264 Parks.and.Recreation.S05E13.1080p.BluRay.x264-BORDURE
2021-06-27 02:18:08 TV-X264 Parks.and.Recreation.S05E14.1080p.BluRay.x264-BORDURE
2021-06-27 02:18:39 TV-X264 Parks.and.Recreation.S05E15.1080p.BluRay.x264-BORDURE
2021-06-27 02:19:07 TV-X264 Parks.and.Recreation.S05E16.1080p.BluRay.x264-BORDURE
2021-06-27 02:19:37 TV-X264 Parks.and.Recreation.S05E17.1080p.BluRay.x264-BORDURE
2021-06-27 02:20:10 TV-X264 Parks.and.Recreation.S05E18.1080p.BluRay.x264-BORDURE
2021-06-27 02:20:39 TV-X264 Parks.and.Recreation.S05E19.1080p.BluRay.x264-BORDURE
2021-06-27 02:21:08 TV-X264 Parks.and.Recreation.S05E20.1080p.BluRay.x264-BORDURE
2021-06-27 02:21:37 TV-X264 Parks.and.Recreation.S05E21.1080p.BluRay.x264-BORDURE
2021-06-27 02:21:57 X264-SD-DE Leprechaun.Returns.German.2018.AC3.BDRiP.x264-ROCKEFELLER
2021-06-27 02:22:10 TV-X264 Parks.and.Recreation.S05E22.1080p.BluRay.x264-BORDURE
2021-06-27 02:22:40 TV-X264 Parks.and.Recreation.S05E05.EXTENDED.1080p.BluRay.x264-BORDURE
2021-06-27 02:22:42 GAMES STORY_OF_SEASONS_Pioneers_of_Olive_Town_Update_v1.0.5_NSW-SUXXORS
2021-06-27 02:23:09 TV-X264 Parks.and.Recreation.S05E13.EXTENDED.1080p.BluRay.x264-BORDURE
2021-06-27 02:23:37 TV-X264 Parks.and.Recreation.S05E01.720p.BluRay.x264-BORDURE
2021-06-27 02:23:57 TV-X264 Parks.and.Recreation.S05E02.720p.BluRay.x264-BORDURE
2021-06-27 02:24:18 TV-X264 Parks.and.Recreation.S05E03.720p.BluRay.x264-BORDURE
2021-06-27 02:24:37 TV-X264 Parks.and.Recreation.S05E04.720p.BluRay.x264-BORDURE
2021-06-27 02:24:56 TV-X264 Parks.and.Recreation.S05E05.720p.BluRay.x264-BORDURE
2021-06-27 02:25:21 TV-X264 Parks.and.Recreation.S05E06.720p.BluRay.x264-BORDURE
2021-06-27 02:25:39 TV-X264 Parks.and.Recreation.S05E07.720p.BluRay.x264-BORDURE
2021-06-27 02:25:56 TV-X264 Leprechaun.Returns.2018.German.720p.BluRay.x264-ROCKEFELLER
2021-06-27 02:26:01 TV-X264 Parks.and.Recreation.S05E08.720p.BluRay.x264-BORDURE
2021-06-27 02:26:19 TV-X264 Parks.and.Recreation.S05E09.720p.BluRay.x264-BORDURE
2021-06-27 02:26:30 TV-HD-FR Schitts.Creek.S03E01.FRENCH.720p.WEB.H264-PROPJOE
2021-06-27 02:26:39 TV-X264 Parks.and.Recreation.S05E10.720p.BluRay.x264-BORDURE
2021-06-27 02:26:43 TV-SD-FR Schitts.Creek.S03E01.FRENCH.WEB.H264-PROPJOE
2021-06-27 02:26:59 TV-X264 Parks.and.Recreation.S05E11.720p.BluRay.x264-BORDURE
2021-06-27 02:27:20 MP3 Aquadeep_and_Veesoul--All_You_Need_EP-(CAT083)-WEB-2021-OMA
2021-06-27 02:27:22 TV-X264 Parks.and.Recreation.S05E12.720p.BluRay.x264-BORDURE
2021-06-27 02:27:27 TV-HD-FR Schitts.Creek.S03E02.FRENCH.720p.WEB.H264-PROPJOE
2021-06-27 02:27:36 TV-SD-FR Schitts.Creek.S03E02.FRENCH.WEB.H264-PROPJOE
2021-06-27 02:27:41 TV-X264 Parks.and.Recreation.S05E13.720p.BluRay.x264-BORDURE
2021-06-27 02:28:02 TV-X264 Parks.and.Recreation.S05E14.720p.BluRay.x264-BORDURE
2021-06-27 02:28:21 TV-X264 Parks.and.Recreation.S05E15.720p.BluRay.x264-BORDURE
2021-06-27 02:28:43 TV-X264 Parks.and.Recreation.S05E16.720p.BluRay.x264-BORDURE
2021-06-27 02:28:50 TV-HD-FR Schitts.Creek.S03E03.FRENCH.720p.WEB.H264-PROPJOE
2021-06-27 02:29:00 TV-HD-FR Schitts.Creek.S03E04.FRENCH.720p.WEB.H264-PROPJOE
2021-06-27 02:29:01 TV-X264 Parks.and.Recreation.S05E17.720p.BluRay.x264-BORDURE
2021-06-27 02:29:07 TV-SD-FR Schitts.Creek.S03E03.FRENCH.WEB.H264-PROPJOE
2021-06-27 02:29:20 TV-X264 Parks.and.Recreation.S05E18.720p.BluRay.x264-BORDURE
2021-06-27 02:29:38 TV-SD-FR Schitts.Creek.S03E04.FRENCH.WEB.H264-PROPJOE
2021-06-27 02:29:40 TV-X264 Parks.and.Recreation.S05E19.720p.BluRay.x264-BORDURE
2021-06-27 02:29:45 TV-HD-FR Schitts.Creek.S03E05.FRENCH.720p.WEB.H264-PROPJOE
2021-06-27 02:29:58 TV-HD Leprechaun.Returns.2018.German.DL.1080p.BluRay.x264-ROCKEFELLER
2021-06-27 02:30:06 TV-X264 Parks.and.Recreation.S05E20.720p.BluRay.x264-BORDURE
2021-06-27 02:30:14 TV-SD-FR Schitts.Creek.S03E05.FRENCH.WEB.H264-PROPJOE
2021-06-27 02:30:20 TV-X264 Parks.and.Recreation.S05E21.720p.BluRay.x264-BORDURE
2021-06-27 02:30:39 TV-HD-FR Schitts.Creek.S03E06.FRENCH.720p.WEB.H264-PROPJOE
2021-06-27 02:30:41 TV-X264 Parks.and.Recreation.S05E22.720p.BluRay.x264-BORDURE
2021-06-27 02:30:51 FLAC VA-Listen_To_Our_Hearts_Vol._2-CD-FLAC-1999-FLACME
2021-06-27 02:31:04 TV-X264 Parks.and.Recreation.S05E05.EXTENDED.720p.BluRay.x264-BORDURE
2021-06-27 02:31:18 TV-SD-FR Schitts.Creek.S03E06.FRENCH.WEB.H264-PROPJOE
2021-06-27 02:31:23 TV-X264 Parks.and.Recreation.S05E13.EXTENDED.720p.BluRay.x264-BORDURE
2021-06-27 02:31:36 TV-HD-FR Schitts.Creek.S03E07.FRENCH.720p.WEB.H264-PROPJOE
2021-06-27 02:31:45 MP3 Simula-Scarab-(NEX002)-SINGLE-WEB-2020-PTC
2021-06-27 02:31:51 TV-SD-FR Schitts.Creek.S03E07.FRENCH.WEB.H264-PROPJOE
2021-06-27 02:32:14 MP3 Hexa-War_Cries__Delta-(NEX004)-WEB-2020-PTC
2021-06-27 02:32:27 BLURAY-FULL Parks.and.Recreation.S05D01.COMPLETE.BLURAY-SLIPSTREAM
2021-06-27 02:32:42 TV-HD-FR Schitts.Creek.S03E08.FRENCH.720p.WEB.H264-PROPJOE
2021-06-27 02:33:02 FLAC VA-Starlight-CD-FLAC-1999-FLACME
2021-06-27 02:33:07 TV-SD-FR Schitts.Creek.S03E08.FRENCH.WEB.H264-PROPJOE
2021-06-27 02:33:08 MP3 Annix-Substance-(NEX007)-SINGLE-WEB-2021-PTC
2021-06-27 02:33:32 TV-HD-FR Schitts.Creek.S03E09.FRENCH.720p.WEB.H264-PROPJOE
2021-06-27 02:33:48 MP3 Resume_and_Warhead-Ghouls_N_Ghosts__Mind_Games-(S170002)-WEB-2021-PTC
2021-06-27 02:33:57 TV-SD-FR Schitts.Creek.S03E09.FRENCH.WEB.H264-PROPJOE
2021-06-27 02:33:59 X264-HD-DE Leprechaun.Returns.2018.German.DL.1080p.BluRay.AVC-ROCKEFELLER
2021-06-27 02:34:00 TV-HD-FR Schitts.Creek.S03E10.FRENCH.720p.WEB.H264-PROPJOE
2021-06-27 02:34:26 TV-HD-FR Schitts.Creek.S03E11.FRENCH.720p.WEB.H264-PROPJOE
2021-06-27 02:34:28 BLURAY-FULL Parks.and.Recreation.S05D02.COMPLETE.BLURAY-SLIPSTREAM
2021-06-27 02:34:29 MP3 Simula-Blood_Worm-(NEX009)-SINGLE-WEB-2021-PTC
2021-06-27 02:34:59 BLURAY-FULL Parks.and.Recreation.S05D03.COMPLETE.BLURAY-SLIPSTREAM
2021-06-27 02:35:06 TV-HD-FR Schitts.Creek.S03E12.FRENCH.720p.WEB.H264-PROPJOE
2021-06-27 02:35:16 FLAC VA-Thanksgiving_A_Windham_Hill_Collection-CD-FLAC-1998-FLACME
2021-06-27 02:35:19 TV-HD-FR Schitts.Creek.S03E13.FiNAL.FRENCH.720p.WEB.H264-PROPJOE
2021-06-27 02:35:20 TV-SD-FR Schitts.Creek.S03E12.FRENCH.WEB.H264-PROPJOE
2021-06-27 02:35:20 TV-SD-FR Schitts.Creek.S03E11.FRENCH.WEB.H264-PROPJOE
2021-06-27 02:35:53 TV-SD-FR Schitts.Creek.S03E13.FiNAL.FRENCH.WEB.H264-PROPJOE
2021-06-27 02:36:28 TV-SD-FR Schitts.Creek.S03E10.FRENCH.WEB.H264-PROPJOE
2021-06-27 02:37:28 FLAC VA-Wastelands_Presents_Guests_Of_Honor-CD-FLAC-2004-FLACME
2021-06-27 02:37:28 MP3 Yeison_Jimenez-Todo_De_Mi_Vol._4-ES-WEB-2017-RUIDO_INT
2021-06-27 02:37:49 MP3 Yeison_Jimenez-Mi_Promesa-ES-WEB-2019-RUIDO_INT
2021-06-27 02:38:03 MP3 Yeison_Jimenez-Quinto_Elemento-ES-EP-WEB-2021-RUIDO_INT
2021-06-27 02:47:42 MP3 Sober-ELEGIA-ES-WEB-2021-RUIDO_INT
2021-06-27 02:49:56 XXX SubmissiveX.21.02.05.Ariel.X.And.Maya.Kendrick.Super.X.In.Peril.XXX.1080p.MP4-FETiSH
2021-06-27 02:51:23 BLURAY-FULL Leprechaun.Returns.2019.COMPLETE.BLURAY-PENTAGON
2021-06-27 02:52:29 XXX SubmissiveX.21.02.12.Will.Tile.Vs.Ariel.X.Competitive.Wrestling.XXX.1080p.MP4-FETiSH
2021-06-27 02:52:38 TV-HD-SP Ciclos.S02E07.SPANiSH.1080p.WEB.h264-ENDURANCE
2021-06-27 02:53:13 TV-HD-SP Ciclos.S02E07.SPANiSH.720p.WEB.h264-ENDURANCE
2021-06-27 02:53:43 TV-HD-SP Ciclos.S02E07.SPANiSH.HDR.2160p.WEB.h265-ENDURANCE
2021-06-27 02:54:16 TV-HD-SP Home.Before.Dark.S02E03.SPANiSH.1080p.WEB.h264-ENDURANCE
2021-06-27 02:54:49 TV-HD-SP Home.Before.Dark.S02E03.SPANiSH.720p.WEB.h264-ENDURANCE
2021-06-27 02:54:57 XXX SubmissiveX.21.02.19.Ariel.X.And.Jenevieve.Hexxx.XXX.1080p.MP4-FETiSH
2021-06-27 02:55:21 TV-HD-SP Home.Before.Dark.S02E03.SPANiSH.HDR.2160p.WEB.h265-ENDURANCE
2021-06-27 02:55:55 TV-HD-SP La.Historia.de.Lisey.S01E05.SPANiSH.1080p.WEB.h264-ENDURANCE
2021-06-27 02:56:27 TV-HD-SP La.Historia.de.Lisey.S01E05.SPANiSH.720p.WEB.h264-ENDURANCE
2021-06-27 02:57:00 TV-HD-SP La.Historia.de.Lisey.S01E05.SPANiSH.HDR.2160p.WEB.h265-ENDURANCE
2021-06-27 02:57:28 XXX SubmissiveX.21.02.26.Ariel.X.And.Cheyenne.Jewel.XXX.1080p.MP4-FETiSH
2021-06-27 02:57:33 TV-HD-SP Mythic.Quest.Banquete.De.Cuervos.S02E09.SPANiSH.1080p.WEB.h264-ENDURANCE
2021-06-27 02:58:05 TV-HD-SP Mythic.Quest.Banquete.De.Cuervos.S02E09.SPANiSH.720p.WEB.h264-ENDURANCE
2021-06-27 02:58:38 TV-HD-SP Mythic.Quest.Banquete.De.Cuervos.S02E09.SPANiSH.HDR.2160p.WEB.h265-ENDURANCE
2021-06-27 02:58:51 X264-SD-DE Monster.Force.Zero.German.2020.AC3.BDRiP.x264-ROCKEFELLER
2021-06-27 02:59:14 TV-HD-SP Physical.S01E04.SPANiSH.1080p.WEB.h264-ENDURANCE
2021-06-27 02:59:42 TV-HD-SP Physical.S01E04.SPANiSH.720p.WEB.h264-ENDURANCE
2021-06-27 02:59:48 MP3 Secret_Cinema-Gem_FM_211-SAT-27-06-2021-1KING
2021-06-27 02:59:59 TV-X264 TSPussyHunters.13.03.01.Joanna.Jet.And.Bonnie.Day.XXX.720p.MP4-FETiSH
2021-06-27 03:00:13 TV-HD-SP Physical.S01E04.SPANiSH.HDR.2160p.WEB.h265-ENDURANCE
2021-06-27 03:00:46 TV-HD-SP Sex.Life.2021.S01E01.SPANiSH.1080p.WEB.h264-ENDURANCE
2021-06-27 03:01:20 TV-HD-SP Sex.Life.2021.S01E01.SPANiSH.720p.WEB.h264-ENDURANCE
2021-06-27 03:01:52 TV-HD-SP Sex.Life.2021.S01E02.SPANiSH.1080p.WEB.h264-ENDURANCE
2021-06-27 03:02:22 X264-HD-DE Das.Weihnachtsglueck.Liebe.ist.das.schoenste.Geschenk.2019.German.AC3D.DL.720p.WEBRip.x264-CLASSiCALHD
2021-06-27 03:02:25 TV-HD-SP Sex.Life.2021.S01E02.SPANiSH.720p.WEB.h264-ENDURANCE
2021-06-27 03:02:32 TV-X264 TSPussyHunters.13.03.08.Tiffany.Starr.And.Katja.Kassin.XXX.720p.MP4-FETiSH
2021-06-27 03:02:58 TV-HD-SP Sex.Life.2021.S01E03.SPANiSH.1080p.WEB.h264-ENDURANCE
2021-06-27 03:03:20 TV-X264 Monster.Force.Zero.2020.German.720p.BluRay.x264-ROCKEFELLER
2021-06-27 03:03:30 TV-HD-SP Sex.Life.2021.S01E03.SPANiSH.720p.WEB.h264-ENDURANCE
2021-06-27 03:04:02 TV-HD-SP Sex.Life.2021.S01E04.SPANiSH.1080p.WEB.h264-ENDURANCE
2021-06-27 03:04:35 TV-HD-SP Sex.Life.2021.S01E04.SPANiSH.720p.WEB.h264-ENDURANCE
2021-06-27 03:05:03 TV-X264 TSPussyHunters.13.03.15.Francesca.Le.TS.Foxxy.And.Bella.Rossi.XXX.720p.MP4-FETiSH
2021-06-27 03:05:08 TV-HD-SP Sex.Life.2021.S01E05.SPANiSH.1080p.WEB.h264-ENDURANCE
2021-06-27 03:05:39 TV-HD-SP Sex.Life.2021.S01E05.SPANiSH.720p.WEB.h264-ENDURANCE
2021-06-27 03:06:31 TV-HD-SP Sex.Life.2021.S01E06.SPANiSH.1080p.WEB.h264-ENDURANCE
2021-06-27 03:07:03 TV-HD-SP Sex.Life.2021.S01E06.SPANiSH.720p.WEB.h264-ENDURANCE
2021-06-27 03:07:34 TV-X264 TSPussyHunters.13.03.22.Jacqueline.Woods.And.Dylan.Ryan.XXX.720p.MP4-FETiSH
2021-06-27 03:07:36 TV-HD-SP Sex.Life.2021.S01E07.SPANiSH.1080p.WEB.h264-ENDURANCE
2021-06-27 03:08:08 TV-HD-SP Sex.Life.2021.S01E07.SPANiSH.720p.WEB.h264-ENDURANCE
2021-06-27 03:08:22 X264-HD-DE Monster.Force.Zero.2020.German.DL.1080p.BluRay.AVC-ROCKEFELLER
2021-06-27 03:08:41 TV-HD-SP Sex.Life.2021.S01E08.SPANiSH.1080p.WEB.h264-ENDURANCE
2021-06-27 03:09:16 TV-HD-SP Sex.Life.2021.S01E08.SPANiSH.720p.WEB.h264-ENDURANCE
2021-06-27 03:10:32 TV-X264 TSPussyHunters.13.03.29.Vaniity.And.Lia.Lor.XXX.720p.MP4-FETiSH
2021-06-27 03:13:03 XXX KinkyBites.21.06.25.Cam.Damage.And.Rayvn.Alexa.XXX.1080p.MP4-FETiSH
2021-06-27 03:15:35 XXX GirlsRimming.21.06.26.Alba.Lala.And.Tia.Diamond.Bartender.Bartered.XXX.1080p.MP4-FETiSH
2021-06-27 03:18:08 XXX LatinaAbuse.E207.Tamales.And.Tetats.XXX.1080p.MP4-FETiSH
2021-06-27 03:19:04 MP3 Vaire-Introspeccio-CA-WEB-2021-RUIDO_INT
2021-06-27 03:20:39 XXX BlackPayBack.E61.Snaggletoof.XXX.1080p.MP4-FETiSH
2021-06-27 03:23:09 XXX FacialAbuse.E815.MILF.Modernity.XXX.1080p.MP4-FETiSH
2021-06-27 03:25:41 XXX FacialAbuse.E816.Double.Dicked.XXX.1080p.MP4-FETiSH
2021-06-27 03:27:55 MP3 Brett_Young-Weekends_Look_A_Little_Different_These_Days-2021-MTD
2021-06-27 03:30:27 MP3 Sons_of_Kemet-Black_To_The_Future-2021-MTD
2021-06-27 03:33:28 MP3 Steve_Earle_And_The_Dukes-J.T.-2021-MTD
2021-06-27 03:35:52 FLAC Brett_Young-Weekends_Look_A_Little_Different_These_Days-CD-FLAC-2021-FORSAKEN
2021-06-27 03:37:46 MP3 The_Steve_Miller_Band-Welcome_To_The_Vault-3CD-2019-MTD
2021-06-27 03:38:52 FLAC Greta_Van_Fleet-The_Battle_At_Gardens_Gate-CD-FLAC-2021-FORSAKEN
2021-06-27 03:39:21 MP3 Solvane_and_Nicone_and_Mononoid-Radio_Butzke-SAT-06-26-2021-PTC
2021-06-27 03:39:41 MP3 The_Stooges-Live_At_Goose_Lake_August_8_1970-2020-MTD
2021-06-27 03:40:17 MP3 Booty_Carell-Selektor-SAT-06-26-2021-PTC
2021-06-27 03:41:06 MP3 IndiAlman-Selektor-SAT-06-26-2021-PTC
2021-06-27 03:41:15 MP3 Toumani_Diabate_and_London_Symphony_Orchestra-Korolen-2021-MTD
2021-06-27 03:41:55 FLAC Sons_of_Kemet-Black_To_The_Future-CD-FLAC-2021-FORSAKEN
2021-06-27 03:42:13 MP3 Toya_Delazy-Selektor-SAT-06-26-2021-PTC
2021-06-27 03:43:03 MP3 Travis_Tritt-Set_In_Stone-2021-MTD
2021-06-27 03:44:23 FLAC Steve_Earle_and_The_Dukes-J.T.-CD-FLAC-2021-FORSAKEN
2021-06-27 03:58:44 FLAC The_Stooges-Live_At_Goose_Lake_August_8_1970-CD-FLAC-2020-FORSAKEN
2021-06-27 03:59:57 FLAC The_Steve_Miller_Band-Welcome_To_The_Vault-3CD-FLAC-2019-FORSAKEN
2021-06-27 04:01:35 FLAC Toumani_Diabate_and_London_Symphony_Orchestra-Korolen-CD-FLAC-2021-FORSAKEN
2021-06-27 04:02:22 MP3 Moguai-1LIVE_DJ_Session-SAT-06-26-2021-PTC
2021-06-27 04:08:51 MP3 Philipp_Ruhmhardt-Plattenleger-SAT-06-27-2021-PTC
2021-06-27 04:10:53 FLAC Travis_Tritt-Set_In_Stone-CD-FLAC-2021-FORSAKEN
2021-06-27 04:19:47 FLAC VA-Double_Take-CD-FLAC-1994-FLACME
2021-06-27 04:21:58 FLAC VA-Go_Country-3CD-FLAC-1996-FLACME
2021-06-27 04:24:12 FLAC VA-Grammys_Greatest_Moments-Volume_I-CD-FLAC-1994-FLACME
2021-06-27 04:26:23 FLAC VA-Hits_Ride_On-CD-FLAC-1990-FLACME
2021-06-27 04:28:21 MP3 Hobin_Rude_and_SALAZAR_(COL)-Maeror__Lacrimae-(SB005)-WEB-2021-PTC
2021-06-27 04:28:33 FLAC VA-Love_Song_Dedications_Volume_3-2CD-FLAC-2003-FLACME
2021-06-27 04:30:26 FLAC Young_Dolph_DJ_Scream_Bigga_Rankin-High_Class_Street_Music_4-American_Gangster-Promo-CDR-FLAC-2014-CALiFLAC
2021-06-27 04:30:47 FLAC VA-Power_Ballads_III_The_Greatest_Driving_Anthems_In_The_World_Ever-2CD-FLAC-2004-FLACME
2021-06-27 04:37:31 TV-X264 Attack.On.Titan.S04E16.1080p.HDTV.x264-WAiFU
2021-06-27 04:49:06 TV-X264 Attack.On.Titan.S04E16.DUBBED.720p.HDTV.x264-WAiFU
2021-06-27 04:56:13 TV-HD-SP Central.Park.S02E01.SPANiSH.1080p.WEB.h264-ENDURANCE
2021-06-27 04:56:44 TV-HD-SP Central.Park.S02E01.SPANiSH.720p.WEB.h264-ENDURANCE
2021-06-27 04:57:18 TV-HD-SP Central.Park.S02E01.SPANiSH.HDR.2160p.WEB.h265-ENDURANCE
2021-06-27 04:57:51 TV-HD-SP Central.Park.S02E02.SPANiSH.1080p.WEB.h264-ENDURANCE
2021-06-27 04:58:22 TV-HD-SP Central.Park.S02E02.SPANiSH.720p.WEB.h264-ENDURANCE
2021-06-27 04:58:56 TV-HD-SP Central.Park.S02E02.SPANiSH.HDR.2160p.WEB.h265-ENDURANCE
2021-06-27 04:59:28 TV-HD-SP Central.Park.S02E03.SPANiSH.1080p.WEB.h264-ENDURANCE
2021-06-27 05:00:00 TV-HD-SP Central.Park.S02E03.SPANiSH.720p.WEB.h264-ENDURANCE
2021-06-27 05:00:33 TV-HD-SP Central.Park.S02E03.SPANiSH.HDR.2160p.WEB.h265-ENDURANCE
2021-06-27 05:07:03 XXX HandsOnHardcore.21.06.27.Chloe.And.Nicole.Love.Anal.Sluts.Hardcore.Orgie.XXX.1080p.MP4-WRB
2021-06-27 05:07:24 MP3 Jochem_Hamerling-Panorama_080-SAT-27-06-2021-1KING
2021-06-27 05:08:59 MP3 Franky_Rizardo-Flow_404-SAT-27-06-2021-1KING
2021-06-27 05:12:40 TV-HD Malawi.Wildlife.Rescue.S01E06.Catch.Me.If.You.Can.1080p.WEB.h264-CAFFEiNE
2021-06-27 05:12:58 TV-X264 Malawi.Wildlife.Rescue.S01E06.Catch.Me.If.You.Can.720p.WEB.h264-CAFFEiNE
2021-06-27 05:13:13 TV-SD Malawi.Wildlife.Rescue.S01E06.Catch.Me.If.You.Can.WEB.h264-CAFFEiNE
2021-06-27 05:13:15 MP3 VA--A_State_Of_Trance_Top_20_2021_Vol_1_(Selected_by_Armin_van_Buuren)-(ARDI4313)-WEB-2021-KPS
2021-06-27 05:13:26 TV-HD Searching.for.Secrets.S01E03.London.1080p.WEB.h264-CAFFEiNE
2021-06-27 05:13:41 TV-X264 Searching.for.Secrets.S01E03.London.720p.WEB.h264-CAFFEiNE
2021-06-27 05:13:55 TV-SD Searching.for.Secrets.S01E03.London.WEB.h264-CAFFEiNE
2021-06-27 05:14:12 TV-HD Tomb.Hunters.S01E01.Secrets.of.the.Mega-Tomb.1080p.WEB.h264-CAFFEiNE
2021-06-27 05:14:26 TV-X264 Tomb.Hunters.S01E01.Secrets.of.the.Mega-Tomb.720p.WEB.h264-CAFFEiNE
2021-06-27 05:14:41 TV-SD Tomb.Hunters.S01E01.Secrets.of.the.Mega-Tomb.WEB.h264-CAFFEiNE
2021-06-27 05:16:54 MP3 Wasp_feat._Deaf_Joe-Laid_Bare-(MAN323)-WEB-2021-PTC
2021-06-27 05:17:24 MP3 Kamilo_Sanclemente-Dew-(MAN324)-SINGLE-WEB-2021-PTC
2021-06-27 05:18:25 MP3 Irene_Radice-Foehn_EP-(MAN328)-WEB-2021-PTC
2021-06-27 05:19:11 MP3 Riigs_and_Skenna-One_More_Love-(MAN329)-WEB-2021-PTC
2021-06-27 05:35:12 FLAC Bankroll_Fresh-Life_Of_A_Hot_Boy_2-Real_Trapper_Hosted_By_DJ_Pretty_Boy_Tank_DJ_Spinz-Promo-CDR-FLAC-2015-CALiFLAC
2021-06-27 05:42:10 TV-HD Catherine.Queen.in.Waiting.2021.1080p.HDTV.H264-DARKFLiX
2021-06-27 05:42:56 TV-X264 Catherine.Queen.in.Waiting.2021.720p.HDTV.x264-DARKFLiX
2021-06-27 05:43:15 MP3 Joyhauser_-_In_The_Mix_(Studio_Brussel)-CABLE-06-26-2021-TALiON
2021-06-27 05:43:42 TV-HD Glastonbury.in.the.21st.Century.2021.1080p.HDTV.H264-DARKFLiX
2021-06-27 05:44:21 MP3 Lola_Haro_-_In_The_Mix_(Studio_Brussel)-CABLE-06-27-2021-TALiON
2021-06-27 05:44:32 TV-X264 Glastonbury.in.the.21st.Century.2021.720p.HDTV.x264-DARKFLiX
2021-06-27 05:45:20 TV-HD UEFA.Euro.2020.2021.06.26.Ro16.Italy.Vs.Austria.1080p.HDTV.H264-DARKSPORT
2021-06-27 05:46:04 TV-X264 UEFA.Euro.2020.2021.06.26.Ro16.Italy.Vs.Austria.720p.HDTV.x264-DARKSPORT
2021-06-27 05:46:04 MP3 Esther_Coolen_-_Rumble__Incl_Fred_V_Guestmix_(Studio_Brussel)-CABLE-06-27-2021-TALiON
2021-06-27 05:52:33 TV-X264 War.of.the.Worlds.2019.S02E07.720p.WEB.H264-GLHF
2021-06-27 05:52:43 TV-X264 War.of.the.Worlds.2019.S02E07.1080p.WEB.H264-GLHF
2021-06-27 05:52:55 TV-X264 War.of.the.Worlds.2019.S02E08.1080p.WEB.H264-GGEZ
2021-06-27 05:53:07 TV-X264 War.of.the.Worlds.2019.S02E08.720p.WEB.H264-GGEZ
2021-06-27 06:00:29 MP3 Olivier_Weiter_-_Weiter_Radio-CABLE-06-27-2021-TALiON
2021-06-27 06:00:30 TV-X264 Run.the.World.S01E06.720p.WEB.H264-GLHF
2021-06-27 06:00:33 TV-X264 Run.the.World.S01E06.1080p.WEB.H264-GLHF
2021-06-27 06:00:55 TV-X264 Blindspotting.S01E03.720p.WEB.H264-GLHF
2021-06-27 06:01:03 TV-X264 Blindspotting.S01E03.1080p.WEB.H264-GLHF
2021-06-27 06:01:21 TV-X264 The.Chi.S04E06.720p.WEB.H264-GGEZ
2021-06-27 06:01:32 TV-X264 Flatbush.Misdemeanors.S01E06.1080p.WEB.h264-GOSSIP
2021-06-27 06:01:37 TV-X264 Black.Monday.S03E06.1080p.WEB.h264-GOSSIP
2021-06-27 06:01:39 TV-X264 The.Chi.S04E06.1080p.WEB.H264-GGWP
2021-06-27 06:01:48 TV-X265 Black.Monday.S03E06.HDR.2160p.WEB.H265-GLHF
2021-06-27 06:01:52 TV-X265 Black.Monday.S03E06.2160p.WEB.H265-GLHF
2021-06-27 06:02:23 TV-X264 Flatbush.Misdemeanors.S01E06.720p.WEB.H264-GGWP
2021-06-27 06:02:53 TV-X264 Black.Monday.S03E06.720p.WEB.h264-GOSSIP
2021-06-27 06:03:23 TV-HD The.Chi.S04E06.HDR.2160p.WEB.H265-GLHF
2021-06-27 06:03:24 XXX AbbyWinters.21.06.26.Sasha.B.On.The.Floor.XXX.1080p.MP4-WRB
2021-06-27 06:03:36 TV-X265 The.Chi.S04E06.2160p.WEB.H265-GLHF
2021-06-27 06:04:35 TV-X265 Flatbush.Misdemeanors.S01E06.2160p.WEB.H265-GLHF
2021-06-27 06:04:40 TV-HD Flatbush.Misdemeanors.S01E06.HDR.2160p.WEB.H265-GLHF
2021-06-27 06:05:45 XXX BangBros18.21.06.27.Kylie.Quinn.XXX.1080p.MP4-WRB
2021-06-27 06:06:56 MP3 Nicole_Moudaber-In_the_MOOD_374-SAT-06-27-2021-PTC
2021-06-27 06:09:43 MP3 Angel_Sandoval-Urban_Cowboy-WEB-2019-RAGEMP3
2021-06-27 06:10:03 TV-SD-FR Ces.Incroyables.Locations.De.Vacances.S01E01.FRENCH.WEB.H264-PROXADNET
2021-06-27 06:11:03 MP3 Anonymous_That_Dude-Duffle_Bag_Diaries_2-WEB-2020-RAGEMP3
2021-06-27 06:12:02 XXX PlayboyPlus.21.06.27.National.Sunglasses.Day.XXX.1080p.MP4-WRB
2021-06-27 06:13:27 TV-X264 DesperateAmateurs.21.06.27.Jynxx.XXX.720p.MP4-WRB
2021-06-27 06:15:16 XXX HijabHookup.21.06.27.Vanessa.Vox.Horny.Hijabis.XXX.1080p.MP4-WRB
2021-06-27 06:17:14 TV-SD-FR Ces.Incroyables.Locations.De.Vacances.S01E02.FRENCH.WEB.H264-PROXADNET
2021-06-27 06:17:38 MP3 Benjamin_Boi-Blue_Face_Benjamins-WEB-2017-RAGEMP3
2021-06-27 06:17:53 XXX StayHomePOV.21.06.27.Alexia.Anders.Avoiding.Eviction.XXX.1080p.MP4-WRB
2021-06-27 06:19:39 XXX ATKGirlfriends.21.06.27.Compilation.XXX.1080p.MP4-WRB
2021-06-27 06:19:48 MP3 Bruce_Banna-Fly_Gangstaz_2-WEB-2021-RAGEMP3
2021-06-27 06:21:37 XXX ATKGirlfriends.21.06.27.Compilation.XXX.2160p.MP4-WRB
2021-06-27 06:25:39 XXX Watch4Beauty.21.06.27.Blue.Vennus.New.Talent.Backstage.XXX.2160p.MP4-WRB
2021-06-27 06:26:45 TV-X264 Meerkat.Manor.Rise.of.the.Dynasty.S01E04.1080p.WEBRip.x264-BAE
2021-06-27 06:26:47 TV-X264 Meerkat.Manor.Rise.of.the.Dynasty.S01E04.720p.WEBRip.x264-BAE
2021-06-27 06:26:50 TV-SD Meerkat.Manor.Rise.of.the.Dynasty.S01E04.WEBRip.x264-BAE
2021-06-27 06:26:53 XXX SexMex.21.06.27.Sara.Blonde.Sex.In.Prison.XXX.1080p.MP4-WRB
2021-06-27 06:28:25 TV-SD-FR Ces.Incroyables.Locations.De.Vacances.S01E03.FRENCH.WEB.H264-PROXADNET
2021-06-27 06:28:35 TV-SD-FR Ces.Incroyables.Locations.De.Vacances.S01E04.FRENCH.WEB.H264-PROXADNET
2021-06-27 06:28:45 MP3 Comptons_Most_Wanted-Music_To_Driveby-1992-RAGEMP3_INT
2021-06-27 06:28:48 TV-SD-FR Ces.Incroyables.Locations.De.Vacances.S01E05.FRENCH.WEB.H264-PROXADNET
2021-06-27 06:30:26 XXX PervMom.21.06.27.Tricia.Oaks.Dickcoin.XXX.1080p.MP4-WRB
2021-06-27 06:30:38 TV-X264 Trevor.Moore.Talk.Show.S02E01.1080p.WEB.h264-BAE
2021-06-27 06:31:07 TV-X264 Trevor.Moore.Talk.Show.S02E01.720p.WEB.h264-BAE
2021-06-27 06:31:28 TV-SD Trevor.Moore.Talk.Show.S02E01.WEB.h264-BAE
2021-06-27 06:31:44 MP3 Cool_Nutz-Failure_Is_The_Feeling-WEB-2021-RAGEMP3
2021-06-27 06:31:53 TV-X264 Trevor.Moore.Talk.Show.S02E02.1080p.WEB.h264-BAE
2021-06-27 06:32:17 TV-X264 Trevor.Moore.Talk.Show.S02E02.720p.WEB.h264-BAE
2021-06-27 06:32:42 TV-SD Trevor.Moore.Talk.Show.S02E02.WEB.h264-BAE
2021-06-27 06:33:07 TV-X264 Trevor.Moore.Talk.Show.S02E03.1080p.WEB.h264-BAE
2021-06-27 06:33:32 TV-X264 Trevor.Moore.Talk.Show.S02E03.720p.WEB.h264-BAE
2021-06-27 06:33:57 TV-SD Trevor.Moore.Talk.Show.S02E03.WEB.h264-BAE
2021-06-27 06:34:22 TV-X264 Trevor.Moore.Talk.Show.S02E04.1080p.WEB.h264-BAE
2021-06-27 06:34:47 TV-X264 Trevor.Moore.Talk.Show.S02E04.720p.WEB.h264-BAE
2021-06-27 06:35:13 TV-SD Trevor.Moore.Talk.Show.S02E04.WEB.h264-BAE
2021-06-27 06:35:38 TV-X264 Trevor.Moore.Talk.Show.S02E05.1080p.WEB.h264-BAE
2021-06-27 06:36:03 TV-X264 Trevor.Moore.Talk.Show.S02E05.720p.WEB.h264-BAE
2021-06-27 06:36:27 TV-SD Trevor.Moore.Talk.Show.S02E05.WEB.h264-BAE
2021-06-27 06:36:53 TV-X264 Trevor.Moore.Talk.Show.S02E06.1080p.WEB.h264-BAE
2021-06-27 06:37:17 TV-X264 Trevor.Moore.Talk.Show.S02E06.720p.WEB.h264-BAE
2021-06-27 06:37:42 TV-SD Trevor.Moore.Talk.Show.S02E06.WEB.h264-BAE
2021-06-27 06:38:05 MP3 Criminal_Manne-Blow_3-WEB-2020-RAGEMP3
2021-06-27 06:38:08 TV-X264 100.Ideas.To.Save.The.World.S01E02.1080p.HDTV.H264-DARKFLiX
2021-06-27 06:38:53 TV-X264 100.Ideas.To.Save.The.World.S01E02.720p.HDTV.x264-DARKFLiX
2021-06-27 06:44:54 MP3 Haarper-Evol-WEB-2019-RAGEMP3
2021-06-27 06:45:21 XXX AussieFellatioQueens.21.06.19.Avi.Love.And.Sasha.Stephens.Birthday.Present.XXX.1080p.MP4-WRB
2021-06-27 06:46:27 XXX AussieFellatioQueens.21.06.26.Laney.Day.Blowbang.XXX.1080p.MP4-WRB
2021-06-27 06:48:39 MP3 CW_Da_Youngblood-Coulda_Bought_Some_Youtube_Views_Instead_I_Bought_a_Brick-WEB-2019-RAGEMP3
2021-06-27 06:48:48 TV-HD-FR I.Speak.Francais.2019.DOC.FRENCH.720p.WEB.H264-DEAL
2021-06-27 06:49:41 XXX FallInLovia.21.06.05.Retro.Relaxation.XXX.1080p.MP4-WRB
2021-06-27 06:50:45 TV-SD-FR Ces.Incroyables.Locations.De.Vacances.S01E06.FRENCH.WEB.H264-PROXADNET
2021-06-27 06:51:19 XXX FallInLovia.21.06.05.Retro.Relaxation.XXX.2160p.MP4-WRB
2021-06-27 06:52:37 XXX FallInLovia.21.06.12.Romantic.JOI.XXX.1080p.MP4-WRB
2021-06-27 06:53:14 TV-SD-FR Ces.Incroyables.Locations.De.Vacances.S01E07.FRENCH.WEB.H264-PROXADNET
2021-06-27 06:54:15 XXX FallInLovia.21.06.12.Romantic.JOI.XXX.2160p.MP4-WRB
2021-06-27 06:56:20 XXX FallInLovia.21.06.26.Torn.Stockings.XXX.1080p.MP4-WRB
2021-06-27 06:56:40 TV-SD-FR Ces.Incroyables.Locations.De.Vacances.S01E08.FiNAL.FRENCH.WEB.H264-PROXADNET
2021-06-27 06:57:39 XXX FallInLovia.21.06.26.Torn.Stockings.XXX.2160p.MP4-WRB
2021-06-27 06:59:24 XXX MylfXMissLexa.21.06.27.Miss.Lexa.Fuck.With.A.View.XXX.1080p.MP4-WRB
2021-06-27 07:02:58 XXX Vixen.21.06.11.Honour.May.And.Ella.Hughes.XXX.1080p.MP4-NBQ
2021-06-27 07:05:58 TV-X264 Charmed.Zauberhafte.Hexen.S03E02.Hexenhochzeit.German.DL.1080p.BluRay.x264-PL3X
2021-06-27 07:07:26 XXX BlackAmbush.21.06.26.Kinsley.Kane.XXX.1080p.MP4-NBQ
2021-06-27 07:08:08 TV-X264 Charmed.Zauberhafte.Hexen.S03E02.Hexenhochzeit.German.DL.720p.BluRay.x264-PL3X
2021-06-27 07:09:01 TV-SD-DE Charmed.Zauberhafte.Hexen.S03E02.Hexenhochzeit.German.REMASTERED.BDRiP.x264-PL3X
2021-06-27 07:11:58 TV-X264 Charmed.Zauberhafte.Hexen.S03E03.Von.Feen.und.Trollen.German.DL.1080p.BluRay.x264-PL3X
2021-06-27 07:12:02 XXX LegalPorno.20.09.06.Lady.Gang.SZ2486.Piss.Version.XXX.1080p.MP4-NBQ
2021-06-27 07:12:47 TV-X264 Face.to.Face.S05E05.Inkstones.in.a.Digital.Age.1080p.HDTV.H264-DARKFLiX
2021-06-27 07:12:56 EBOOK Il.Corriere.Della.Sera.06.27.2021.iTALiAN.RETAiL.eBook-DiVER
2021-06-27 07:13:33 TV-X264 Face.to.Face.S05E05.Inkstones.in.a.Digital.Age.720p.HDTV.x264-DARKFLiX
2021-06-27 07:13:44 TV-X264 Charmed.Zauberhafte.Hexen.S03E03.Von.Feen.und.Trollen.German.DL.720p.BluRay.x264-PL3X
2021-06-27 07:14:38 TV-SD-DE Charmed.Zauberhafte.Hexen.S03E03.Von.Feen.und.Trollen.German.REMASTERED.BDRiP.x264-PL3X
2021-06-27 07:15:25 XXX AnalVids.20.09.25.Laura.Fiorentino.GIO1594.Piss.Version.XXX.1080p.MP4-NBQ
2021-06-27 07:17:44 TV-X264 Charmed.Zauberhafte.Hexen.S03E04.Das.Zeitportal.German.DL.1080p.BluRay.x264-PL3X
2021-06-27 07:19:11 TV-HD Glastonbury.2013.Arctic.Monkeys.1080p.HDTV.H264-DARKFLiX
2021-06-27 07:19:53 TV-X264 Charmed.Zauberhafte.Hexen.S03E04.Das.Zeitportal.German.DL.720p.BluRay.x264-PL3X
2021-06-27 07:19:58 TV-X264 Glastonbury.2013.Arctic.Monkeys.720p.HDTV.x264-DARKFLiX
2021-06-27 07:20:54 TV-SD-DE Charmed.Zauberhafte.Hexen.S03E04.Das.Zeitportal.German.REMASTERED.BDRiP.x264-PL3X
2021-06-27 07:22:38 XXX WoodmanCastingX.21.05.23.Shalina.Devine.Casting.Hard.XXX.1080p.MP4-NBQ
2021-06-27 07:23:02 TV-X264 Little.Charo.S01E13.1080p.HDTV.H264-DARKFLiX
2021-06-27 07:23:48 TV-X264 Little.Charo.S01E13.720p.HDTV.x264-DARKFLiX
2021-06-27 07:23:50 TV-X264 Charmed.Zauberhafte.Hexen.S03E05.Die.Daemonenfalle.German.DL.1080p.BluRay.x264-PL3X
2021-06-27 07:25:44 TV-X264 Charmed.Zauberhafte.Hexen.S03E05.Die.Daemonenfalle.German.DL.720p.BluRay.x264-PL3X
2021-06-27 07:26:43 TV-SD-DE Charmed.Zauberhafte.Hexen.S03E05.Die.Daemonenfalle.German.REMASTERED.BDRiP.x264-PL3X
2021-06-27 07:27:53 MP3 Coco_Budda-In_Real_Life-1999-CR_INT
2021-06-27 07:28:05 FLAC Coco_Budda-In_Real_Life-CD-FLAC-1999-CALiFLAC
2021-06-27 07:29:55 TV-X264 Charmed.Zauberhafte.Hexen.S03E06.Die.Macht.der.Gefuehle.German.DL.1080p.BluRay.x264-PL3X
2021-06-27 07:29:59 TV-HD Wild.Hokkaido.S04E14.Early.Summer.on.the.Ishikari.Coastline.1080p.HDTV.H264-DARKFLiX
2021-06-27 07:30:44 TV-X264 Wild.Hokkaido.S04E14.Early.Summer.on.the.Ishikari.Coastline.720p.HDTV.x264-DARKFLiX
2021-06-27 07:32:02 TV-X264 Charmed.Zauberhafte.Hexen.S03E06.Die.Macht.der.Gefuehle.German.DL.720p.BluRay.x264-PL3X
2021-06-27 07:32:53 TV-SD-DE Charmed.Zauberhafte.Hexen.S03E06.Die.Macht.der.Gefuehle.German.REMASTERED.BDRiP.x264-PL3X
2021-06-27 07:33:41 TV-HD Zeroing.In.Carbon.Neutral.2050.S01E06.Turning.the.Tide.1080p.HDTV.H264-DARKFLiX
2021-06-27 07:34:27 TV-X264 Zeroing.In.Carbon.Neutral.2050.S01E06.Turning.the.Tide.720p.HDTV.x264-DARKFLiX
2021-06-27 07:35:45 TV-X264 Charmed.Zauberhafte.Hexen.S03E07.Alle.oder.keine.German.DL.1080p.BluRay.x264-PL3X
2021-06-27 07:37:42 TV-X264 Charmed.Zauberhafte.Hexen.S03E07.Alle.oder.keine.German.DL.720p.BluRay.x264-PL3X
2021-06-27 07:38:34 TV-SD-DE Charmed.Zauberhafte.Hexen.S03E07.Alle.oder.keine.German.REMASTERED.BDRiP.x264-PL3X
2021-06-27 07:38:44 MP3 Pimpsta-South_Side_Soldiers_Part_II-1999-CR_INT
2021-06-27 07:39:05 FLAC Pimpsta-South_Side_Soldiers_Part_II-CD-FLAC-1999-CALiFLAC
2021-06-27 07:41:58 TV-X264 Charmed.Zauberhafte.Hexen.S03E08.Balthasar.German.DL.1080p.BluRay.x264-PL3X
2021-06-27 07:43:12 EBOOK La.Gazzetta.Dello.Sport.06.27.2021.iTALiAN.RETAiL.eBook-DiVER
2021-06-27 07:44:06 TV-X264 Charmed.Zauberhafte.Hexen.S03E08.Balthasar.German.DL.720p.BluRay.x264-PL3X
2021-06-27 07:44:55 TV-SD-DE Charmed.Zauberhafte.Hexen.S03E08.Balthasar.German.REMASTERED.BDRiP.x264-PL3X
2021-06-27 07:46:22 BLURAY-FULL-DE Wunschkonzert.1940.GERMAN.COMPLETE.BLURAY-OLDHAM
2021-06-27 07:46:51 XXX TheJerkOffGames.20.01.31.Big.Titty.Tatum.And.Clara.Dee.Tries.Not.To.Cum.1.XXX.1080p.MP4-WRB
2021-06-27 07:47:59 XXX AssholeFever.21.06.26.Francys.Belle.Shackled.By.Lust.XXX.1080p.MP4-WRB
2021-06-27 07:48:19 TV-X264 Charmed.Zauberhafte.Hexen.S03E09.Besessen.German.DL.1080p.BluRay.x264-PL3X
2021-06-27 07:49:39 XXX MommysGirl.21.06.26.Jessica.Ryan.And.Percy.Sires.Dont.Lift.A.Finger.XXX.1080p.MP4-WRB
2021-06-27 07:50:24 TV-X264 Charmed.Zauberhafte.Hexen.S03E09.Besessen.German.DL.720p.BluRay.x264-PL3X
2021-06-27 07:50:59 XXX DevilsFilm.21.06.27.Sarah.Lace.And.Adira.Allure.His.Wifes.Secret.Lez.Affair.XXX.1080p.MP4-WRB
2021-06-27 07:51:25 TV-X264 Somewhere.Street.S07E02.Santiago.de.Cuba.1080p.HDTV.H264-DARKFLiX
2021-06-27 07:52:10 TV-X264 Somewhere.Street.S07E02.Santiago.de.Cuba.720p.HDTV.x264-DARKFLiX
2021-06-27 07:54:11 XXX GotMylf.21.06.27.Kinuski.Leather.MILF.XXX.1080p.MP4-WRB
2021-06-27 07:54:15 TV-SD-DE Charmed.Zauberhafte.Hexen.S03E09.Besessen.German.REMASTERED.BDRiP.x264-PL3X
2021-06-27 07:58:07 X264-HD-DE Wunschkonzert.1940.German.1080p.BluRay.AVC-HOVAC
2021-06-27 07:58:46 TV-HD Wunschkonzert.1940.German.1080p.BluRay.x264-SPiCY
2021-06-27 07:59:24 TV-X264 Wunschkonzert.1940.German.720p.BluRay.x264-SPiCY
2021-06-27 08:01:11 TV-X264 Evil.S02E02.720p.WEB.H264-GGWP
2021-06-27 08:01:13 XXX RoccoSiffredi.21.06.26.Sybil.The.Spanish.Stallion.Field.Of.Sluts.Episode.1.XXX.1080p.MP4-WRB
2021-06-27 08:01:14 TV-X264 Evil.S02E02.1080p.WEB.H264-GLHF
2021-06-27 08:04:13 XXX RoccoSiffredi.21.06.26.Sybil.The.Spanish.Stallion.Field.Of.Sluts.Episode.1.XXX.2160p.MP4-WRB
2021-06-27 08:04:19 TV-SD-FR The.Sinner.S03E01.FRENCH.WEB.H264-PROXADNET
2021-06-27 08:04:20 TV-SD-FR The.Sinner.S03E02.FRENCH.WEB.H264-PROXADNET
2021-06-27 08:04:21 TV-SD-FR The.Sinner.S03E04.FRENCH.WEB.H264-PROXADNET
2021-06-27 08:04:22 TV-SD-FR The.Sinner.S03E03.FRENCH.WEB.H264-PROXADNET
2021-06-27 08:04:24 TV-SD-FR The.Sinner.S03E06.FRENCH.WEB.H264-PROXADNET
2021-06-27 08:04:25 TV-SD-FR The.Sinner.S03E07.FRENCH.WEB.H264-PROXADNET
2021-06-27 08:04:27 TV-SD-FR The.Sinner.S03E08.FiNAL.FRENCH.WEB.H264-PROXADNET
2021-06-27 08:04:28 TV-SD-FR The.Sinner.S03E05.FRENCH.WEB.H264-PROXADNET
2021-06-27 08:12:03 FLAC VA-Blu_Peter_Millennium_Mix-REPACK-CD-FLAC-2000-CALiFLAC
2021-06-27 08:13:16 TV-X264 Charmed.Zauberhafte.Hexen.S03E10.Wenn.der.Eismann.kommt.German.DL.1080p.BluRay.x264-PL3X
2021-06-27 08:15:13 TV-X264 Charmed.Zauberhafte.Hexen.S03E10.Wenn.der.Eismann.kommt.German.DL.720p.BluRay.x264-PL3X
2021-06-27 08:16:09 TV-SD-DE Charmed.Zauberhafte.Hexen.S03E10.Wenn.der.Eismann.kommt.German.REMASTERED.BDRiP.x264-PL3X
2021-06-27 08:19:10 TV-X264 Charmed.Zauberhafte.Hexen.S03E11.Gegen.alle.Regeln.German.DL.1080p.BluRay.x264-PL3X
2021-06-27 08:21:03 TV-X264 Charmed.Zauberhafte.Hexen.S03E11.Gegen.alle.Regeln.German.DL.720p.BluRay.x264-PL3X
2021-06-27 08:21:56 MP3 Wadz_The_Fonkfather-The_Remix_LP_New_Edition_Vol._1-WEB-2015-RAGEMP3
2021-06-27 08:21:56 TV-SD-DE Charmed.Zauberhafte.Hexen.S03E11.Gegen.alle.Regeln.German.REMASTERED.BDRiP.x264-PL3X
2021-06-27 08:24:55 TV-X264 Charmed.Zauberhafte.Hexen.S03E12.Verlorene.Seelen.German.DL.1080p.BluRay.x264-PL3X
2021-06-27 08:26:36 MP3 Wadz_The_Fonkfather-The_Remix_LP_New_Edition_Vol._2-WEB-2015-RAGEMP3
2021-06-27 08:27:01 TV-X264 Charmed.Zauberhafte.Hexen.S03E12.Verlorene.Seelen.German.DL.720p.BluRay.x264-PL3X
2021-06-27 08:27:06 BLURAY-FULL Mandabi.1968.MULTi.COMPLETE.BLURAY-OLDHAM
2021-06-27 08:28:15 TV-SD-DE Charmed.Zauberhafte.Hexen.S03E12.Verlorene.Seelen.German.REMASTERED.BDRiP.x264-PL3X
2021-06-27 08:30:52 TV-X264 Charmed.Zauberhafte.Hexen.S03E13.Das.Boese.in.mir.German.DL.1080p.BluRay.x264-PL3X
2021-06-27 08:32:36 TV-X264 Charmed.Zauberhafte.Hexen.S03E13.Das.Boese.in.mir.German.DL.720p.BluRay.x264-PL3X
2021-06-27 08:33:29 TV-SD-DE Charmed.Zauberhafte.Hexen.S03E13.Das.Boese.in.mir.German.REMASTERED.BDRiP.x264-PL3X
2021-06-27 08:36:18 TV-X264 Charmed.Zauberhafte.Hexen.S03E14.Stadt.der.Geister.German.DL.1080p.BluRay.x264-PL3X
2021-06-27 08:38:21 TV-X264 Charmed.Zauberhafte.Hexen.S03E14.Stadt.der.Geister.German.DL.720p.BluRay.x264-PL3X
2021-06-27 08:39:28 TV-SD-DE Charmed.Zauberhafte.Hexen.S03E14.Stadt.der.Geister.German.REMASTERED.BDRiP.x264-PL3X
2021-06-27 08:42:30 TV-X264 Charmed.Zauberhafte.Hexen.S03E15.Trauung.mit.Hindernissen.German.DL.1080p.BluRay.x264-PL3X
2021-06-27 08:43:20 XXX MatureGapers.21.06.21.Michelle.XXX.1080p.MP4-WRB
2021-06-27 08:44:25 TV-X264 Charmed.Zauberhafte.Hexen.S03E15.Trauung.mit.Hindernissen.German.DL.720p.BluRay.x264-PL3X
2021-06-27 08:44:49 XXX FrolicMe.21.06.19.Jenifer.Jane.Rooftop.Lovers.XXX.1080p.MP4-WRB
2021-06-27 08:45:26 TV-SD-DE Charmed.Zauberhafte.Hexen.S03E15.Trauung.mit.Hindernissen.German.REMASTERED.BDRiP.x264-PL3X
2021-06-27 08:46:03 XXX FrolicMe.21.06.26.Elena.Vega.Finish.Me.Off.XXX.1080p.MP4-WRB
2021-06-27 08:47:25 XXX MrPov.21.06.25.Gia.Di.Bella.Pump.My.Tight.Cunt.XXX.1080p.MP4-WRB
2021-06-27 08:48:42 TV-X264 Charmed.Zauberhafte.Hexen.S03E16.Der.Tod.siegt.immer.German.DL.1080p.BluRay.x264-PL3X
2021-06-27 08:49:47 XXX PurgatoryX.21.06.25.Chloe.Amour.Beauty.And.The.Priest.Episode.6.XXX.1080p.MP4-WRB
2021-06-27 08:50:46 TV-X264 Charmed.Zauberhafte.Hexen.S03E16.Der.Tod.siegt.immer.German.DL.720p.BluRay.x264-PL3X
2021-06-27 08:51:38 TV-SD-DE Charmed.Zauberhafte.Hexen.S03E16.Der.Tod.siegt.immer.German.REMASTERED.BDRiP.x264-PL3X
2021-06-27 08:53:32 TV-SD-FR Seduction.Haute.Tension.S02E03.FRENCH.WEB.H264-PROXADNET
2021-06-27 08:53:32 TV-SD-FR Seduction.Haute.Tension.S02E02.FRENCH.WEB.H264-PROXADNET
2021-06-27 08:53:32 TV-SD-FR Seduction.Haute.Tension.S02E01.FRENCH.WEB.H264-PROXADNET
2021-06-27 08:53:33 TV-SD-FR Seduction.Haute.Tension.S02E04.FRENCH.WEB.H264-PROXADNET
2021-06-27 08:53:34 XXX Hitzefrei.21.06.22.Jolyne.Joy.GERMAN.XXX.1080p.MP4-WRB
2021-06-27 08:54:28 TV-HD Raya.And.The.Last.Dragon.2021.DUTCH.1080p.BluRay.x264-HDEX
2021-06-27 08:54:32 TV-SD-DE Charmed.Zauberhafte.Hexen.S03E17.Aller.guten.Dinge.sind.neun.German.REMASTERED.BDRiP.x264-PL3X
2021-06-27 08:56:27 XXX Hitzefrei.21.06.25.Melina.Pure.GERMAN.XXX.1080p.MP4-WRB
2021-06-27 08:56:43 TV-X264 Charmed.Zauberhafte.Hexen.S03E17.Aller.guten.Dinge.sind.neun.German.DL.720p.BluRay.x264-PL3X
2021-06-27 08:57:57 TV-X264 Raya.And.The.Last.Dragon.2021.DUTCH.720p.BluRay.x264-HDEX
2021-06-27 09:00:35 TV-X264 Charmed.Zauberhafte.Hexen.S03E18.Die.sieben.Todsuenden.German.DL.1080p.BluRay.x264-PL3X
2021-06-27 09:01:42 XXX FamilySwap.21.06.27.Jessica.Ryan.And.Michelle.Anthony.4th.Of.July.Family.Shootout.XXX.1080p.MP4-WRB
2021-06-27 09:02:23 TV-X264 Charmed.Zauberhafte.Hexen.S03E18.Die.sieben.Todsuenden.German.DL.720p.BluRay.x264-PL3X
2021-06-27 09:02:38 XXX NubileFilms.21.06.27.Eliza.Ibarra.And.Vanna.Bardot.Why.Dont.You.Join.Us.XXX.1080p.MP4-WRB
2021-06-27 09:03:16 TV-SD-DE Charmed.Zauberhafte.Hexen.S03E18.Die.sieben.Todsuenden.German.REMASTERED.BDRiP.x264-PL3X
2021-06-27 09:03:25 XXX MetArt.21.06.27.Sybil.A.Quiet.Lake.XXX.1080p.MP4-WRB
2021-06-27 09:04:21 XXX SexArt.21.06.27.Julia.De.Lucia.Unrestrained.XXX.1080p.MP4-WRB
2021-06-27 09:06:22 TV-X264 Charmed.Zauberhafte.Hexen.S03E19.Die.Bruderschaft.German.DL.1080p.BluRay.x264-PL3X
2021-06-27 09:06:39 XXX Nubiles.21.06.27.Agatha.Self.Ready.For.Fun.XXX.1080p.MP4-WRB
2021-06-27 09:08:04 TV-X264 Charmed.Zauberhafte.Hexen.S03E19.Die.Bruderschaft.German.DL.720p.BluRay.x264-PL3X
2021-06-27 09:08:05 XXX Nubiles.21.06.27.Haley.Spades.Platinum.Cutie.XXX.1080p.MP4-WRB
2021-06-27 09:08:54 TV-SD-DE Charmed.Zauberhafte.Hexen.S03E19.Die.Bruderschaft.German.REMASTERED.BDRiP.x264-PL3X
2021-06-27 09:09:32 X265 Baby.2020.GERMAN.2160P.WEB.X265-WAYNE
2021-06-27 09:10:48 XXX-IMAGESET MetArt.com_21.06.27.Jessica.Blank.Suspend.XXX.IMAGESET-FuGLi
2021-06-27 09:11:19 XXX FamilySwap.21.06.27.Jessica.Ryan.And.Michelle.Anthony.4th.Of.July.Family.Shootout.XXX.2160p.MP4-WRB
2021-06-27 09:11:23 X264-HD-DE Baby.2020.GERMAN.1080P.WEB.H264-WAYNE
2021-06-27 09:12:34 TV-X264 Charmed.Zauberhafte.Hexen.S03E20.Freund.oder.Feind.German.DL.1080p.BluRay.x264-PL3X
2021-06-27 09:12:44 XXX-IMAGESET MetArt.com_21.06.27.Lily.Poison.Back.And.Relax.XXX.IMAGESET-FuGLi
2021-06-27 09:12:48 TV-X264 NBA.2021.06.26.Phoenix.Suns.vs.Los.Angeles.Clippers.720p.WEB.H264-SPLASH
2021-06-27 09:12:49 X264-HD-DE Baby.2020.GERMAN.720P.WEB.H264-WAYNE
2021-06-27 09:14:01 XXX NubileFilms.21.06.27.Eliza.Ibarra.And.Vanna.Bardot.Why.Dont.You.Join.Us.XXX.2160p.MP4-WRB
2021-06-27 09:14:38 TV-X264 Charmed.Zauberhafte.Hexen.S03E20.Freund.oder.Feind.German.DL.720p.BluRay.x264-PL3X
2021-06-27 09:15:32 TV-SD-DE Charmed.Zauberhafte.Hexen.S03E20.Freund.oder.Feind.German.REMASTERED.BDRiP.x264-PL3X
2021-06-27 09:16:04 TV-HD-DE Blindspotting.S01E03.GERMAN.DL.1080P.WEB.H264-WAYNE
2021-06-27 09:16:55 XXX Anilos.21.06.27.Venera.Maxima.Golden.Touch.XXX.1080p.MP4-WRB
2021-06-27 09:17:02 TV-HD-DE Its.a.Sin.S01E02.GERMAN.DL.1080P.WEB.H264-WAYNE
2021-06-27 09:17:44 TV-HD-DE Run.the.World.S01E06.GERMAN.DL.1080P.WEB.H264-WAYNE
2021-06-27 09:17:45 XXX-IMAGESET MetArt.com_21.06.27.Martina.Mink.Dreamer.XXX.IMAGESET-FuGLi
2021-06-27 09:18:28 TV-HD-DE The.Girlfriend.Experience.S03E09.GERMAN.DL.1080P.WEB.H264-WAYNE
2021-06-27 09:19:01 XXX MetArt.21.06.27.Sybil.A.Quiet.Lake.XXX.2160p.MP4-WRB
2021-06-27 09:19:09 TV-X264 Charmed.Zauberhafte.Hexen.S03E21.Die.Todesfee.German.DL.1080p.BluRay.x264-PL3X
2021-06-27 09:19:16 TV-HD-DE Zoeys.Extraordinary.Playlist.S02E09.GERMAN.DL.1080P.WEB.H264-WAYNE
2021-06-27 09:19:38 XXX-IMAGESET TheLifeErotic.com_21.06.27.Elza.A.No.Restrictions.1.XXX.IMAGESET-FuGLi
2021-06-27 09:19:57 TV-HD-DE Zoeys.Extraordinary.Playlist.S02E10.GERMAN.DL.1080P.WEB.H264-WAYNE
2021-06-27 09:21:05 TV-HD-DE Loki.S01E01.GERMAN.DL.HDR.2160P.WEB.H265.INTERNAL-RiLE
2021-06-27 09:22:03 TV-HD-DE Loki.S01E02.GERMAN.DL.HDR.2160P.WEB.H265.INTERNAL-RiLE
2021-06-27 09:22:24 XXX SexArt.21.06.27.Julia.De.Lucia.Unrestrained.XXX.2160p.MP4-WRB
2021-06-27 09:22:56 TV-HD-DE Loki.S01E03.GERMAN.DL.HDR.2160P.WEB.H265.INTERNAL-RiLE
2021-06-27 09:24:36 TV-HD-DE Ex.on.the.Beach.S02E13.GERMAN.1080p.WEB.x264-RUBBiSH
2021-06-27 09:24:36 TV-X264 Charmed.Zauberhafte.Hexen.S03E21.Die.Todesfee.German.DL.720p.BluRay.x264-PL3X
2021-06-27 09:24:57 X264-HD-DE Die.Ueberweisung.1968.German.DL.1080p.BluRay.AVC-HOVAC
2021-06-27 09:27:47 TV-HD-DE Ex.on.the.Beach.S02E14.GERMAN.1080p.WEB.x264-RUBBiSH
2021-06-27 09:28:15 TV-X264 Charmed.Zauberhafte.Hexen.S03E22.Das.Ende.German.DL.1080p.BluRay.x264-PL3X
2021-06-27 09:29:16 TV-HD-DE Ex.on.the.Beach.S02E13.GERMAN.720p.WEB.x264-RUBBiSH
2021-06-27 09:29:45 X264-SD-DE Wunschkonzert.German.1940.AC3.BDRip.x264-SPiCY
2021-06-27 09:30:13 TV-X264 Charmed.Zauberhafte.Hexen.S03E22.Das.Ende.German.DL.720p.BluRay.x264-PL3X
2021-06-27 09:31:39 TV-SD-DE Charmed.Zauberhafte.Hexen.S03E22.Das.Ende.German.REMASTERED.BDRiP.x264-PL3X
2021-06-27 09:33:02 TV-SD-DE Charmed.Zauberhafte.Hexen.S03E21.Die.Todesfee.German.REMASTERED.BDRiP.x264-PL3X
2021-06-27 09:35:55 TV-HD-DE Ex.on.the.Beach.S02E14.GERMAN.720p.WEB.x264-RUBBiSH
2021-06-27 09:41:16 BLURAY-FULL Monster.Force.Zero.2020.COMPLETE.BLURAY-PENTAGON
2021-06-27 09:45:03 TV-HD NHK.Documentary.S11E12.2030.At.a.Crossroads.to.the.Future.Plastic.Pollution.The.Toxic.Cost.of.Mass.Consumption.1080p.HDTV.H264-DARKFLiX
2021-06-27 09:45:48 TV-X264 NHK.Documentary.S11E12.2030.At.a.Crossroads.to.the.Future.Plastic.Pollution.The.Toxic.Cost.of.Mass.Consumption.720p.HDTV.x264-DARKFLiX
2021-06-27 09:49:47 TV-X264 DCs.Legends.of.Tomorrow.S05E12.German.DL.1080p.BluRay.x264-AWARDS
2021-06-27 09:52:33 TV-HD Monster.Force.Zero.2020.German.DL.1080p.BluRay.x264-ROCKEFELLER
2021-06-27 09:53:30 MP3 Boysnoize--Nightwax_(Planet_Radio)-DVBS-06-25-2021-OMA
2021-06-27 09:55:53 MP3 Emotion--Nightwax_(Planet_Radio)-DVBS-06-25-2021-OMA
2021-06-27 09:57:58 TV-HD The.Bold.and.the.Beautiful.S34E140.1080p.WEB.h264-DiRT
2021-06-27 09:58:10 MP3 Techmouse--Nightwax_(Planet_Radio)-DVBS-06-25-2021-OMA
2021-06-27 09:58:56 TV-X264 The.Bold.and.the.Beautiful.S34E140.720p.WEB.h264-DiRT
2021-06-27 09:59:57 TV-HD The.Bold.and.the.Beautiful.S34E141.1080p.WEB.h264-DiRT
2021-06-27 10:00:55 TV-X264 The.Bold.and.the.Beautiful.S34E141.720p.WEB.h264-DiRT
2021-06-27 10:01:01 TV-HD-NORD Prince.Charming.DK.S01E06.DANiSH.720p.WEB.h264-HYGGE
2021-06-27 10:01:40 TV-HD-NORD Prince.Charming.DK.S01E06.DANiSH.1080p.WEB.h264-HYGGE
2021-06-27 10:01:57 TV-HD The.Bold.and.the.Beautiful.S34E142.1080p.WEB.h264-DiRT
2021-06-27 10:02:57 TV-X264 The.Bold.and.the.Beautiful.S34E142.720p.WEB.h264-DiRT
2021-06-27 10:03:55 XXX-IMAGESET Nubiles.net_21.06.27.Nasty.Naked.Fun.XXX.IMAGESET-FuGLi
2021-06-27 10:03:57 TV-HD The.Bold.and.the.Beautiful.S34E143.1080p.WEB.h264-DiRT
2021-06-27 10:04:56 TV-X264 The.Bold.and.the.Beautiful.S34E143.720p.WEB.h264-DiRT
2021-06-27 10:04:59 XXX ALSScan.21.06.27.Braylin.Bailey.Flood.Gates.XXX.1080p.MP4-WRB
2021-06-27 10:05:58 TV-HD The.Bold.and.the.Beautiful.S34E144.1080p.WEB.h264-DiRT
2021-06-27 10:05:59 TV-X264 The.Brave.Allein.gegen.das.Syndikat.2019.GERMAN.720p.BluRay.x264-UNiVERSUM
2021-06-27 10:06:55 TV-X264 The.Bold.and.the.Beautiful.S34E144.720p.WEB.h264-DiRT
2021-06-27 10:07:03 X264-HD-DE The.Brave.Allein.gegen.das.Syndikat.2019.GERMAN.DL.1080p.BluRay.AVC-iTSMEMARiO
2021-06-27 10:07:19 XXX ALSScan.21.06.27.Braylin.Bailey.Flood.Gates.XXX.2160p.MP4-WRB
2021-06-27 10:07:58 TV-HD The.Bold.and.the.Beautiful.S34E145.1080p.WEB.h264-DiRT
2021-06-27 10:08:35 TV-HD The.Brave.Allein.gegen.das.Syndikat.2019.GERMAN.DL.1080p.BluRay.x264-UNiVERSUM
2021-06-27 10:08:56 TV-X264 The.Bold.and.the.Beautiful.S34E145.720p.WEB.h264-DiRT
2021-06-27 10:09:35 X264-SD-DE The.Brave.Allein.gegen.das.Syndikat.GERMAN.2019.AC3.BDRiP.x264-UNiVERSUM
2021-06-27 10:09:57 TV-HD The.Bold.and.the.Beautiful.S34E146.1080p.WEB.h264-DiRT
2021-06-27 10:10:55 TV-X264 The.Bold.and.the.Beautiful.S34E146.720p.WEB.h264-DiRT
2021-06-27 10:11:24 TV-SD-FR Le.Realisateur.Nu.S02E01.FRENCH.WEB.H264-PROXADNET
2021-06-27 10:11:25 TV-SD-FR Le.Realisateur.Nu.S02E02.FRENCH.WEB.H264-PROXADNET
2021-06-27 10:11:26 TV-SD-FR Le.Realisateur.Nu.S02E03.FRENCH.WEB.H264-PROXADNET
2021-06-27 10:11:27 TV-SD-FR Le.Realisateur.Nu.S02E04.FRENCH.WEB.H264-PROXADNET
2021-06-27 10:11:29 TV-SD-FR Le.Realisateur.Nu.S02E05.FRENCH.WEB.H264-PROXADNET
2021-06-27 10:11:30 TV-SD-FR Le.Realisateur.Nu.S02E07.FRENCH.WEB.H264-PROXADNET
2021-06-27 10:11:31 TV-SD-FR Le.Realisateur.Nu.S02E06.FRENCH.WEB.H264-PROXADNET
2021-06-27 10:11:33 TV-SD-FR Le.Realisateur.Nu.S02E08.FiNAL.FRENCH.WEB.H264-PROXADNET
2021-06-27 10:11:57 TV-HD The.Bold.and.the.Beautiful.S34E147.1080p.WEB.h264-DiRT
2021-06-27 10:12:57 TV-X264 The.Bold.and.the.Beautiful.S34E147.720p.WEB.h264-DiRT
2021-06-27 10:13:57 TV-HD The.Bold.and.the.Beautiful.S34E148.1080p.WEB.h264-DiRT
2021-06-27 10:14:57 TV-X264 The.Bold.and.the.Beautiful.S34E148.720p.WEB.h264-DiRT
2021-06-27 10:15:57 TV-HD The.Bold.and.the.Beautiful.S34E149.1080p.WEB.h264-DiRT
2021-06-27 10:16:57 TV-X264 The.Bold.and.the.Beautiful.S34E149.720p.WEB.h264-DiRT
2021-06-27 10:19:09 TV-HD The.Bold.and.the.Beautiful.S34E150.1080p.WEB.h264-DiRT
2021-06-27 10:19:59 XXX BangBros18.21.06.27.Kylie.Quinn.XXX.2160p.MP4-WRB
2021-06-27 10:20:08 TV-X264 The.Bold.and.the.Beautiful.S34E150.720p.WEB.h264-DiRT
2021-06-27 10:21:10 TV-HD The.Bold.and.the.Beautiful.S34E151.1080p.WEB.h264-DiRT
2021-06-27 10:22:07 TV-X264 The.Bold.and.the.Beautiful.S34E151.720p.WEB.h264-DiRT
2021-06-27 10:23:08 TV-HD The.Bold.and.the.Beautiful.S34E152.1080p.WEB.h264-DiRT
2021-06-27 10:24:10 TV-X264 The.Bold.and.the.Beautiful.S34E152.720p.WEB.h264-DiRT
2021-06-27 10:24:49 TV-X264 Charmed.Zauberhafte.Hexen.S03E17.Aller.guten.Dinge.sind.neun.German.DL.1080p.BluRay.x264-PL3X
2021-06-27 10:25:09 TV-HD The.Bold.and.the.Beautiful.S34E153.1080p.WEB.h264-DiRT
2021-06-27 10:26:08 TV-X264 The.Bold.and.the.Beautiful.S34E153.720p.WEB.h264-DiRT
2021-06-27 10:27:08 TV-HD The.Bold.and.the.Beautiful.S34E154.1080p.WEB.h264-DiRT
2021-06-27 10:28:08 TV-X264 The.Bold.and.the.Beautiful.S34E154.720p.WEB.h264-DiRT
2021-06-27 10:29:08 TV-HD The.Bold.and.the.Beautiful.S34E155.1080p.WEB.h264-DiRT
2021-06-27 10:30:09 TV-X264 The.Bold.and.the.Beautiful.S34E155.720p.WEB.h264-DiRT
2021-06-27 10:31:09 TV-HD The.Bold.and.the.Beautiful.S34E156.1080p.WEB.h264-DiRT
2021-06-27 10:32:07 TV-X264 The.Bold.and.the.Beautiful.S34E156.720p.WEB.h264-DiRT
2021-06-27 10:32:08 TV-X264 Charmed.Zauberhafte.Hexen.S02E02.Hexenjagd.German.DL.1080p.BluRay.x264-PL3X
2021-06-27 10:33:09 TV-HD The.Bold.and.the.Beautiful.S34E157.1080p.WEB.h264-DiRT
2021-06-27 10:33:55 TV-X264 Charmed.Zauberhafte.Hexen.S02E02.Hexenjagd.German.DL.720p.BluRay.x264-PL3X
2021-06-27 10:34:08 TV-X264 The.Bold.and.the.Beautiful.S34E157.720p.WEB.h264-DiRT
2021-06-27 10:34:51 TV-SD-DE Charmed.Zauberhafte.Hexen.S02E02.Hexenjagd.German.REMASTERED.BDRiP.x264-PL3X
2021-06-27 10:35:09 TV-HD The.Bold.and.the.Beautiful.S34E158.1080p.WEB.h264-DiRT
2021-06-27 10:35:48 TV-X264 Bellator.261.720p.HDTV.x264-VERUM
2021-06-27 10:36:08 TV-X264 The.Bold.and.the.Beautiful.S34E158.720p.WEB.h264-DiRT
2021-06-27 10:37:10 TV-HD The.Bold.and.the.Beautiful.S34E159.1080p.WEB.h264-DiRT
2021-06-27 10:37:52 TV-X264 Bellator.261.Prelims.720p.HDTV.x264-VERUM
2021-06-27 10:38:08 TV-X264 The.Bold.and.the.Beautiful.S34E159.720p.WEB.h264-DiRT
2021-06-27 10:38:15 TV-HD-NORD DR2.Klassisk.DR.Pigekoret.Og.Den.Danske.Strygekvartet.DANiSH.720p.WEB.h264-DANES
2021-06-27 10:39:26 BLURAY Lazarat.2019.COMPLETE.BLURAY-iTWASNTME
2021-06-27 10:39:40 TV-HD Moto2.2021.Netherlands.Practice.Three.1080p.WEB.h264-VERUM
2021-06-27 10:40:12 TV-X264 Charmed.Zauberhafte.Hexen.S02E03.Voll.im.Bild.German.DL.720p.BluRay.x264-PL3X
2021-06-27 10:40:46 TV-X264 Moto2.2021.Netherlands.Practice.Three.720p.WEB.h264-VERUM
2021-06-27 10:40:56 TV-HD-NORD DR3.Dokumentar.Elsker.Elsker.Ikke.DANiSH.1080p.WEB.h264-DANES
2021-06-27 10:41:05 TV-SD-DE Charmed.Zauberhafte.Hexen.S02E03.Voll.im.Bild.German.REMASTERED.BDRiP.x264-PL3X
2021-06-27 10:41:17 TV-HD-NORD DR2.Klassisk.DR.Pigekoret.Og.Den.Danske.Strygekvartet.DANiSH.1080p.WEB.h264-DANES
2021-06-27 10:41:25 TV-HD-NORD DR3.Dokumentar.Elsker.Elsker.Ikke.DANiSH.720p.WEB.h264-DANES
2021-06-27 10:41:44 TV-HD-NORD Deadline.2021.06.26.DANiSH.720p.WEB.h264-DANES
2021-06-27 10:41:47 TV-HD Moto2.2021.Netherlands.Qualifying.One.1080p.WEB.h264-VERUM
2021-06-27 10:42:26 TV-X264 Moto2.2021.Netherlands.Qualifying.One.720p.WEB.h264-VERUM
2021-06-27 10:43:40 TV-HD Moto2.2021.Netherlands.Qualifying.Two.1080p.WEB.h264-VERUM
2021-06-27 10:44:29 TV-X264 Charmed.Zauberhafte.Hexen.S02E04.Pakt.mit.dem.Teufel.German.DL.1080p.BluRay.x264-PL3X
2021-06-27 10:44:29 TV-X264 Moto2.2021.Netherlands.Qualifying.Two.720p.WEB.h264-VERUM
2021-06-27 10:45:26 TV-HD-DE Die.Rosenheim.Cops.S18E01.GERMAN.720p.WEB.h264-WiSHTV
2021-06-27 10:45:58 TV-HD-NORD UEFA.EM.2020.2021.06.26.Wales.vs.Danmark.DANiSH.720p.WEB.h264-FELTET
2021-06-27 10:46:04 TV-HD Moto3.2021.Netherlands.Practice.Three.1080p.WEB.h264-VERUM
2021-06-27 10:47:05 TV-X264 Moto3.2021.Netherlands.Practice.Three.720p.WEB.h264-VERUM
2021-06-27 10:47:08 TV-HD-DE Die.Rosenheim.Cops.S18E02.GERMAN.720p.WEB.h264-WiSHTV
2021-06-27 10:47:29 TV-X264 Charmed.Zauberhafte.Hexen.S02E04.Pakt.mit.dem.Teufel.German.DL.720p.BluRay.x264-PL3X
2021-06-27 10:48:06 TV-HD Moto3.2021.Netherlands.Qualifying.One.1080p.WEB.h264-VERUM
2021-06-27 10:48:19 TV-SD-DE Charmed.Zauberhafte.Hexen.S02E04.Pakt.mit.dem.Teufel.German.REMASTERED.BDRiP.x264-PL3X
2021-06-27 10:48:45 TV-X264 Moto3.2021.Netherlands.Qualifying.One.720p.WEB.h264-VERUM
2021-06-27 10:48:53 TV-HD-DE Die.Rosenheim.Cops.S18E03.GERMAN.720p.WEB.h264-WiSHTV
2021-06-27 10:49:47 TV-HD Moto3.2021.Netherlands.Qualifying.Two.1080p.WEB.h264-VERUM
2021-06-27 10:50:24 TV-X264 Moto3.2021.Netherlands.Qualifying.Two.720p.WEB.h264-VERUM
2021-06-27 10:50:35 TV-HD-DE Die.Rosenheim.Cops.S18E04.GERMAN.720p.WEB.h264-WiSHTV
2021-06-27 10:52:23 TV-HD MotoGP.2021.Netherlands.Practice.Four.1080p.WEB.h264-VERUM
2021-06-27 10:53:25 TV-X264 MotoGP.2021.Netherlands.Practice.Four.720p.WEB.h264-VERUM
2021-06-27 10:53:34 TV-HD The.Bold.and.the.Beautiful.S34E160.1080p.WEB.h264-DiRT
2021-06-27 10:54:32 TV-X264 The.Bold.and.the.Beautiful.S34E160.720p.WEB.h264-DiRT
2021-06-27 10:54:56 TV-X264 Charmed.Zauberhafte.Hexen.S02E05.Einfach.unwiederstehlich.German.DL.720p.BluRay.x264-PL3X
2021-06-27 10:55:33 TV-HD The.Bold.and.the.Beautiful.S34E161.1080p.WEB.h264-DiRT
2021-06-27 10:55:36 TV-HD MotoGP.2021.Netherlands.Practice.Three.1080p.WEB.h264-VERUM
2021-06-27 10:56:32 TV-X264 The.Bold.and.the.Beautiful.S34E161.720p.WEB.h264-DiRT
2021-06-27 10:56:48 TV-X264 MotoGP.2021.Netherlands.Practice.Three.720p.WEB.h264-VERUM
2021-06-27 10:57:32 TV-HD The.Bold.and.the.Beautiful.S34E162.1080p.WEB.h264-DiRT
2021-06-27 10:57:50 TV-HD MotoGP.2021.Netherlands.Qualifying.One.1080p.WEB.h264-VERUM
2021-06-27 10:58:30 TV-X264 MotoGP.2021.Netherlands.Qualifying.One.720p.WEB.h264-VERUM
2021-06-27 10:58:32 TV-X264 The.Bold.and.the.Beautiful.S34E162.720p.WEB.h264-DiRT
2021-06-27 10:59:22 TV-SD-DE Charmed.Zauberhafte.Hexen.S02E05.Einfach.unwiederstehlich.German.REMASTERED.BDRiP.x264-PL3X
2021-06-27 10:59:33 TV-HD The.Bold.and.the.Beautiful.S34E163.1080p.WEB.h264-DiRT
2021-06-27 10:59:53 TV-HD MotoGP.2021.Netherlands.Qualifying.Two.1080p.WEB.h264-VERUM
2021-06-27 11:00:31 TV-X264 The.Bold.and.the.Beautiful.S34E163.720p.WEB.h264-DiRT
2021-06-27 11:00:43 TV-X264 MotoGP.2021.Netherlands.Qualifying.Two.720p.WEB.h264-VERUM
2021-06-27 11:01:03 EBOOK Sette.NR26.2021.iTALiAN.RETAiL.MAGAZiNE.eBook-DiVER
2021-06-27 11:01:33 TV-HD The.Bold.and.the.Beautiful.S34E164.1080p.WEB.h264-DiRT
2021-06-27 11:02:32 TV-X264 The.Bold.and.the.Beautiful.S34E164.720p.WEB.h264-DiRT
2021-06-27 11:02:55 EBOOK Il.Fatto.Quotidiano.2021.06.27.iTALiAN.RETAiL.eBook-iDiB
2021-06-27 11:03:02 TV-X264 Charmed.Zauberhafte.Hexen.S02E06.Der.Auserwaehlte.German.DL.1080p.BluRay.x264-PL3X
2021-06-27 11:03:33 TV-HD The.Bold.and.the.Beautiful.S34E165.1080p.WEB.h264-DiRT
2021-06-27 11:03:57 TV-X264 BORUTO.NARUTO.NEXT.GENERATIONS.S01E205.1080p.WEB.H264-SENPAI
2021-06-27 11:04:12 TV-X264 BORUTO.NARUTO.NEXT.GENERATIONS.S01E205.720p.WEB.H264-SENPAI
2021-06-27 11:04:32 TV-X264 The.Bold.and.the.Beautiful.S34E165.720p.WEB.h264-DiRT
2021-06-27 11:04:40 TV-X264 Charmed.Zauberhafte.Hexen.S02E06.Der.Auserwaehlte.German.DL.720p.BluRay.x264-PL3X
2021-06-27 11:05:32 TV-HD The.Bold.and.the.Beautiful.S34E166.1080p.WEB.h264-DiRT
2021-06-27 11:05:34 TV-SD-DE Charmed.Zauberhafte.Hexen.S02E06.Der.Auserwaehlte.German.REMASTERED.BDRiP.x264-PL3X
2021-06-27 11:06:33 TV-X264 The.Bold.and.the.Beautiful.S34E166.720p.WEB.h264-DiRT
2021-06-27 11:07:33 TV-HD The.Bold.and.the.Beautiful.S34E167.1080p.WEB.h264-DiRT
2021-06-27 11:08:28 TV-X264 Charmed.Zauberhafte.Hexen.S02E07.Die.Akasha.Rollen.German.DL.1080p.BluRay.x264-PL3X
2021-06-27 11:08:33 TV-X264 The.Bold.and.the.Beautiful.S34E167.720p.WEB.h264-DiRT
2021-06-27 11:09:32 TV-HD The.Bold.and.the.Beautiful.S34E168.1080p.WEB.h264-DiRT
2021-06-27 11:09:47 MP3 VA--A_State_Of_Trance_Top_20_2021_Vol_2_(Selected_by_Armin_van_Buuren)-(ARDI4331)-WEB-2021-KPS
2021-06-27 11:10:33 TV-X264 The.Bold.and.the.Beautiful.S34E168.720p.WEB.h264-DiRT
2021-06-27 11:10:59 TV-X264 Charmed.Zauberhafte.Hexen.S02E07.Die.Akasha.Rollen.German.DL.720p.BluRay.x264-PL3X
2021-06-27 11:11:33 TV-HD The.Bold.and.the.Beautiful.S34E169.1080p.WEB.h264-DiRT
2021-06-27 11:12:32 TV-X264 The.Bold.and.the.Beautiful.S34E169.720p.WEB.h264-DiRT
2021-06-27 11:16:06 TV-SD-DE Charmed.Zauberhafte.Hexen.S02E07.Die.Akasha.Rollen.German.REMASTERED.BDRiP.x264-PL3X
2021-06-27 11:16:53 EBOOK Io.Donna.NR26.2021.iTALiAN.RETAiL.MAGAZiNE.eBook-DiVER
2021-06-27 11:20:27 TV-X264 Charmed.Zauberhafte.Hexen.S02E08.Schrecken.der.Tiefe.German.DL.1080p.BluRay.x264-PL3X
2021-06-27 11:25:27 TV-X264 Charmed.Zauberhafte.Hexen.S02E08.Schrecken.der.Tiefe.German.DL.720p.BluRay.x264-PL3X
2021-06-27 11:26:23 TV-SD-DE Charmed.Zauberhafte.Hexen.S02E08.Schrecken.der.Tiefe.German.REMASTERED.BDRiP.x264-PL3X
2021-06-27 11:28:53 TV-HD The.Bold.and.the.Beautiful.S34E170.1080p.WEB.h264-DiRT
2021-06-27 11:29:05 TV-X264 Charmed.Zauberhafte.Hexen.S02E09.Zwischen.Himmel.und.Hoelle.German.DL.1080p.BluRay.x264-PL3X
2021-06-27 11:29:52 TV-X264 The.Bold.and.the.Beautiful.S34E170.720p.WEB.h264-DiRT
2021-06-27 11:30:53 TV-HD The.Bold.and.the.Beautiful.S34E171.1080p.WEB.h264-DiRT
2021-06-27 11:31:51 TV-X264 The.Bold.and.the.Beautiful.S34E171.720p.WEB.h264-DiRT
2021-06-27 11:32:51 TV-HD The.Bold.and.the.Beautiful.S34E172.1080p.WEB.h264-DiRT
2021-06-27 11:33:51 TV-X264 The.Bold.and.the.Beautiful.S34E172.720p.WEB.h264-DiRT
2021-06-27 11:34:09 MP3 Bohannon-South_Africa-(234.714)-VINYL-1985-BF
2021-06-27 11:34:29 TV-X264 Charmed.Zauberhafte.Hexen.S02E09.Zwischen.Himmel.und.Hoelle.German.DL.720p.BluRay.x264-PL3X
2021-06-27 11:34:52 TV-HD The.Bold.and.the.Beautiful.S34E173.1080p.WEB.h264-DiRT
2021-06-27 11:35:28 TV-SD-DE Charmed.Zauberhafte.Hexen.S02E09.Zwischen.Himmel.und.Hoelle.German.REMASTERED.BDRiP.x264-PL3X
2021-06-27 11:35:50 TV-X264 The.Bold.and.the.Beautiful.S34E173.720p.WEB.h264-DiRT
2021-06-27 11:36:52 TV-HD The.Bold.and.the.Beautiful.S34E174.1080p.WEB.h264-DiRT
2021-06-27 11:37:50 TV-X264 The.Bold.and.the.Beautiful.S34E174.720p.WEB.h264-DiRT
2021-06-27 11:38:51 TV-HD The.Bold.and.the.Beautiful.S34E175.1080p.WEB.h264-DiRT
2021-06-27 11:39:51 TV-X264 The.Bold.and.the.Beautiful.S34E175.720p.WEB.h264-DiRT
2021-06-27 11:40:52 TV-HD The.Bold.and.the.Beautiful.S34E176.1080p.WEB.h264-DiRT
2021-06-27 11:41:51 TV-X264 The.Bold.and.the.Beautiful.S34E176.720p.WEB.h264-DiRT
2021-06-27 11:42:51 TV-HD The.Bold.and.the.Beautiful.S34E177.1080p.WEB.h264-DiRT
2021-06-27 11:43:50 TV-X264 The.Bold.and.the.Beautiful.S34E177.720p.WEB.h264-DiRT
2021-06-27 11:44:51 TV-HD The.Bold.and.the.Beautiful.S34E178.1080p.WEB.h264-DiRT
2021-06-27 11:45:51 TV-X264 The.Bold.and.the.Beautiful.S34E178.720p.WEB.h264-DiRT
2021-06-27 11:46:11 MP3 Puszczyk_Feat._Milena_Badcock_-_Coming_Home-(10198919)-WEB-2021-MARiBOR_INT
2021-06-27 11:46:12 MP3 Quickdrop_x_B0UNC3_x_Denny_Crane_-_Maniac-WEB-2021-MARiBOR_INT
2021-06-27 11:46:52 TV-HD The.Bold.and.the.Beautiful.S34E179.1080p.WEB.h264-DiRT
2021-06-27 11:47:51 TV-X264 The.Bold.and.the.Beautiful.S34E179.720p.WEB.h264-DiRT
2021-06-27 11:51:15 MP3 Restless_Leg_Syndrome_-_Falcon-(BP9008798366156)-WEB-2021-BiLDERBERG
2021-06-27 11:52:41 MP3 Chevals-Spirits_Of_Rhythm_EP-(WD58)-VINYL-2018-BF
2021-06-27 11:55:26 TV-HD The.Bold.and.the.Beautiful.S34E180.1080p.WEB.h264-DiRT
2021-06-27 11:56:23 TV-X264 The.Bold.and.the.Beautiful.S34E180.720p.WEB.h264-DiRT
2021-06-27 11:57:23 TV-HD The.Bold.and.the.Beautiful.S34E181.1080p.WEB.h264-DiRT
2021-06-27 11:58:23 TV-X264 The.Bold.and.the.Beautiful.S34E181.720p.WEB.h264-DiRT
2021-06-27 11:59:24 TV-HD The.Bold.and.the.Beautiful.S34E182.1080p.WEB.h264-DiRT
2021-06-27 11:59:53 TV-HD Scanner.Cop.1994.1080P.BLURAY.X264-WATCHABLE
2021-06-27 12:00:24 TV-X264 The.Bold.and.the.Beautiful.S34E182.720p.WEB.h264-DiRT
2021-06-27 12:01:26 TV-HD The.Bold.and.the.Beautiful.S34E183.1080p.WEB.h264-DiRT
2021-06-27 12:02:24 TV-X264 The.Bold.and.the.Beautiful.S34E183.720p.WEB.h264-DiRT
2021-06-27 12:03:23 TV-HD The.Bold.and.the.Beautiful.S34E184.1080p.WEB.h264-DiRT
2021-06-27 12:03:31 XXX VirtualTaboo.19.10.17.Eva.Elfie.Little.Miss.Sunshine.XXX.VR180.2700p.MP4-VACCiNE
2021-06-27 12:04:25 TV-X264 The.Bold.and.the.Beautiful.S34E184.720p.WEB.h264-DiRT
2021-06-27 12:04:40 TV-HD Scanner.Cop.1994.720P.BLURAY.X264-WATCHABLE
2021-06-27 12:05:24 TV-HD The.Bold.and.the.Beautiful.S34E185.1080p.WEB.h264-DiRT
2021-06-27 12:06:07 XXX VirtualTaboo.19.10.15.Tindra.Frost.Angel.Wicky.Watch.But.Dont.Touch.Little.Boy.XXX.VR180.2700p.MP4-VACCiNE
2021-06-27 12:06:23 TV-X264 The.Bold.and.the.Beautiful.S34E185.720p.WEB.h264-DiRT
2021-06-27 12:07:25 TV-HD The.Bold.and.the.Beautiful.S34E186.1080p.WEB.h264-DiRT
2021-06-27 12:08:24 TV-X264 The.Bold.and.the.Beautiful.S34E186.720p.WEB.h264-DiRT
2021-06-27 12:08:37 XXX VirtualTaboo.19.10.11.Georgie.Lyall.Oven.Heat.Mom.Takes.It.Deep.XXX.VR180.2700p.MP4-VACCiNE
2021-06-27 12:09:27 TV-HD The.Bold.and.the.Beautiful.S34E187.1080p.WEB.h264-DiRT
2021-06-27 12:10:18 XXX VirtualTaboo.19.10.10.Jennifer.Keelings.Breaking.Bad.with.Jennifer.the.Heart.Breaker.XXX.VR180.2700p.MP4-VACCiNE
2021-06-27 12:10:25 TV-X264 The.Bold.and.the.Beautiful.S34E187.720p.WEB.h264-DiRT
2021-06-27 12:11:23 X264-SD Scanner.Cop.1994.REMASTERED.BDRIP.X264-WATCHABLE
2021-06-27 12:13:26 XXX VirtualTaboo.19.10.08.Eva.Elfie.Please.Let.Me.Cum.Inside.XXX.VR180.2700p.MP4-VACCiNE
2021-06-27 12:14:04 XXX VirtualTaboo.19.10.04.Natasha.10.Anal.Twister.Daddy.Bro.and.Sister.XXX.VR180.2700p.MP4-VACCiNE
2021-06-27 12:15:33 MP3 Block_And_Crown_Feat_Paul_Parsons_-_So_Trapped-SINGLE-WEB-2021-iDC
2021-06-27 12:16:19 MP3 Charlie_Sheesh-Kasko-WEB-DE-2021-wAx
2021-06-27 12:16:52 XXX VirtualTaboo.19.10.03.Stella.Cardo.Stellas.Private.World.XXX.VR180.2700p.MP4-VACCiNE
2021-06-27 12:17:14 XXX VirtualTaboo.19.10.01.Ginebra.Bellucci.Kobayashi-San.is.Having.Fun.XXX.VR180.2700p.MP4-VACCiNE
2021-06-27 12:23:09 MP3 DJ_Technodoctor-Technocrazy-SINGLE-WEB-2021-wAx
2021-06-27 12:24:30 MP3 Man_Q--Deep_Narratives-(CAT082)-WEB-2021-BABAS
2021-06-27 12:25:07 MP3 VA-Revolver-(CAT080)-WEB-2021-BABAS
2021-06-27 12:27:21 MP3 Hovey_-_Bright_Lights-SINGLE-WEB-2021-iDC
2021-06-27 12:29:13 MP3 Parade_Ground-The_15th_Floor-CD-2021-FWYH
2021-06-27 12:29:46 MP3 Station_Echo-Control_Voltage-Special_Edition-CD-2021-FWYH
2021-06-27 12:35:08 MP3 Ferum-Drama-(7CLOUD1180)-WEB-2021-wAx
2021-06-27 12:35:12 MP3 David_Pulido-Amanecer-(PDD176)-WEB-2021-wAx
2021-06-27 12:35:17 MP3 Buben-The_Spirit_Molecule-WEB-2021-wAx
2021-06-27 12:40:54 MP3 Stephan_Crown_and_Sabrina_LCF-Under_Street-(SB0469)-SINGLE-WEB-2021-wAx
2021-06-27 12:41:05 TV-HD-DE FBI.Most.Wanted.S02E04.German.DL.1080p.WEB.x264-WvF
2021-06-27 12:42:23 TV-HD-DE FBI.Most.Wanted.S02E05.German.DL.1080p.WEB.x264-WvF
2021-06-27 12:43:16 TV-HD-DE FBI.Most.Wanted.S02E04.German.DL.720p.WEB.x264-WvF
2021-06-27 12:44:19 TV-HD-DE FBI.Most.Wanted.S02E05.German.DL.720p.WEB.x264-WvF
2021-06-27 12:45:29 TV-HD-DE Filthy.Rich.2020.S01E07.German.1080p.WEB.h264-WvF
2021-06-27 12:47:18 TV-HD-DE Filthy.Rich.2020.S01E08.German.1080p.WEB.h264-WvF
2021-06-27 12:50:52 TV-HD-DE The.Girlfriend.Experience.S03E09.German.DL.720p.WEB.h264-WvF
2021-06-27 12:51:58 TV-HD-DE Blindspotting.S01E03.German.DL.720p.WEB.h264-WvF
2021-06-27 12:53:07 TV-HD-DE Run.the.World.S01E06.German.DL.720p.WEB.h264-WvF
2021-06-27 12:54:34 TV-HD-DE Its.a.Sin.S01E02.German.DL.720p.WEB.h264-WvF
2021-06-27 12:54:58 MP3 Sarah_Garlot_Darkdomina-Miss_Darkdomina-(STSALBUM38)-WEB-2021-wAx
2021-06-27 12:55:11 MP3 Sarah_Garlot_Darkdomina-Miss_Darkdomina_Vol_2-(STSALBUM39)-WEB-2021-wAx
2021-06-27 12:57:42 APPS PluralSight.Diversity.And.Inclusion-what.All.The.Terms.Labels.And.Acronyms.Really.Mean.Bookware-KNiSO
2021-06-27 12:58:00 MP3 Prudens-Deep_Culture-(PTK026)-WEB-2021-wAx
2021-06-27 13:00:33 TV-X264 Kevin.Can.Fuck.Himself.S01E04.1080p.WEB.H264-GGEZ
2021-06-27 13:00:38 MP3 Opolopo_Feat_Angela_Johnson_-_Good_Lover-WEB-2021-iDC
2021-06-27 13:00:41 TV-X264 Kevin.Can.Fuck.Himself.S01E04.720p.WEB.H264-GGEZ
2021-06-27 13:06:19 MP3 Alessandra_Roncone_-_Feel_The_Trance_Energy_(TER_Anthem)-(FSOE531)-WEB-2021-L4M_INT
2021-06-27 13:08:50 GAMES Carnivores_Dinosaur_Hunt_NSW-SUXXORS
2021-06-27 13:13:14 MP3 VA-The_Echo_LP-(IA017)-WEB-2021-wAx
2021-06-27 13:15:17 TV-X264 Charmed.Zauberhafte.Hexen.S02E10.Mitten.ins.Herz.German.DL.1080p.BluRay.x264-PL3X
2021-06-27 13:16:15 TV-X264 UFC.Fight.Night.190.Gane.vs.Volkov.720p.HDTV.x264-VERUM
2021-06-27 13:16:54 TV-HD Die.Ueberweisung.1968.German.DL.1080p.BluRay.x264-SPiCY
2021-06-27 13:17:03 MP3 Frank_Walker_And_Theresa_Rex_-_Kiss_Me-SINGLE-WEB-2021-iDC
2021-06-27 13:17:29 TV-X264 Die.Ueberweisung.1968.German.720p.BluRay.x264-SPiCY
2021-06-27 13:18:05 X264-SD-DE Die.Ueberweisung.German.1968.AC3.BDRip.x264-SPiCY
2021-06-27 13:18:36 MP3 Felix_Cartal_And_Karen_Harding_-_Only_One_(Extended_Mix)-(PP191)-SINGLE-WEB-2021-iDC
2021-06-27 13:20:25 MP3 Fredrik_Ferrier_-_You_(Crazy_Cousinz_Extended_Remix)-SINGLE-WEB-2021-iDC
2021-06-27 13:20:27 TV-X264 Charmed.Zauberhafte.Hexen.S02E10.Mitten.ins.Herz.German.DL.720p.BluRay.x264-PL3X
2021-06-27 13:21:22 TV-SD-DE Charmed.Zauberhafte.Hexen.S02E10.Mitten.ins.Herz.German.REMASTERED.BDRiP.x264-PL3X
2021-06-27 13:22:28 MP3 Boomer-40_Miles-(CHEEK531)-WEB-2021-wAx
2021-06-27 13:23:03 MP3 Ellipso_And_HYPHN_-_Silver_And_Gold_(Extended_Mix)-(BEATDEALER163)-SINGLE-WEB-2021-iDC
2021-06-27 13:29:09 APPS Skillshare.Modeling.old.3D.Robot.using.Autodesk.Maya.and.Substance.Painter-SkilledHares
2021-06-27 13:29:25 TV-X264 Charmed.Zauberhafte.Hexen.S02E11.Drei.Hexen.und.ein.Baby.German.DL.1080p.BluRay.x264-PL3X
2021-06-27 13:31:38 MP3 Get_Far_And_Lennymendy_Feat_Sergio_Sylvestre_-_The_Radio-WEB-2021-iDC
2021-06-27 13:32:35 MP3 Giorgio_Gee_And_NALYRO_And_DSTRT_-_Close_(Extended_Mix)-(CAT502733)-SINGLE-WEB-2021-iDC
2021-06-27 13:33:29 TV-HD-DE Elite.S04E02.GERMAN.DL.1080P.WEB.X264.REPACK-WAYNE
2021-06-27 13:33:30 MP3 Kye_Shand_and_Jack_Butler-Just_A_Game-(CR014)-SINGLE-WEB-2021-wAx
2021-06-27 13:35:25 MP3 Jack_Savoretti_-_Europiana-WEB-2021-iDC
2021-06-27 13:36:25 TV-X264 Charmed.Zauberhafte.Hexen.S02E11.Drei.Hexen.und.ein.Baby.German.DL.720p.BluRay.x264-PL3X
2021-06-27 13:38:27 MP3 Higloo--House_Of_Ninja-(MOISS162)-WEB-2021-BABAS
2021-06-27 13:39:03 MP3 Col_Lawton--Just_Getting_By-(MOISSB126)-WEB-2021-BABAS
2021-06-27 13:40:12 MP3 Houserockers-Legion-(VCR318)-SINGLE-WEB-2021-wAx
2021-06-27 13:43:19 TV-X264 Charmed.Zauberhafte.Hexen.S02E12.Fieber.German.DL.720p.BluRay.x264-PL3X
2021-06-27 13:44:10 TV-X264 MasterChef.Australia.S13E50.720p.HDTV.x264-ORENJI
2021-06-27 13:44:10 TV-SD-DE Charmed.Zauberhafte.Hexen.S02E12.Fieber.German.REMASTERED.BDRiP.x264-PL3X
2021-06-27 13:44:22 TV-SD MasterChef.Australia.S13E50.HDTV.x264-FQM
2021-06-27 13:44:23 MP3 J-Max_Feat_Juliette_Ashby_-_Living_For_Today_(Remixes)-WEB-2019-iDC
2021-06-27 13:50:03 BLURAY-FULL-DE Friedrich.Schiller.-.Der.Triumph.eines.Genies.1940.GERMAN.COMPLETE.BLURAY-OLDHAM
2021-06-27 13:51:24 TV-X265 Blindspotting.S01E03.2160p.WEB.H265-GGWP
2021-06-27 13:54:02 MP3 Le_Croque_Feat_Barbie_Mak_-_Our_World_No_Rules-WEB-2021-iDC
2021-06-27 13:54:54 MP3 HAWK_-_Alone_(Extended_Mix)-SINGLE-WEB-2021-iDC
2021-06-27 13:57:11 TV-X264 60.Minutes.Plus.S01E18.720p.WEB.h264-KOGi
2021-06-27 13:58:01 TV-X264 60.Minutes.Plus.S01E18.1080p.WEB.h264-KOGi
2021-06-27 13:59:15 TV-X264 60.Minutes.Plus.S01E19.720p.WEB.h264-KOGi
2021-06-27 13:59:25 TV-X264 60.Minutes.Plus.S01E19.1080p.WEB.h264-KOGi
2021-06-27 14:01:48 TV-HD-DE Inspector.Barnaby.S08E03.German.720p.WEB.h264-WiSHTV
2021-06-27 14:03:48 MP3 Milk_And_Sugar_Feat_Lurine_Cato_-_All_I_Need_(Is_Believe)_(Earth_N_Days_Remix)-SINGLE-WEB-2021-iDC
2021-06-27 14:03:53 TV-HD-DE Inspector.Barnaby.S08E04.German.720p.WEB.h264-WiSHTV
2021-06-27 14:04:54 MP3 Milk_And_Sugar_Feat_Lurine_Cato_-_All_I_Need_(Is_Believe)_(Extended_Mix)-SINGLE-WEB-2021-iDC
2021-06-27 14:06:01 TV-HD-DE Inspector.Barnaby.S08E05.German.720p.WEB.h264-WiSHTV
2021-06-27 14:07:18 X264-HD-DE Friedrich.Schiller.-.Der.Triumph.eines.Genies.1940.German.1080p.BluRay.AVC-HOVAC
2021-06-27 14:08:10 TV-HD-DE Inspector.Barnaby.S08E06.German.720p.WEB.h264-WiSHTV
2021-06-27 14:08:55 TV-HD Friedrich.Schiller.-.Der.Triumph.eines.Genies.1940.German.1080p.BluRay.x264-SPiCY
2021-06-27 14:10:10 TV-HD-DE Inspector.Barnaby.S08E07.German.720p.WEB.h264-WiSHTV
2021-06-27 14:10:26 MP3 Exult_and_SMP-Prince_Of_Persia_EP-(CLS358)-WEB-2021-PTC
2021-06-27 14:11:08 MP3 Fiwhari-Dubhe-(CITRUS21024)-SINGLE-WEB-2021-PTC
2021-06-27 14:11:41 MP3 Geety_and_Seathasky-Holy_Nova_EP-(FOKUZ21131)-WEB-2021-PTC
2021-06-27 14:12:13 MP3 Pavel_Petrov-Differences-(JANNOWITZ090)-WEB-2021-PTC
2021-06-27 14:12:16 TV-HD-DE Inspector.Barnaby.S08E08.German.720p.WEB.h264-WiSHTV
2021-06-27 14:13:03 MP3 VA-Ambers_and_Echoes_EP-(INFLUENZA244)-WEB-2021-PTC
2021-06-27 14:14:38 MP3 Rick_Marshall_-_Free-SINGLE-WEB-2021-iDC
2021-06-27 14:15:09 TV-X264 Friedrich.Schiller.-.Der.Triumph.eines.Genies.1940.German.720p.BluRay.x264-SPiCY
2021-06-27 14:18:47 X264-SD-DE Friedrich.Schiller.-.Der.Triumph.eines.Genies.German.1940.AC3.BDRip.x264.iNTERNAL-SPiCY
2021-06-27 14:22:17 MP3 Anubasu-Anubasu_-_Bish-(FUSION440)-WEB-2021-SRG_iNT
2021-06-27 14:22:18 MP3 Kay_One_Und_Stard_Ova_-_Gemeinsam-SINGLE-WEB-DE-2021-WLRM
2021-06-27 14:22:29 MP3 Galactixx_Ft._Art_Felix_-_Down_On_My_Knees-(ROUGHR095PRO)-WEB-2021-SRG_iNT
2021-06-27 14:22:37 MP3 Rude_Convict_And_Spectre_-_Last_MF-(NEXT107PRO)-WEB-2021-SRG_iNT
2021-06-27 14:22:49 MP3 System_Of_Loudness_-_Love_Got_You-(DT171)-WEB-2021-SRG_iNT
2021-06-27 14:23:50 MP3 The_Shapeshifters_Feat_Aria_Lyric_-_YOLO-WEB-2021-iDC
2021-06-27 14:24:46 MP3 Ian_Carey_-_Keep_On_Rising_(ManyFew_And_Joe_Stone_Extended_Remix)-SINGLE-WEB-2021-iDC
2021-06-27 14:27:52 TV-HD W.Series.2021.Styrian.Grand.Prix.Race.One.Highlights.1080p.HDTV.H264-DARKSPORT
2021-06-27 14:28:37 TV-X264 W.Series.2021.Styrian.Grand.Prix.Race.One.Highlights.720p.HDTV.x264-DARKSPORT
2021-06-27 14:30:24 GAMES Creeper_World_4_v2.0.1-Razor1911
2021-06-27 14:31:42 GAMES Death_And_Taxes_v1.2.13-Razor1911
2021-06-27 14:32:38 TV-HD-DE Its.a.Sin.S01E02.German.DUBBED.DL.HDR.2160p.WEB.h265-W4K
2021-06-27 14:38:30 TV-HD-FR Blindspotting.S01E03.MULTi.1080p.WEB.H264-AVON
2021-06-27 14:38:55 TV-HD-FR Blindspotting.S01E03.FRENCH.720p.WEB.H264-AVON
2021-06-27 14:39:11 TV-SD-FR Blindspotting.S01E03.FRENCH.WEB.H264-AVON
2021-06-27 14:40:15 TV-HD-FR Run.the.World.S01E06.MULTi.1080p.WEB.H264-AVON
2021-06-27 14:40:19 TV-HD-FR Run.the.World.S01E06.FRENCH.720p.WEB.H264-AVON
2021-06-27 14:40:32 TV-SD-FR Run.the.World.S01E06.FRENCH.WEB.H264-AVON
2021-06-27 14:40:42 MP3 VA-Phantasm_Volume_Two_(1997-2000)-(PTM198)-WEB-2021-BABAS
2021-06-27 14:43:21 TV-X264 L.A.s.Finest.S02E01.FRENCH.720p.WEB.H264-AVON
2021-06-27 14:43:27 TV-SD-FR L.A.s.Finest.S02E01.FRENCH.WEB.H264-AVON
2021-06-27 14:44:29 TV-HD-FR L.A.s.Finest.S02E02.FRENCH.720p.WEB.H264-AVON
2021-06-27 14:44:38 TV-SD-FR L.A.s.Finest.S02E02.FRENCH.WEB.H264-AVON
2021-06-27 14:46:05 TV-HD-FR L.A.s.Finest.S02E03.FRENCH.720p.WEB.H264-AVON
2021-06-27 14:46:12 TV-SD-FR L.A.s.Finest.S02E03.FRENCH.WEB.H264-AVON
2021-06-27 14:46:36 MP3 VA-Ambush-(CAT039)-WEB-2020-BABAS
2021-06-27 14:47:13 MP3 Ivan_Coronel--Mirror-(TRA018)-WEB-2020-BABAS
2021-06-27 14:47:35 TV-HD-FR L.A.s.Finest.S02E04.FRENCH.720p.WEB.H264-AVON
2021-06-27 14:47:40 TV-SD-FR L.A.s.Finest.S02E04.FRENCH.WEB.H264-AVON
2021-06-27 14:47:48 MP3 NytXpress_Musiq--Red_River_EP-(LFR005)-WEB-2020-BABAS
2021-06-27 14:48:24 MP3 BlaQ_Afro-Kay_x_Sir_Vee_The_Great--The_Dream_EP-(CAT047)-WEB-2020-BABAS
2021-06-27 14:49:00 MP3 Prince_De_Deep_x_Stima_Hausse--Green_Street-(LFR006)-SINGLE-WEB-2020-BABAS
2021-06-27 14:49:36 MP3 Groovechild--Sonorous_EP-(CAT063)-WEB-2020-BABAS
2021-06-27 14:49:41 TV-HD-FR L.A.s.Finest.S02E05.FRENCH.720p.WEB.H264-AVON
2021-06-27 14:49:46 TV-SD-FR L.A.s.Finest.S02E05.FRENCH.WEB.H264-AVON
2021-06-27 14:50:12 MP3 STI_Ts_Soul--Stranger_EP-(CAT058)-WEB-2020-BABAS
2021-06-27 14:50:46 MP3 Wacko_x_Leedman--Everything_EP-(RC37)-WEB-2020-BABAS
2021-06-27 14:51:22 MP3 Siber--Guidance-(PN001)-WEB-2020-BABAS
2021-06-27 14:51:38 TV-HD-FR L.A.s.Finest.S02E06.FRENCH.720p.WEB.H264-AVON
2021-06-27 14:51:41 TV-SD-FR L.A.s.Finest.S02E06.FRENCH.WEB.H264-AVON
2021-06-27 14:51:59 MP3 Mathis_Ruffing--Tangible__Elastic-(STRICT005)-WEB-2020-BABAS
2021-06-27 14:52:35 MP3 The_Godfathers_Of_Deep_House_SA--The_4th_Commandment_2020_Chapter_13-(GDOGH125)-WEB-2020-BABAS_INT
2021-06-27 14:53:02 TV-HD-FR L.A.s.Finest.S02E07.FRENCH.720p.WEB.H264-AVON
2021-06-27 14:53:06 TV-SD-FR L.A.s.Finest.S02E07.FRENCH.WEB.H264-AVON
2021-06-27 14:53:09 MP3 Sir_Sledge--Paranormal_EP-(CAT057)-WEB-2020-BABAS
2021-06-27 14:53:43 MP3 FNKSTLL_x_Mamwadi--What_Is_Real-(PN011)-WEB-2020-BABAS
2021-06-27 14:54:19 MP3 Dan_Bay--Les_Disques_Du_Bord_De_Leau_(Autumn_EP_2020)-(WEBLO009)-WEB-2020-BABAS
2021-06-27 14:54:51 TV-HD-FR L.A.s.Finest.S02E08.FRENCH.720p.WEB.H264-AVON
2021-06-27 14:54:54 MP3 Kaygo_Soul--Cloudy_Nights-(DP011)-WEB-2020-BABAS
2021-06-27 14:55:03 TV-SD-FR L.A.s.Finest.S02E08.FRENCH.WEB.H264-AVON
2021-06-27 14:55:29 MP3 Sakhile_SK--Gotta_Get_Ya_Love-(DP009)-WEB-2020-BABAS
2021-06-27 14:56:03 MP3 Tar_Ntsei_feat._Lilien_B--Find_A_Way_(Remixes)-(MMR007)-WEB-2020-BABAS
2021-06-27 14:56:23 MP3 WEBBER_-_Wonder_(Extended_Mix)-(URM-9687b)-SINGLE-WEB-2021-iDC
2021-06-27 14:56:38 TV-HD-FR L.A.s.Finest.S02E09.FRENCH.720p.WEB.H264-AVON
2021-06-27 14:56:40 MP3 Magou--3_Essays_In_Dance_Music-(MAG34)-WEB-2020-BABAS
2021-06-27 14:56:43 TV-SD-FR L.A.s.Finest.S02E09.FRENCH.WEB.H264-AVON
2021-06-27 14:57:14 MP3 Function_Level_Marker--01-02_Remixed-(VDR042)-WEB-2020-BABAS
2021-06-27 14:57:41 TV-HD-FR L.A.s.Finest.S02E10.FRENCH.720p.WEB.H264-AVON
2021-06-27 14:57:41 TV-SD-FR L.A.s.Finest.S02E10.FRENCH.WEB.H264-AVON
2021-06-27 14:57:50 MP3 STI_Ts_Soul--Be_Yourself_EP-(CAT053)-WEB-2020-BABAS
2021-06-27 14:58:27 MP3 Random_Fact--Expectations-(VDR012)-SINGLE-WEB-2020-BABAS
2021-06-27 14:58:36 MP3 Voost_Feat_KOOLKID_-_Taste_Of_Your_Love_(Extended_Mix)-SINGLE-WEB-2021-iDC
2021-06-27 14:59:02 MP3 Fairplay--Aperture_EP-(NCR036)-WEB-2020-BABAS
2021-06-27 14:59:06 TV-HD-FR L.A.s.Finest.S02E11.FRENCH.720p.WEB.H264-AVON
2021-06-27 14:59:12 TV-SD-FR L.A.s.Finest.S02E11.FRENCH.WEB.H264-AVON
2021-06-27 14:59:36 MP3 VA-Vitamin_Deep_Recordings_Pres_In_Da_House_Sessions_Vol_1-(VDR011)-WEB-2020-BABAS
2021-06-27 15:00:13 MP3 Taig--The_Extraordinary_Music_EP-(MMR008)-WEB-2020-BABAS
2021-06-27 15:00:20 TV-HD-FR L.A.s.Finest.S02E12.FRENCH.720p.WEB.H264-AVON
2021-06-27 15:00:25 TV-SD-FR L.A.s.Finest.S02E12.FRENCH.WEB.H264-AVON
2021-06-27 15:00:31 TV-X264 ZIWE.S01E02.1080p.WEB.h264-KOGi
2021-06-27 15:00:49 MP3 DARSE--Awareness_EP-(NCR035)-WEB-2020-BABAS
2021-06-27 15:00:56 MP3 Tyron_Dixon_And_Denis_First_And_Ellie_Lowe_-_Too_Close-(FF0012E)-SINGLE-WEB-2021-iDC
2021-06-27 15:01:03 TV-X264 ZIWE.S01E02.720p.WEB.h264-KOGi
2021-06-27 15:01:25 MP3 Philipp_Gonzales--Light_The_Way-(LABD045)-WEB-2020-BABAS
2021-06-27 15:01:35 TV-X264 ZIWE.S01E03.1080p.WEB.h264-KOGi
2021-06-27 15:01:42 TV-HD-FR L.A.s.Finest.S02E13.FiNAL.FRENCH.720p.WEB.H264-AVON
2021-06-27 15:01:52 TV-SD-FR L.A.s.Finest.S02E13.FiNAL.FRENCH.WEB.H264-AVON
2021-06-27 15:02:01 MP3 Henry_Navarro--After_Dark-(LFR008)-WEB-2020-BABAS
2021-06-27 15:02:06 TV-X264 ZIWE.S01E03.720p.WEB.h264-KOGi
2021-06-27 15:02:39 MP3 Now_I_Am_Become_Death--The_Point-(SP125)-WEB-2020-BABAS
2021-06-27 15:02:39 TV-X264 ZIWE.S01E04.1080p.WEB.h264-KOGi
2021-06-27 15:03:11 TV-X264 ZIWE.S01E04.720p.WEB.h264-KOGi
2021-06-27 15:03:17 MP3 Space_Lab--Space_Bar-(DP012)-WEB-2020-BABAS
2021-06-27 15:03:42 TV-X264 ZIWE.S01E05.1080p.WEB.h264-KOGi
2021-06-27 15:03:55 MP3 Avguchenko--Lo_Fi_Ambre-(OSY067)-WEB-2020-BABAS
2021-06-27 15:04:14 TV-X264 ZIWE.S01E05.720p.WEB.h264-KOGi
2021-06-27 15:04:31 MP3 STI_Ts_Soul--All_The_Glory_EP-(CAT042)-WEB-2020-BABAS
2021-06-27 15:04:46 TV-X264 ZIWE.S01E06.1080p.WEB.h264-KOGi
2021-06-27 15:05:08 MP3 ADILR--Solitude-(PN008)-WEB-2020-BABAS
2021-06-27 15:05:18 TV-X264 ZIWE.S01E06.720p.WEB.h264-KOGi
2021-06-27 15:05:46 MP3 RejazzSA--Roses_and_Dub-(LFR011)-WEB-2020-BABAS
2021-06-27 15:06:59 MP3 Javfstrackt--Unknown_Area_EP-(PSR067)-WEB-2020-BABAS
2021-06-27 15:07:36 MP3 Persohna_x_Red_Rooms--Endless-(039)-WEB-2020-BABAS
2021-06-27 15:08:10 MP3 The_Extraverse--Currit_In_Somnis_EP-(DST003)-WEB-2020-BABAS
2021-06-27 15:08:45 MP3 KingTouch--Transition_EP-(CAT059)-WEB-2020-BABAS
2021-06-27 15:09:21 MP3 Horsemen--Maudlin_People-(BBC110)-WEB-2020-BABAS
2021-06-27 15:09:57 MP3 Sebastien_Tellier--Feels_Like_Summer-(REC1761)-SINGLE-WEB-2020-BABAS
2021-06-27 15:10:33 MP3 The_Kingsman--The_Genesis_EP_1-(CAT060)-WEB-2020-BABAS
2021-06-27 15:11:08 MP3 Mogrigo--Run-(VDR010)-SINGLE-WEB-2020-BABAS
2021-06-27 15:11:42 MP3 Taig--Let_Me_Go-(LFR001)-WEB-2020-BABAS
2021-06-27 15:12:17 MP3 Sean_Branton--Warung_EP-(NCR034)-WEB-2020-BABAS
2021-06-27 15:12:54 MP3 Hi_Tech_Criminal--Duster-(WRECKS034)-WEB-2020-BABAS
2021-06-27 15:13:28 MP3 Klustone--Infrared-(BBC113)-WEB-2020-BABAS
2021-06-27 15:14:03 MP3 Enflure--Les_Disques_Du_Bord_De_Leau_(Spring_EP_2020)-(WEBLO007)-WEB-2020-BABAS
2021-06-27 15:14:09 MP3 Benny_Benassi-Dance_with_Us-(m2o)-SAT-06-27-2021-TDMLiVE
2021-06-27 15:14:20 MP3 Bob_Sinclar-The_Bob_Sinclar_Show-(m2o)-SAT-06-27-2021-TDMLiVE
2021-06-27 15:14:32 MP3 Val_S-One_Two_One_Two_Selecta-(m2o)-SAT-06-26-2021-TDMLiVE
2021-06-27 15:14:37 MP3 Diabolic_Chronic--Trust_In_Deep-(VDR007)-WEB-2020-BABAS
2021-06-27 15:15:13 MP3 Manganese--Speeches-(BBC109)-WEB-2020-BABAS
2021-06-27 15:15:47 MP3 Mood_Gorning--Above_The_Leaves-(VR0120)-WEB-2020-BABAS
2021-06-27 15:16:23 MP3 Ritualistic__Franz_Jager_x_Dog_on_Acid--Hot_Tempo-(PN006)-WEB-2020-BABAS
2021-06-27 15:16:57 MP3 VA-Es_Codolar_EP-(HLR003)-WEB-2020-BABAS
2021-06-27 15:17:31 MP3 Franz_Jager--Luzi-(PN017)-WEB-2020-BABAS
2021-06-27 15:18:07 MP3 Skuum--Blue_Nespresso-(STRICT006)-WEB-2020-BABAS
2021-06-27 15:18:47 MP3 Donald-Tek--It_Took_Me_A_While-(VDR018)-WEB-2020-BABAS
2021-06-27 15:19:23 MP3 Neuquen_Groove--Les_Disques_Du_Bord_De_Leau_(Summer_2020_EP)-(WEBLO008)-WEB-2020-BABAS
2021-06-27 15:19:57 MP3 Deep_Sort_95--Endless_Game_EP-(CAT045)-WEB-2020-BABAS
2021-06-27 15:20:34 MP3 Oilst_x_Ben_Jarli--Chasing_Rabbits-(KLR041)-WEB-2020-BABAS
2021-06-27 15:21:08 MP3 Kiano_x_Below_Bangkok_feat_Adrian_Pricope--Amaris__Rendull-(VDR014)-WEB-2020-BABAS
2021-06-27 15:21:45 MP3 Titoffee_x_Hibotep--Les_Disques_Du_Bord_De_Leau_(Winter_2020_EP)-(WEBLO010)-WEB-2020-BABAS
2021-06-27 15:24:49 MP3 VA-Yugen_Vol_1_(Compiled_by_Rigel)-(MR044)-WEB-2021-x0x0s
2021-06-27 15:25:26 MP3 Seismic-Welcome_To_Mars-(GEOEP364)-WEB-2021-x0x0s
2021-06-27 15:26:03 MP3 Cosmic_Serpent-Cosmos-(GOAEP409)-WEB-2021-x0x0s
2021-06-27 15:26:38 MP3 VA-Growling_Forest_II-(BR0011)-WEB-2019-x0x0s
2021-06-27 15:27:19 MP3 VA-Prathama_(Compiled_by_Ananda)-WEB-2016-x0x0s
2021-06-27 15:27:58 MP3 VA-Connection_Vol_1_(Compiled_by_Rewind)-(ESVA003)-WEB-2021-x0x0s
2021-06-27 15:28:36 MP3 VA-Nag_Champa_(Compiled_by_Fractal_Dimension)-(BR00022)-WEB-2021-x0x0s
2021-06-27 15:29:14 MP3 XS-Jack_Of_All_Trades-(BR0010)-WEB-2019-x0x0s
2021-06-27 15:29:50 MP3 Space_Cream_x_Uyazi_Zulu-Macumba-(OVNIEP457)-SINGLE-WEB-2021-x0x0s
2021-06-27 15:30:28 MP3 Aladiah-Infinite_Density-(INM1DIGI600)-SINGLE-WEB-2021-x0x0s
2021-06-27 15:31:03 MP3 Tristan_x_Mandala-All_Living_Things-(NANODIGI267)-SINGLE-WEB-2021-x0x0s
2021-06-27 15:31:41 MP3 VA-Growling_Forest_(Compiled_by_Groovemoon)-(BR0005)-WEB-2018-x0x0s
2021-06-27 15:32:23 MP3 VA-Dimensional_Journey_Vol_2-WEB-2021-x0x0s
2021-06-27 15:33:05 MP3 Cosmic_Brahma-Bondhu-(BR0012)-WEB-2020-x0x0s
2021-06-27 15:33:40 MP3 VA-Nyaysa_II_(Compiled_by_Psychosomasis)-(BR0009)-WEB-2019-x0x0s
2021-06-27 15:34:06 MP3 Doja_Cat-Planet_Her_(Deluxe)-WEB-2021-TosK
2021-06-27 15:34:20 MP3 VA-Planetas_Similares-(ESVA002)-WEB-2020-x0x0s
2021-06-27 15:34:58 MP3 Karen_Nyame_KG-Sensei_II-(ACRE088D)-WEB-2021-x0x0s
2021-06-27 15:35:33 MP3 Kri_Samadhi-Minutes_After_Consciousness-(BR00026)-WEB-2021-x0x0s
2021-06-27 15:36:10 MP3 Ital_x_Brainlapse-Tribal_Journey-(ANTEP166)-WEB-2021-x0x0s
2021-06-27 15:36:49 MP3 VA-Saraswati_(Compiled_by_Djane_Bhavani)-(BR00025)-WEB-2021-x0x0s
2021-06-27 15:37:27 MP3 Kosta-Wonders_Of_The_Future-(PSYTRIBE039)-WEB-2021-x0x0s
2021-06-27 15:38:03 MP3 VA-Logarithmik_Impactz_(Compiled_by_Cyberblade)-(MR037)-WEB-2020-x0x0s
2021-06-27 15:41:16 EBOOK PluralSight.Consuming.An.Odata.V4.Api.Bookware-KNiSO
2021-06-27 15:42:34 TV-HD-FR One.Piece.E980.SUBFRENCH.1080p.WEB.x264-AMB3R
2021-06-27 15:49:07 TV-X264 MasterChef.Australia.S13E50.1080p.HDTV.H264-CBFM
2021-06-27 15:49:54 MP3 David_Guetta-David_Guetta_Playlist-(m2o)-SAT-06-27-2021-TDMLiVE
2021-06-27 15:57:53 MP3 Skids-Songs_From_A_Haunted_Ballroom-Digipack-2021-iTS
2021-06-27 16:04:25 MP3 Ally_Venable_Band-No_Glass_Shoes-WEB-2016-TERSE
2021-06-27 16:07:02 MP3 Ally_Venable_Band-Puppet_Show-WEB-2018-TERSE
2021-06-27 16:09:35 MP3 Ally_Venable-Texas_Honey-WEB-2019-TERSE_INT
2021-06-27 16:13:55 XXX WatchingMyDaughterGoBlack.21.06.27.Anna.Claire.Clouds.And.Casca.Akashova.XXX.1080p.MP4-WRB
2021-06-27 16:13:56 MP3 Ana_Popovic-Hush-WEB-2001-TERSE_INT
2021-06-27 16:14:00 MP3 Ana_Popovic-Hush-WEB-2001-T
2021-06-27 16:17:12 XXX Beauty4K.21.06.27.Nikki.Riddle.XXX.1080p.MP4-WRB
2021-06-27 16:17:22 MP3 Ana_Popovic-Blind_for_Love-WEB-2009-TERSE
2021-06-27 16:20:27 XXX Beauty4K.21.06.27.Nikki.Riddle.XXX.2160p.MP4-WRB
2021-06-27 16:21:15 MP3 Andy_T_Nick_Nixon_Band-Drink_Drank_Drunk-WEB-2013-TERSE
2021-06-27 16:23:49 MP3 Andy_T_Nick_Nixon_Band-Livin_It_Up-WEB-2014-TERSE
2021-06-27 16:25:49 MP3 David_Rodigan-BBC_1xtra-DAB-06-27-2021-z0ne
2021-06-27 16:26:50 MP3 Andy_T_Nick_Nixon_Band-Numbers_Man-WEB-2015-TERSE
2021-06-27 16:28:29 MP3 VA-Masterplan-DAB-06-26-2021-z0ne
2021-06-27 16:28:44 MP3 Arthur_Migliazza-Pumping_Ivories-WEB-2006-TERSE
2021-06-27 16:30:42 MP3 Arthur_Migliazza-Laying_It_Down-WEB-2014-TERSE
2021-06-27 16:32:26 MP3 Arthur_Migliazza-Bumble_Boogie-WEB-2017-TERSE
2021-06-27 16:35:03 MP3 Arthur_Migliazza-In_Your_Living_Room-WEB-2020-TERSE
2021-06-27 16:37:09 MP3 Breezy_Rodio-So_Close_to_It-WEB-2015-TERSE
2021-06-27 16:39:55 MP3 Breezy_Rodio-If_It_Aint_Broke_Dont_Fix_It-WEB-2019-TERSE
2021-06-27 16:43:19 MP3 Hadden_Sayers-12_Bars_and_the_Naked_Truth-WEB-2005-TERSE
2021-06-27 16:45:46 MP3 Hadden_Sayers-Acoustic_Dopamine-WEB-2018-TERSE
2021-06-27 16:47:35 MP3 Hadden_Sayers-Dopamine_Machine-WEB-2018-TERSE
2021-06-27 16:49:34 MP3 Henrik_Freischlader_Trio-Openness-WEB-2016-TERSE_INT
2021-06-27 16:51:23 MP3 Alvaro_AM-Aint_No_EP-(MOAN148)-WEB-2021-PTC
2021-06-27 16:52:14 MP3 DT3-Aliens_On_Holiday_EP-(ERD016)-WEB-2021-PTC
2021-06-27 16:52:16 MP3 Joakim_Tinderholt_and_His_Band-You_Gotta_Do_More-WEB-2014-TERSE
2021-06-27 16:53:06 MP3 Rockka-Sunshines_Valley-(PLTL040)-WEB-2021-PTC
2021-06-27 16:53:52 MP3 Sani_Nims_and_K3sara-Masadda-(MYC1020)-WEB-2021-PTC
2021-06-27 16:54:21 MP3 Wez-Skank-(ERD017)-SINGLE-WEB-2021-PTC
2021-06-27 16:55:38 TV-HD The.Young.and.the.Restless.S48E117.1080p.WEB.h264-DiRT
2021-06-27 16:56:35 TV-X264 The.Young.and.the.Restless.S48E117.720p.WEB.h264-DiRT
2021-06-27 16:57:35 TV-HD The.Young.and.the.Restless.S48E118.1080p.WEB.h264-DiRT
2021-06-27 16:58:35 TV-X264 The.Young.and.the.Restless.S48E118.720p.WEB.h264-DiRT
2021-06-27 16:59:08 MP3 Titty_Bar_Tim_Blues_Band-Flathead_Woman-WEB-2016-TERSE
2021-06-27 16:59:35 TV-HD The.Young.and.the.Restless.S48E119.1080p.WEB.h264-DiRT
2021-06-27 17:00:35 TV-X264 The.Young.and.the.Restless.S48E119.720p.WEB.h264-DiRT
2021-06-27 17:01:36 TV-HD The.Young.and.the.Restless.S48E120.1080p.WEB.h264-DiRT
2021-06-27 17:02:01 MP3 Williams_Wetsox_Trio-Da_Fisch_springt_ausm_Wasser-WEB-2012-TERSE
2021-06-27 17:02:36 TV-X264 The.Young.and.the.Restless.S48E120.720p.WEB.h264-DiRT
2021-06-27 17:03:35 TV-HD The.Young.and.the.Restless.S48E121.1080p.WEB.h264-DiRT
2021-06-27 17:04:17 TV-HD Moto2.2021.Netherlands.1080p.WEB.h264-VERUM
2021-06-27 17:04:22 MP3 Yarn-Idiot_Pop-WEB-2011-TERSE
2021-06-27 17:04:35 TV-X264 The.Young.and.the.Restless.S48E121.720p.WEB.h264-DiRT
2021-06-27 17:05:33 TV-X264 Moto2.2021.Netherlands.720p.WEB.h264-VERUM
2021-06-27 17:05:35 TV-HD The.Young.and.the.Restless.S48E122.1080p.WEB.h264-DiRT
2021-06-27 17:06:34 TV-X264 The.Young.and.the.Restless.S48E122.720p.WEB.h264-DiRT
2021-06-27 17:06:45 TV-HD Moto2.2021.Netherlands.Warming.Up.1080p.WEB.h264-VERUM
2021-06-27 17:07:30 TV-X264 Moto2.2021.Netherlands.Warming.Up.720p.WEB.h264-VERUM
2021-06-27 17:07:32 MP3 Yarn-This_Is_the_Year-WEB-2016-TERSE_INT
2021-06-27 17:07:36 TV-HD The.Young.and.the.Restless.S48E123.1080p.WEB.h264-DiRT
2021-06-27 17:08:35 TV-X264 The.Young.and.the.Restless.S48E123.720p.WEB.h264-DiRT
2021-06-27 17:09:29 MP3 Broderick_Smith-My_Shiralee-WEB-1994-TERSE
2021-06-27 17:09:36 TV-HD The.Young.and.the.Restless.S48E124.1080p.WEB.h264-DiRT
2021-06-27 17:09:57 TV-HD Moto3.2021.Netherlands.1080p.WEB.h264-VERUM
2021-06-27 17:10:00 TV-HD-FR Sentouin.Hakenshimasu.E11.CUSTOM.MULTi.1080p.WEB.H264-AMB3R
2021-06-27 17:10:35 TV-X264 The.Young.and.the.Restless.S48E124.720p.WEB.h264-DiRT
2021-06-27 17:11:19 TV-X264 Moto3.2021.Netherlands.720p.WEB.h264-VERUM
2021-06-27 17:11:37 TV-HD The.Young.and.the.Restless.S48E125.1080p.WEB.h264-DiRT
2021-06-27 17:12:10 MP3 Yarn-Idiot_Pop-WEB-2011-TER
2021-06-27 17:12:26 TV-HD Moto3.2021.Netherlands.Warming.Up.1080p.WEB.h264-VERUM
2021-06-27 17:12:35 TV-X264 The.Young.and.the.Restless.S48E125.720p.WEB.h264-DiRT
2021-06-27 17:13:09 TV-X264 Moto3.2021.Netherlands.Warming.Up.720p.WEB.h264-VERUM
2021-06-27 17:13:36 TV-HD The.Young.and.the.Restless.S48E126.1080p.WEB.h264-DiRT
2021-06-27 17:14:36 TV-X264 The.Young.and.the.Restless.S48E126.720p.WEB.h264-DiRT
2021-06-27 17:15:27 MP3 Broderick_Smith-Unknown_Country-WEB-2009-TERSE_INT
2021-06-27 17:15:37 TV-HD The.Young.and.the.Restless.S48E127.1080p.WEB.h264-DiRT
2021-06-27 17:16:15 TV-HD MotoGP.2021.Netherlands.1080p.WEB.h264-VERUM
2021-06-27 17:16:36 TV-X264 The.Young.and.the.Restless.S48E127.720p.WEB.h264-DiRT
2021-06-27 17:17:36 TV-HD The.Young.and.the.Restless.S48E128.1080p.WEB.h264-DiRT
2021-06-27 17:17:49 MP3 Chicken_Shack-OK_Ken-WEB-1969-TERSE_INT
2021-06-27 17:18:07 TV-X264 MotoGP.2021.Netherlands.720p.WEB.h264-VERUM
2021-06-27 17:18:36 TV-X264 The.Young.and.the.Restless.S48E128.720p.WEB.h264-DiRT
2021-06-27 17:19:09 DVDR Das.Weihnachtsglueck.Liebe.ist.das.schoenste.Geschenk.German.2019.DL.PAL.DVDR-HiGHLiGHT
2021-06-27 17:19:14 TV-HD MotoGP.2021.Netherlands.Warming.Up.1080p.WEB.h264-VERUM
2021-06-27 17:19:36 TV-HD The.Young.and.the.Restless.S48E129.1080p.WEB.h264-DiRT
2021-06-27 17:19:53 MP3 Chicken_Shack-Stan_Would_Rather_Go_Live-WEB-2014-TERSE
2021-06-27 17:19:57 TV-X264 MotoGP.2021.Netherlands.Warming.Up.720p.WEB.h264-VERUM
2021-06-27 17:20:35 TV-X264 The.Young.and.the.Restless.S48E129.720p.WEB.h264-DiRT
2021-06-27 17:21:36 MP3 Chicken_Shack-Thats_the_Way_We_Are-WEB-2015-TERSE
2021-06-27 17:25:06 MP3 Chicken_Shack-Roadies_Concerto-WEB-2015-TERSE
2021-06-27 17:27:44 TV-X264 Sherlock.Holmes.1984.S01E04.The.Solitary.Cyclist.720p.HDTV.X264.CZ-SDTV
2021-06-27 17:31:41 MP3 Enrico_Crivellaro-Mojo_Zone-WEB-2009-TERSE
2021-06-27 17:33:28 MP3 Bolnichenka-Protect-(DOR046)-WEB-2021-PTC
2021-06-27 17:33:52 MP3 Darcy_Stephens-The_Calling-(AWEN142)-WEB-2021-PTC
2021-06-27 17:34:08 MP3 Deciduous-Solum-(UT118)-WEB-2021-PTC
2021-06-27 17:34:14 TV-HD-FR Schitts.Creek.S04E01.FRENCH.720p.WEB.H264-PROPJOE
2021-06-27 17:34:22 TV-SD-FR Schitts.Creek.S04E01.FRENCH.WEB.H264-PROPJOE
2021-06-27 17:34:45 MP3 Di_Mos_(UA)-Breaking_Up_The_Noodles-(INDUSHE252)-SINGLE-WEB-2021-PTC
2021-06-27 17:35:01 MP3 DJ_Vapour-Depth_Charge_Riddim__Hear_Them_Style-(36HTZ098)-WEB-2021-PTC
2021-06-27 17:35:23 TV-HD-FR Schitts.Creek.S04E02.FRENCH.720p.WEB.H264-PROPJOE
2021-06-27 17:35:29 TV-SD-FR Schitts.Creek.S04E02.FRENCH.WEB.H264-PROPJOE
2021-06-27 17:35:39 MP3 Dustkey_ft._Sinne-Take_A_Moment-(LIQUICITYCOMP020K)-SINGLE-WEB-2021-PTC
2021-06-27 17:35:59 MP3 FiveP-Lost-(FREQ2119)-WEB-2021-PTC
2021-06-27 17:35:59 MP3 Enrico_Crivellaro-Freewheelin-WEB-2012-TERSE
2021-06-27 17:36:18 TV-HD-FR Schitts.Creek.S04E03.FRENCH.720p.WEB.H264-PROPJOE
2021-06-27 17:36:23 TV-SD-FR Schitts.Creek.S04E03.FRENCH.WEB.H264-PROPJOE
2021-06-27 17:36:31 MP3 Leandro_Murua-Storm__Cowboy-(SB006)-WEB-2021-PTC
2021-06-27 17:36:52 MP3 Pruf_and_Oneder-Delta_Force-(FKGR016)-WEB-2021-PTC
2021-06-27 17:37:06 TV-HD-FR Schitts.Creek.S04E04.FRENCH.720p.WEB.H264-PROPJOE
2021-06-27 17:37:10 TV-SD-FR Schitts.Creek.S04E04.FRENCH.WEB.H264-PROPJOE
2021-06-27 17:37:22 MP3 VA-Dusk_to_Dawn_2-(AHD199)-WEB-2021-PTC
2021-06-27 17:38:15 TV-HD-FR Schitts.Creek.S04E05.FRENCH.720p.WEB.H264-PROPJOE
2021-06-27 17:38:21 TV-SD-FR Schitts.Creek.S04E05.FRENCH.WEB.H264-PROPJOE
2021-06-27 17:39:16 TV-HD-FR Schitts.Creek.S04E06.FRENCH.720p.WEB.H264-PROPJOE
2021-06-27 17:39:20 TV-SD-FR Schitts.Creek.S04E06.FRENCH.WEB.H264-PROPJOE
2021-06-27 17:40:13 GAMES Monster_Prom_2_Monster_Camp_New_Blood_v1.30-Razor1911
2021-06-27 17:40:34 TV-HD-FR Schitts.Creek.S04E07.FRENCH.720p.WEB.H264-PROPJOE
2021-06-27 17:40:38 TV-SD-FR Schitts.Creek.S04E07.FRENCH.WEB.H264-PROPJOE
2021-06-27 17:41:37 TV-HD-FR Schitts.Creek.S04E08.FRENCH.720p.WEB.H264-PROPJOE
2021-06-27 17:41:41 TV-SD-FR Schitts.Creek.S04E08.FRENCH.WEB.H264-PROPJOE
2021-06-27 17:42:30 TV-HD-FR Schitts.Creek.S04E09.FRENCH.720p.WEB.H264-PROPJOE
2021-06-27 17:42:36 TV-SD-FR Schitts.Creek.S04E09.FRENCH.WEB.H264-PROPJOE
2021-06-27 17:43:09 TV-HD-FR Schitts.Creek.S04E10.FRENCH.720p.WEB.H264-PROPJOE
2021-06-27 17:43:14 TV-SD-FR Schitts.Creek.S04E10.FRENCH.WEB.H264-PROPJOE
2021-06-27 17:44:14 TV-HD-FR Schitts.Creek.S04E11.FRENCH.720p.WEB.H264-PROPJOE
2021-06-27 17:44:22 TV-SD-FR Schitts.Creek.S04E11.FRENCH.WEB.H264-PROPJOE
2021-06-27 17:45:07 TV-HD-FR Schitts.Creek.S04E12.FRENCH.720p.WEB.H264-PROPJOE
2021-06-27 17:45:11 TV-SD-FR Schitts.Creek.S04E12.FRENCH.WEB.H264-PROPJOE
2021-06-27 17:46:02 TV-HD-FR Schitts.Creek.S04E13.FiNAL.FRENCH.720p.WEB.H264-PROPJOE
2021-06-27 17:46:06 TV-SD-FR Schitts.Creek.S04E13.FiNAL.FRENCH.WEB.H264-PROPJOE
2021-06-27 17:47:56 MP3 Rude_Kid-Kiss-DAB-06-20-2021-z0ne
2021-06-27 17:49:45 GAMES Links.LS.1998.Edition.GoG.Classic-I_KnoW
2021-06-27 17:58:18 MP3 Copini-Lost-CHBLACK024-SINGLE-WEB-2021-TraX
2021-06-27 18:09:15 X264-HD-SP Destino.Final.3.2006.SPANiSH.1080p.WEB.h264-ENDURANCE
2021-06-27 18:09:46 X264-HD-SP Destino.Final.3.2006.SPANiSH.720p.WEB.h264-ENDURANCE
2021-06-27 18:10:18 X264-HD-SP Destino.Final.4.2009.SPANiSH.1080p.WEB.h264-ENDURANCE
2021-06-27 18:10:51 X264-HD-SP Destino.Final.4.2009.SPANiSH.720p.WEB.h264-ENDURANCE
2021-06-27 18:11:22 X264-HD-SP Entre.Sombras.2018.SPANiSH.1080p.WEB.h264-ENDURANCE
2021-06-27 18:11:55 X264-HD-SP Entre.Sombras.2018.SPANiSH.720p.WEB.h264-ENDURANCE
2021-06-27 18:12:27 TV-HD-SP Grown-Ish.S01E01.SPANiSH.1080p.WEB.h264-ENDURANCE
2021-06-27 18:13:00 TV-HD-SP Grown-Ish.S01E01.SPANiSH.720p.WEB.h264-ENDURANCE
2021-06-27 18:13:33 TV-HD-SP Grown-Ish.S01E02.SPANiSH.1080p.WEB.h264-ENDURANCE
2021-06-27 18:14:07 TV-HD-SP Grown-Ish.S01E02.SPANiSH.720p.WEB.h264-ENDURANCE
2021-06-27 18:14:38 TV-HD-SP Grown-Ish.S01E03.SPANiSH.1080p.WEB.h264-ENDURANCE
2021-06-27 18:15:11 TV-HD-SP Grown-Ish.S01E03.SPANiSH.720p.WEB.h264-ENDURANCE
2021-06-27 18:15:43 TV-HD-SP Grown-Ish.S01E04.SPANiSH.1080p.WEB.h264-ENDURANCE
2021-06-27 18:16:15 TV-HD-SP Grown-Ish.S01E04.SPANiSH.720p.WEB.h264-ENDURANCE
2021-06-27 18:16:48 TV-HD-SP Grown-Ish.S01E05.SPANiSH.1080p.WEB.h264-ENDURANCE
2021-06-27 18:17:21 TV-HD-SP Grown-Ish.S01E05.SPANiSH.720p.WEB.h264-ENDURANCE
2021-06-27 18:17:36 TV-X264 Moriarty.the.Patriot.S01E24.720p.WEB.H264-SUGOI
2021-06-27 18:17:38 FLAC Alessandro_Cortini-SCURO_CHIARO-(CDSTUM463)-CD-FLAC-2021-HOUND
2021-06-27 18:17:40 TV-X264 Moriarty.the.Patriot.S01E24.1080p.WEB.H264-SUGOI
2021-06-27 18:17:54 TV-HD-SP Grown-Ish.S01E06.SPANiSH.1080p.WEB.h264-ENDURANCE
2021-06-27 18:18:09 MP3 Alessandro_Cortini-SCURO_CHIARO-(CDSTUM463)-CD-2021-FANG
2021-06-27 18:18:25 TV-HD-SP Grown-Ish.S01E06.SPANiSH.720p.WEB.h264-ENDURANCE
2021-06-27 18:18:58 TV-HD-SP Grown-Ish.S01E07.SPANiSH.1080p.WEB.h264-ENDURANCE
2021-06-27 18:19:13 FLAC Alex_Dowling-Reality_Rounds-(Carrier_039)-CD-FLAC-2020-HOUND
2021-06-27 18:19:30 TV-HD-SP Grown-Ish.S01E07.SPANiSH.720p.WEB.h264-ENDURANCE
2021-06-27 18:19:35 MP3 Alex_Dowling-Reality_Rounds-(Carrier_039)-CD-2020-FANG
2021-06-27 18:19:55 TV-X264 Earth.Odyssey.With.Dylan.Dreyer.S03E24.720p.WEB.h264-DiRT
2021-06-27 18:20:04 TV-HD-SP Grown-Ish.S01E08.SPANiSH.1080p.WEB.h264-ENDURANCE
2021-06-27 18:20:36 TV-HD-SP Grown-Ish.S01E08.SPANiSH.720p.WEB.h264-ENDURANCE
2021-06-27 18:21:09 TV-HD-SP Grown-Ish.S01E09.SPANiSH.1080p.WEB.h264-ENDURANCE
2021-06-27 18:21:15 FLAC Espen_Sommer_Eide-The_Waves-(SOFA578)-CD-FLAC-2019-HOUND
2021-06-27 18:21:26 TV-HD Girl.Meets.Farm.S08E12.Ladies.Painting.Party.1080p.WEB.h264-KOMPOST
2021-06-27 18:21:41 TV-HD-SP Grown-Ish.S01E09.SPANiSH.720p.WEB.h264-ENDURANCE
2021-06-27 18:21:41 MP3 Espen_Sommer_Eide-The_Waves-(SOFA578)-CD-2019-FANG
2021-06-27 18:21:52 TV-X264 Girl.Meets.Farm.S08E12.Ladies.Painting.Party.720p.WEB.h264-KOMPOST
2021-06-27 18:22:13 TV-HD-SP Grown-Ish.S01E10.SPANiSH.1080p.WEB.h264-ENDURANCE
2021-06-27 18:22:19 TV-X264 The.Great.Food.Truck.Race.S14E04.Beach.Bite.Battle.720p.WEBRip.x264-KOMPOST
2021-06-27 18:22:46 TV-X264 Vacation.House.Rules.S02E04.Farmhouse.Getaway.720p.WEBRip.X264-KOMPOST
2021-06-27 18:22:47 TV-HD-SP Grown-Ish.S01E10.SPANiSH.720p.WEB.h264-ENDURANCE
2021-06-27 18:23:05 TV-X264 Earth.Odyssey.With.Dylan.Dreyer.S03E24.1080p.WEB.h264-DiRT
2021-06-27 18:23:14 FLAC Land_Of_Kush-Sand_Enigma-(CST146)-CD-FLAC-2019-HOUND
2021-06-27 18:23:21 TV-HD-SP Grown-Ish.S01E11.SPANiSH.1080p.WEB.h264-ENDURANCE
2021-06-27 18:23:52 TV-HD-SP Grown-Ish.S01E11.SPANiSH.720p.WEB.h264-ENDURANCE
2021-06-27 18:24:24 TV-HD-SP Grown-Ish.S01E12.SPANiSH.1080p.WEB.h264-ENDURANCE
2021-06-27 18:24:58 TV-HD-SP Grown-Ish.S01E12.SPANiSH.720p.WEB.h264-ENDURANCE
2021-06-27 18:25:21 X264-HD Rebel.Hearts.2021.720p.WEBRip.X264-KOMPOST
2021-06-27 18:25:29 TV-HD-SP Grown-Ish.S01E13.SPANiSH.1080p.WEB.h264-ENDURANCE
2021-06-27 18:25:45 MP3 Madism_-_All_For_You_(Extended_Mix)-SINGLE-WEB-2021-iDC
2021-06-27 18:26:02 TV-HD-SP Grown-Ish.S01E13.SPANiSH.720p.WEB.h264-ENDURANCE
2021-06-27 18:26:04 TV-X264 Formula.1.2021.Styrian.Grand.Prix.DANiSH.720p.HDTV.x264-RCDiVX
2021-06-27 18:26:06 TV-X264 Earth.Odyssey.With.Dylan.Dreyer.S03E25.720p.WEB.h264-DiRT
2021-06-27 18:27:01 MP3 Land_Of_Kush-Sand_Enigma-(CST146)-CD-2019-FANG
2021-06-27 18:27:15 MP3 Brooklyn_Bounce_and_Moodygee_feat._Discotronic_-_Tricky_Bounce-(MMRD1354)-WEB-2021-MARiBOR_INT
2021-06-27 18:27:16 MP3 DJane_HouseKat_-_The_Spirit_Of_Yesterday-(SUPRI086)-WEB-2021-MARiBOR
2021-06-27 18:27:18 MP3 Resistance_-_Libertad-(MMRD1355)-WEB-DE-2021-MARiBOR
2021-06-27 18:27:20 TV-SD Formula.1.2021.Styrian.Grand.Prix.DANiSH.HDTV.x264-RCDiVX
2021-06-27 18:27:25 FLAC The_Dead_C-Rare_Ravers-(BING_139)-CD-FLAC-2019-HOUND
2021-06-27 18:27:59 TV-X264 Earth.Odyssey.With.Dylan.Dreyer.S03E25.1080p.WEB.h264-DiRT
2021-06-27 18:28:07 MP3 The_Dead_C-Rare_Ravers-(BING_139)-CD-2019-FANG
2021-06-27 18:32:08 TV-HD-IT Central.Park.S02E01.iTALiAN.720p.WEB.H264-NTROPiC
2021-06-27 18:32:57 MP3 Remady_-_Into_The_Wild_(Extended_Mix)-(UL02798)-SINGLE-WEB-2021-iDC
2021-06-27 18:33:24 TV-HD-IT Central.Park.S02E02.iTALiAN.720p.WEB.H264-NTROPiC
2021-06-27 18:33:29 X264-HD Rebel.Hearts.2021.1080p.WEBRip.X264-KOMPOST
2021-06-27 18:35:03 TV-HD-IT Central.Park.S02E03.iTALiAN.720p.WEB.H264-NTROPiC
2021-06-27 18:35:53 MP3 Las_Olas_-_Jolene_(Extended)-SINGLE-WEB-2021-iDC
2021-06-27 18:36:19 TV-HD-IT Central.Park.S02E01.iTALiAN.1080p.WEB.H264-NTROPiC
2021-06-27 18:37:24 TV-HD-IT Central.Park.S02E02.iTALiAN.1080p.WEB.H264-NTROPiC
2021-06-27 18:41:08 TV-HD The.Young.and.the.Restless.S48E130.1080p.WEB.h264-DiRT
2021-06-27 18:41:47 TV-X264 Formula1.2021.Styrian.Grand.Prix.720p.WEB.h264-VERUM
2021-06-27 18:42:10 TV-X264 The.Young.and.the.Restless.S48E130.720p.WEB.h264-DiRT
2021-06-27 18:42:50 TV-HD Formula1.2021.Styrian.Grand.Prix.1080p.WEB.h264-VERUM
2021-06-27 18:43:09 TV-HD The.Young.and.the.Restless.S48E131.1080p.WEB.h264-DiRT
2021-06-27 18:43:56 TV-HD-IT Central.Park.S02E03.iTALiAN.1080p.WEB.H264-NTROPiC
2021-06-27 18:44:07 TV-X264 The.Young.and.the.Restless.S48E131.720p.WEB.h264-DiRT
2021-06-27 18:45:07 TV-HD The.Young.and.the.Restless.S48E132.1080p.WEB.h264-DiRT
2021-06-27 18:45:13 MP3 KORMAX_-_Side_Me_(Extended_Mix)-(ND048E)-SINGLE-WEB-2021-iDC
2021-06-27 18:46:08 TV-X264 The.Young.and.the.Restless.S48E132.720p.WEB.h264-DiRT
2021-06-27 18:47:07 TV-HD The.Young.and.the.Restless.S48E133.1080p.WEB.h264-DiRT
2021-06-27 18:47:38 TV-X264 Valeries.Home.Cooking.S12E08.Easy.Breezy.Brunch.1080p.WEBRip.x264-KOMPOST
2021-06-27 18:47:42 TV-X264 Valeries.Home.Cooking.S12E08.Easy.Breezy.Brunch.720p.WEBRip.x264-KOMPOST
2021-06-27 18:48:07 TV-X264 The.Young.and.the.Restless.S48E133.720p.WEB.h264-DiRT
2021-06-27 18:48:55 MP3 Kin_Aesis_-_Take_Me_Home_(Extended_Mix)-(AORTA013)-SINGLE-WEB-2021-iDC
2021-06-27 18:49:06 TV-HD The.Young.and.the.Restless.S48E134.1080p.WEB.h264-DiRT
2021-06-27 18:50:06 TV-X264 The.Young.and.the.Restless.S48E134.720p.WEB.h264-DiRT
2021-06-27 18:51:07 TV-HD The.Young.and.the.Restless.S48E135.1080p.WEB.h264-DiRT
2021-06-27 18:52:06 TV-X264 The.Young.and.the.Restless.S48E135.720p.WEB.h264-DiRT
2021-06-27 18:53:08 TV-HD The.Young.and.the.Restless.S48E136.1080p.WEB.h264-DiRT
2021-06-27 18:54:07 TV-X264 The.Young.and.the.Restless.S48E136.720p.WEB.h264-DiRT
2021-06-27 18:55:08 TV-HD The.Young.and.the.Restless.S48E137.1080p.WEB.h264-DiRT
2021-06-27 18:56:07 TV-X264 The.Young.and.the.Restless.S48E137.720p.WEB.h264-DiRT
2021-06-27 18:56:09 MP3 Lady_Bee_And_Cara_Melin_-_Driver_Seat_(Dave_Summit_Extended_Remix)-(MIXMA346B)-SINGLE-WEB-2021-iDC
2021-06-27 18:57:07 TV-HD The.Young.and.the.Restless.S48E138.1080p.WEB.h264-DiRT
2021-06-27 18:58:08 TV-X264 The.Young.and.the.Restless.S48E138.720p.WEB.h264-DiRT
2021-06-27 18:58:50 MP3 Dauthuz-Cold-WEB-2021-FiH
2021-06-27 18:59:08 TV-HD The.Young.and.the.Restless.S48E139.1080p.WEB.h264-DiRT
2021-06-27 18:59:18 MP3 Luca_Schreiner_Feat_Beth_Duck_-_A_Thousand_Miles_(Extended_Mix)-(UL02429)-SINGLE-WEB-2021-iDC
2021-06-27 18:59:23 MP3 Hated_Related-Grief_Unbridled-WEB-2021-FiH
2021-06-27 18:59:55 MP3 Humiliation-From_Strength_To_Strength-WEB-2012-FiH
2021-06-27 19:00:07 TV-X264 The.Young.and.the.Restless.S48E139.720p.WEB.h264-DiRT
2021-06-27 19:00:28 MP3 Humiliation-No_Escape-WEB-2017-FiH
2021-06-27 19:00:59 MP3 Humiliation-Parallel_Chains_Of_Command-WEB-2019-FiH
2021-06-27 19:01:31 MP3 Humiliation-Regiment-WEB-2018-FiH
2021-06-27 19:02:02 MP3 Humiliation-Silenced_Carnival_(Live_Session)-WEB-2020-FiH
2021-06-27 19:02:16 MP3 Watts_Gangstas-The_Real-Reissue-2017-NOiR_INT
2021-06-27 19:02:34 MP3 Humiliation-XI_Triumphant-WEB-2020-FiH
2021-06-27 19:02:41 TV-HD-IT Central.Park.S02E01.iTALiAN.HDR.2160p.WEB.H265-NTROPiC
2021-06-27 19:02:59 MP3 Watts_Gangstas-Affiliated-Cant_Stop_Wont_Stop-2017-NOiR
2021-06-27 19:03:11 MP3 Poison_Idea-Blank_Blackout_Vacant-Reissue_Deluxe_Edition-WEB-2020-FiH
2021-06-27 19:03:23 TV-HD-IT Central.Park.S02E02.iTALiAN.HDR.2160p.WEB.H265-NTROPiC
2021-06-27 19:03:42 TV-HD-IT Central.Park.S02E03.iTALiAN.HDR.2160p.WEB.H265-NTROPiC
2021-06-27 19:03:45 MP3 Poison_Idea-Feel_The_Darkness-Reissue_Deluxe_Edition-WEB-2018-FiH
2021-06-27 19:06:55 TV-HD-FR Schitts.Creek.S05E01.FRENCH.720p.WEB.H264-PROPJOE
2021-06-27 19:07:03 TV-SD-FR Schitts.Creek.S05E01.FRENCH.WEB.H264-PROPJOE
2021-06-27 19:07:37 MP3 Mon_DJ_And_Makasi_-_Maniac_(Extended_Mix)-(GS156BP)-SINGLE-WEB-2021-iDC
2021-06-27 19:07:43 TV-HD-FR Schitts.Creek.S05E02.FRENCH.720p.WEB.H264-PROPJOE
2021-06-27 19:07:47 TV-SD-FR Schitts.Creek.S05E02.FRENCH.WEB.H264-PROPJOE
2021-06-27 19:08:22 XXX TmwVRNet.21.06.26.Wild.Nicol.Youre.The.One.That.I.Suck.XXX.VR180.2700p.MP4-GUSH
2021-06-27 19:08:36 TV-HD-FR Schitts.Creek.S05E03.FRENCH.720p.WEB.H264-PROPJOE
2021-06-27 19:08:44 MP3 Rompasso_And_MOLOW_-_Bass_Goes_Down_(Extended_Mix)-SINGLE-WEB-2021-iDC
2021-06-27 19:08:48 TV-SD-FR Schitts.Creek.S05E03.FRENCH.WEB.H264-PROPJOE
2021-06-27 19:09:47 TV-HD-FR Schitts.Creek.S05E04.FRENCH.720p.WEB.H264-PROPJOE
2021-06-27 19:09:53 TV-SD-FR Schitts.Creek.S05E04.FRENCH.WEB.H264-PROPJOE
2021-06-27 19:10:57 TV-HD-FR Schitts.Creek.S05E05.FRENCH.720p.WEB.H264-PROPJOE
2021-06-27 19:11:02 TV-SD-FR Schitts.Creek.S05E05.FRENCH.WEB.H264-PROPJOE
2021-06-27 19:12:18 TV-HD-FR Schitts.Creek.S05E06.FRENCH.720p.WEB.H264-PROPJOE
2021-06-27 19:12:25 TV-SD-FR Schitts.Creek.S05E06.FRENCH.WEB.H264-PROPJOE
2021-06-27 19:13:06 TV-HD-FR Schitts.Creek.S05E07.FRENCH.720p.WEB.H264-PROPJOE
2021-06-27 19:13:12 TV-SD-FR Schitts.Creek.S05E07.FRENCH.WEB.H264-PROPJOE
2021-06-27 19:14:23 TV-HD-FR Schitts.Creek.S05E08.FRENCH.720p.WEB.H264-PROPJOE
2021-06-27 19:14:31 TV-SD-FR Schitts.Creek.S05E08.FRENCH.WEB.H264-PROPJOE
2021-06-27 19:15:01 MP3 Marc_De_Simon_-_Blend_(Recommended_by_Klubbers_Inc._DJ_Team)-(PAT60014)-WEB-2008-MARiBOR
2021-06-27 19:15:03 MP3 Marc_De_Simon_-_Salvation_In_Trance_2011-(PAT60026)-WEB-2011-MARiBOR
2021-06-27 19:15:04 MP3 Marc_De_Simon_Feat._Alesia_-_Fall_And_Tears_2010-(PAT60023)-WEB-2009-MARiBOR
2021-06-27 19:15:06 MP3 Speakerguyz_-_Galaxy-(10059716)-WEB-2013-MARiBOR
2021-06-27 19:15:06 MP3 Marc_De_Simon_Feat._Alesia_-_Rainbow_Sky_2010-(PAT60024)-WEB-2010-MARiBOR
2021-06-27 19:15:06 MP3 Speakerguyz_-_Galaxy_(Remixes)-(10062127)-WEB-2013-MARiBOR
2021-06-27 19:15:23 TV-HD-FR Schitts.Creek.S05E09.FRENCH.720p.WEB.H264-PROPJOE
2021-06-27 19:15:29 TV-SD-FR Schitts.Creek.S05E09.FRENCH.WEB.H264-PROPJOE
2021-06-27 19:16:22 TV-HD-FR Schitts.Creek.S05E10.FRENCH.720p.WEB.H264-PROPJOE
2021-06-27 19:16:29 TV-SD-FR Schitts.Creek.S05E10.FRENCH.WEB.H264-PROPJOE
2021-06-27 19:17:29 TV-HD-FR Schitts.Creek.S05E11.FRENCH.720p.WEB.H264-PROPJOE
2021-06-27 19:17:40 TV-SD-FR Schitts.Creek.S05E11.FRENCH.WEB.H264-PROPJOE
2021-06-27 19:18:25 TV-HD-FR Schitts.Creek.S05E12.FRENCH.720p.WEB.H264-PROPJOE
2021-06-27 19:18:32 TV-SD-FR Schitts.Creek.S05E12.FRENCH.WEB.H264-PROPJOE
2021-06-27 19:19:21 TV-HD-FR Schitts.Creek.S05E13.FRENCH.720p.WEB.H264-PROPJOE
2021-06-27 19:19:30 TV-SD-FR Schitts.Creek.S05E13.FRENCH.WEB.H264-PROPJOE
2021-06-27 19:20:51 TV-HD-FR Schitts.Creek.S05E14.FiNAL.FRENCH.720p.WEB.H264-PROPJOE
2021-06-27 19:21:06 TV-SD-FR Schitts.Creek.S05E14.FiNAL.FRENCH.WEB.H264-PROPJOE
2021-06-27 19:25:57 TV-X264 Charmed.Zauberhafte.Hexen.S02E13.Ein.tierisch.guter.Spuk.German.DL.1080p.BluRay.x264-PL3X
2021-06-27 19:26:29 TV-X264 Charmed.Zauberhafte.Hexen.S02E13.Ein.tierisch.guter.Spuk.German.DL.720p.BluRay.x264-PL3X
2021-06-27 19:26:47 TV-X264 Formule1.2021.GP08.Steiermark.Race.DUTCH.1080p.HDTV.x264-DTOD
2021-06-27 19:27:01 TV-SD-DE Charmed.Zauberhafte.Hexen.S02E13.Ein.tierisch.guter.Spuk.German.REMASTERED.BDRiP.x264-PL3X
2021-06-27 19:28:27 TV-X264 Charmed.Zauberhafte.Hexen.S02E14.Verflucht.in.alle.Ewigkeit.German.DL.1080p.BluRay.x264-PL3X
2021-06-27 19:28:52 MP3 R3HAB_And_Luis_Fonsi_And_Sean_Paul_-_Pues_(Extended_Version)-(CY19311)-SINGLE-WEB-SP-2021-iDC
2021-06-27 19:30:02 TV-X264 Charmed.Zauberhafte.Hexen.S02E14.Verflucht.in.alle.Ewigkeit.German.DL.720p.BluRay.x264-PL3X
2021-06-27 19:32:56 TV-X264 Charmed.Zauberhafte.Hexen.S02E15.Das.Zeichen.German.DL.1080p.BluRay.x264-PL3X
2021-06-27 19:35:04 MP3 Sam_Rotstin_-_Hometown_(Club_Mix)-(BTPRT276683)-SINGLE-WEB-2021-iDC
2021-06-27 19:36:41 TV-X264 Charmed.Zauberhafte.Hexen.S02E15.Das.Zeichen.German.DL.720p.BluRay.x264-PL3X
2021-06-27 19:37:30 TV-SD-DE Charmed.Zauberhafte.Hexen.S02E15.Das.Zeichen.German.REMASTERED.BDRiP.x264-PL3X
2021-06-27 19:37:54 XXX American-Pornstar.21.06.23.Vile.Vixen.Likes.It.Big.And.Vicious.XXX.1080p.MP4-GUSH
2021-06-27 19:39:31 TV-X264 Doomsday.Mom.The.Lori.Vallow.Story.2021.720p.WEB.h264-BAE
2021-06-27 19:39:34 TV-SD Doomsday.Mom.The.Lori.Vallow.Story.2021.WEB.h264-BAE
2021-06-27 19:40:22 MP3 Sebastian_Park_And_Angelina_Lavo_-_Designer_Work_(Extended_Mix)-(SIR1371)-SINGLE-WEB-2021-iDC
2021-06-27 19:40:49 ABOOKS Andrea_Wulf-Alexander_von_Humboldt-2MP3CD-DE-2016-FKKAuDiOBooK
2021-06-27 19:41:42 ABOOKS David_Pfeifer-Die_rote_Wand-6CD-Rerip-DE-2015-FKKAuDiOBooK
2021-06-27 19:42:22 ABOOKS T.C._Boyle-Sprich_mit_mir-Dirfix-Nfofix-MP3CD-DE-2021-FKKAuDiOBooK
2021-06-27 19:44:03 MP3 SICK_INDIVIDUALS_And_Kheela_-_Gotta_Get_to_You_(Extended_Mix)-SINGLE-WEB-2021-iDC
2021-06-27 19:44:29 TV-SD-DE Charmed.Zauberhafte.Hexen.S02E16.Vom.Pech.verfolgt.German.REMASTERED.BDRiP.x264-PL3X
2021-06-27 19:46:18 TV-X264 Charmed.Zauberhafte.Hexen.S02E17.Ewige.Jugend.German.DL.1080p.BluRay.x264-PL3X
2021-06-27 19:46:20 XXX American-Pornstar.21.06.12.Lydia.Black.Deep.Double.Anal.XXX.1080p.MP4-GUSH
2021-06-27 19:47:31 TV-X264 Charmed.Zauberhafte.Hexen.S02E17.Ewige.Jugend.German.DL.720p.BluRay.x264-PL3X
2021-06-27 19:48:18 TV-SD-DE Charmed.Zauberhafte.Hexen.S02E17.Ewige.Jugend.German.REMASTERED.BDRiP.x264-PL3X
2021-06-27 19:50:38 TV-X264 Charmed.Zauberhafte.Hexen.S02E18.Der.reinste.Horror.German.DL.1080p.BluRay.x264-PL3X
2021-06-27 19:51:58 TV-X264 Charmed.Zauberhafte.Hexen.S02E18.Der.reinste.Horror.German.DL.720p.BluRay.x264-PL3X
2021-06-27 19:52:46 TV-SD-DE Charmed.Zauberhafte.Hexen.S02E18.Der.reinste.Horror.German.REMASTERED.BDRiP.x264-PL3X
2021-06-27 19:54:46 TV-X264 Charmed.Zauberhafte.Hexen.S02E19.Ex.Libris.German.DL.1080p.BluRay.x264-PL3X
2021-06-27 19:55:12 TV-HD The.Young.and.the.Restless.S48E140.1080p.WEB.h264-DiRT
2021-06-27 19:56:06 TV-X264 Charmed.Zauberhafte.Hexen.S02E19.Ex.Libris.German.DL.720p.BluRay.x264-PL3X
2021-06-27 19:56:11 TV-X264 The.Young.and.the.Restless.S48E140.720p.WEB.h264-DiRT
2021-06-27 19:56:54 TV-SD-DE Charmed.Zauberhafte.Hexen.S02E19.Ex.Libris.German.REMASTERED.BDRiP.x264-PL3X
2021-06-27 19:57:11 TV-HD The.Young.and.the.Restless.S48E141.1080p.WEB.h264-DiRT
2021-06-27 19:58:10 TV-X264 The.Young.and.the.Restless.S48E141.720p.WEB.h264-DiRT
2021-06-27 19:58:53 TV-X264 Charmed.Zauberhafte.Hexen.S02E20.Hexenblut.German.DL.1080p.BluRay.x264-PL3X
2021-06-27 19:59:12 TV-HD The.Young.and.the.Restless.S48E142.1080p.WEB.h264-DiRT
2021-06-27 20:00:10 TV-X264 Charmed.Zauberhafte.Hexen.S02E20.Hexenblut.German.DL.720p.BluRay.x264-PL3X
2021-06-27 20:00:12 TV-X264 The.Young.and.the.Restless.S48E142.720p.WEB.h264-DiRT
2021-06-27 20:01:02 TV-SD-DE Charmed.Zauberhafte.Hexen.S02E20.Hexenblut.German.REMASTERED.BDRiP.x264-PL3X
2021-06-27 20:01:11 TV-HD The.Young.and.the.Restless.S48E143.1080p.WEB.h264-DiRT
2021-06-27 20:01:30 MP3 Jacques_-_Dans_La_Radio_(Remix)-(PS009)-WEB-2017-BiLDERBERG
2021-06-27 20:02:11 TV-X264 The.Young.and.the.Restless.S48E143.720p.WEB.h264-DiRT
2021-06-27 20:03:11 TV-HD The.Young.and.the.Restless.S48E144.1080p.WEB.h264-DiRT
2021-06-27 20:04:10 TV-X264 The.Young.and.the.Restless.S48E144.720p.WEB.h264-DiRT
2021-06-27 20:04:47 MP3 Dardan-GTA-SINGLE-WEB-DE-2021-wAx
2021-06-27 20:05:12 TV-HD The.Young.and.the.Restless.S48E145.1080p.WEB.h264-DiRT
2021-06-27 20:05:43 TV-X264 Charmed.Zauberhafte.Hexen.S02E21.Die.Reiter.der.Apokalypse.German.DL.1080p.BluRay.x264-PL3X
2021-06-27 20:06:11 TV-X264 The.Young.and.the.Restless.S48E145.720p.WEB.h264-DiRT
2021-06-27 20:07:11 TV-HD The.Young.and.the.Restless.S48E146.1080p.WEB.h264-DiRT
2021-06-27 20:07:23 TV-HD-DE High.School.Musical.Das.Musical.Die.Serie.S02E07.German.DL.HDR.2160p.WEBRiP.x265-CTFOH
2021-06-27 20:08:12 TV-X264 The.Young.and.the.Restless.S48E146.720p.WEB.h264-DiRT
2021-06-27 20:08:56 TV-HD-DE Star.Wars.The.Bad.Batch.2021.S01E09.German.DL.HDR.2160p.WEBRiP.x265-CTFOH
2021-06-27 20:09:11 TV-HD The.Young.and.the.Restless.S48E147.1080p.WEB.h264-DiRT
2021-06-27 20:10:09 TV-X264 The.Young.and.the.Restless.S48E147.720p.WEB.h264-DiRT
2021-06-27 20:10:54 TV-SD-DE Charmed.Zauberhafte.Hexen.S02E21.Die.Reiter.der.Apokalypse.German.REMASTERED.BDRiP.x264-PL3X
2021-06-27 20:11:12 TV-HD The.Young.and.the.Restless.S48E148.1080p.WEB.h264-DiRT
2021-06-27 20:12:11 TV-X264 The.Young.and.the.Restless.S48E148.720p.WEB.h264-DiRT
2021-06-27 20:12:32 TV-X264 My.Life.on.MTV.S01E05.1080p.WEB.h264-BAE
2021-06-27 20:12:37 TV-X264 My.Life.on.MTV.S01E05.720p.WEB.h264-BAE
2021-06-27 20:12:42 TV-SD My.Life.on.MTV.S01E05.WEB.h264-BAE
2021-06-27 20:12:49 TV-X264 My.Life.on.MTV.S01E06.1080p.WEB.h264-BAE
2021-06-27 20:12:53 TV-X264 My.Life.on.MTV.S01E06.720p.WEB.h264-BAE
2021-06-27 20:12:57 TV-SD My.Life.on.MTV.S01E06.WEB.h264-BAE
2021-06-27 20:13:13 TV-HD The.Young.and.the.Restless.S48E149.1080p.WEB.h264-DiRT
2021-06-27 20:13:26 TV-X264 Charmed.Zauberhafte.Hexen.S02E22.Wuensch.dir.was.German.DL.1080p.BluRay.x264-PL3X
2021-06-27 20:14:11 TV-X264 The.Young.and.the.Restless.S48E149.720p.WEB.h264-DiRT
2021-06-27 20:14:47 TV-X264 Charmed.Zauberhafte.Hexen.S02E22.Wuensch.dir.was.German.DL.720p.BluRay.x264-PL3X
2021-06-27 20:15:33 TV-SD-DE Charmed.Zauberhafte.Hexen.S02E22.Wuensch.dir.was.German.REMASTERED.BDRiP.x264-PL3X
2021-06-27 20:19:49 MP3 VA-Tears_of_Kali_-_the_Dark_Side_of_New_Age-OST-2006-NOiR
2021-06-27 20:22:11 MP3 Shosh-Kiss-DAB-06-14-2021-z0ne
2021-06-27 20:22:12 MP3 Shosh-Kiss-DAB-06-21-2021-z0ne
2021-06-27 20:24:23 TV-X264 112.Notruf.Deutschland.S01E01.Zwischen.Strasse.und.Schockraum.German.DOKU.1080p.HDTV.x264-ATAX
2021-06-27 20:29:49 TV-X264 112.Notruf.Deutschland.S01E01.Zwischen.Strasse.und.Schockraum.German.DOKU.720p.HDTV.x264-ATAX
2021-06-27 20:32:59 TV-SD-DE 112.Notruf.Deutschland.S01E01.Zwischen.Strasse.und.Schockraum.German.DOKU.HDTVRip.x264-ATAX
2021-06-27 20:38:19 TV-HD-IT Calls.2021.S01E01.iTALiAN.720p.WEB.H264-NTROPiC
2021-06-27 20:38:27 TV-HD The.Young.and.the.Restless.S48E150.1080p.WEB.h264-DiRT
2021-06-27 20:39:26 TV-X264 The.Young.and.the.Restless.S48E150.720p.WEB.h264-DiRT
2021-06-27 20:40:04 TV-HD-IT Calls.2021.S01E02.iTALiAN.720p.WEB.H264-NTROPiC
2021-06-27 20:40:27 TV-HD The.Young.and.the.Restless.S48E151.1080p.WEB.h264-DiRT
2021-06-27 20:41:13 TV-HD-IT Calls.2021.S01E03.iTALiAN.720p.WEB.H264-NTROPiC
2021-06-27 20:41:26 TV-X264 The.Young.and.the.Restless.S48E151.720p.WEB.h264-DiRT
2021-06-27 20:42:28 TV-HD The.Young.and.the.Restless.S48E152.1080p.WEB.h264-DiRT
2021-06-27 20:42:56 TV-HD-IT Calls.2021.S01E04.iTALiAN.720p.WEB.H264-NTROPiC
2021-06-27 20:43:27 TV-X264 The.Young.and.the.Restless.S48E152.720p.WEB.h264-DiRT
2021-06-27 20:44:27 TV-HD The.Young.and.the.Restless.S48E153.1080p.WEB.h264-DiRT
2021-06-27 20:44:47 TV-HD-IT Calls.2021.S01E05.iTALiAN.720p.WEB.H264-NTROPiC
2021-06-27 20:45:19 TV-X264 Ab.ins.Beet.Die.Garten.Soap.S16E03.German.DOKU.1080p.HDTV.x264-ATAX
2021-06-27 20:45:25 TV-X264 The.Young.and.the.Restless.S48E153.720p.WEB.h264-DiRT
2021-06-27 20:46:14 MP3 Androcell_-_Fib-WEB-2021-gEm
2021-06-27 20:46:27 TV-HD The.Young.and.the.Restless.S48E154.1080p.WEB.h264-DiRT
2021-06-27 20:47:26 TV-HD-IT Calls.2021.S01E06.iTALiAN.720p.WEB.H264-NTROPiC
2021-06-27 20:47:27 TV-X264 The.Young.and.the.Restless.S48E154.720p.WEB.h264-DiRT
2021-06-27 20:48:25 TV-HD The.Young.and.the.Restless.S48E155.1080p.WEB.h264-DiRT
2021-06-27 20:49:10 TV-HD-FR Schitts.Creek.S06E01.FRENCH.720p.WEB.H264-PROPJOE
2021-06-27 20:49:16 TV-SD-FR Schitts.Creek.S06E01.FRENCH.WEB.H264-PROPJOE
2021-06-27 20:49:25 TV-X264 The.Young.and.the.Restless.S48E155.720p.WEB.h264-DiRT
2021-06-27 20:50:01 TV-HD-IT Calls.2021.S01E07.iTALiAN.720p.WEB.H264-NTROPiC
2021-06-27 20:50:11 TV-HD-FR Schitts.Creek.S06E02.FRENCH.720p.WEB.H264-PROPJOE
2021-06-27 20:50:18 TV-SD-FR Schitts.Creek.S06E02.FRENCH.WEB.H264-PROPJOE
2021-06-27 20:50:26 TV-HD The.Young.and.the.Restless.S48E156.1080p.WEB.h264-DiRT
2021-06-27 20:51:14 TV-HD-FR Schitts.Creek.S06E03.FRENCH.720p.WEB.H264-PROPJOE
2021-06-27 20:51:18 TV-SD-FR Schitts.Creek.S06E03.FRENCH.WEB.H264-PROPJOE
2021-06-27 20:51:25 TV-X264 The.Young.and.the.Restless.S48E156.720p.WEB.h264-DiRT
2021-06-27 20:51:58 TV-HD-FR Schitts.Creek.S06E04.FRENCH.720p.WEB.H264-PROPJOE
2021-06-27 20:52:02 TV-SD-FR Schitts.Creek.S06E04.FRENCH.WEB.H264-PROPJOE
2021-06-27 20:52:21 TV-X264 Ab.ins.Beet.Die.Garten.Soap.S16E03.German.DOKU.720p.HDTV.x264-ATAX
2021-06-27 20:52:21 TV-HD-IT Calls.2021.S01E08.iTALiAN.720p.WEB.H264-NTROPiC
2021-06-27 20:52:28 TV-HD The.Young.and.the.Restless.S48E157.1080p.WEB.h264-DiRT
2021-06-27 20:53:15 TV-HD-FR Schitts.Creek.S06E05.FRENCH.720p.WEB.H264-PROPJOE
2021-06-27 20:53:20 TV-SD-FR Schitts.Creek.S06E05.FRENCH.WEB.H264-PROPJOE
2021-06-27 20:53:25 TV-X264 The.Young.and.the.Restless.S48E157.720p.WEB.h264-DiRT
2021-06-27 20:54:04 TV-HD-FR Schitts.Creek.S06E06.FRENCH.720p.WEB.H264-PROPJOE
2021-06-27 20:54:08 TV-SD-FR Schitts.Creek.S06E06.FRENCH.WEB.H264-PROPJOE
2021-06-27 20:54:26 TV-HD-IT Calls.2021.S01E09.iTALiAN.FiNAL.720p.WEB.H264-NTROPiC
2021-06-27 20:54:27 TV-HD The.Young.and.the.Restless.S48E158.1080p.WEB.h264-DiRT
2021-06-27 20:54:38 TV-HD-FR Schitts.Creek.S06E07.FRENCH.720p.WEB.H264-PROPJOE
2021-06-27 20:54:42 TV-SD-FR Schitts.Creek.S06E07.FRENCH.WEB.H264-PROPJOE
2021-06-27 20:55:26 TV-X264 The.Young.and.the.Restless.S48E158.720p.WEB.h264-DiRT
2021-06-27 20:55:36 TV-HD-FR Schitts.Creek.S06E08.FRENCH.720p.WEB.H264-PROPJOE
2021-06-27 20:55:42 TV-SD-FR Schitts.Creek.S06E08.FRENCH.WEB.H264-PROPJOE
2021-06-27 20:56:12 TV-SD-DE Ab.ins.Beet.Die.Garten.Soap.S16E03.German.DOKU.HDTVRip.x264-ATAX
2021-06-27 20:56:27 TV-HD The.Young.and.the.Restless.S48E159.1080p.WEB.h264-DiRT
2021-06-27 20:56:42 TV-HD-FR Schitts.Creek.S06E09.FRENCH.720p.WEB.H264-PROPJOE
2021-06-27 20:56:49 TV-SD-FR Schitts.Creek.S06E09.FRENCH.WEB.H264-PROPJOE
2021-06-27 20:56:59 XXX American-Pornstar.21.05.31.Isabel.Moon.Big.Booty.Latina.Sucks.Fucks.And.Eats.Ass.XXX.1080p.MP4-GUSH
2021-06-27 20:57:06 TV-HD-IT Calls.2021.S01E01.iTALiAN.1080p.WEB.H264-NTROPiC
2021-06-27 20:57:25 TV-X264 The.Young.and.the.Restless.S48E159.720p.WEB.h264-DiRT
2021-06-27 20:57:34 MP3 Aribeatz-Aqui_Feat_Ozuna_Soolking_And_Morad_(Remix)-SINGLE-WEB-FR-2021-L0sS
2021-06-27 20:57:38 TV-HD-FR Schitts.Creek.S06E10.FRENCH.720p.WEB.H264-PROPJOE
2021-06-27 20:57:46 TV-SD-FR Schitts.Creek.S06E10.FRENCH.WEB.H264-PROPJOE
2021-06-27 20:58:19 TV-HD-FR Schitts.Creek.S06E11.FRENCH.720p.WEB.H264-PROPJOE
2021-06-27 20:58:26 TV-SD-FR Schitts.Creek.S06E11.FRENCH.WEB.H264-PROPJOE
2021-06-27 20:58:31 TV-HD-IT Calls.2021.S01E02.iTALiAN.1080p.WEB.H264-NTROPiC
2021-06-27 20:59:22 TV-HD-FR Schitts.Creek.S06E12.FRENCH.720p.WEB.H264-PROPJOE
2021-06-27 20:59:29 TV-SD-FR Schitts.Creek.S06E12.FRENCH.WEB.H264-PROPJOE
2021-06-27 20:59:45 TV-X264 Charmed.Zauberhafte.Hexen.S02E03.Voll.im.Bild.German.DL.1080p.BluRay.x264-PL3X
2021-06-27 21:00:24 TV-SD-FR Schitts.Creek.S06E13.FRENCH.WEB.H264-PROPJOE
2021-06-27 21:00:42 TV-HD-IT Calls.2021.S01E03.iTALiAN.1080p.WEB.H264-NTROPiC
2021-06-27 21:00:53 TV-HD-FR Schitts.Creek.S06E14.FiNAL.FRENCH.720p.WEB.H264-PROPJOE
2021-06-27 21:01:00 TV-SD-FR Schitts.Creek.S06E14.FiNAL.FRENCH.WEB.H264-PROPJOE
2021-06-27 21:01:21 TV-HD-FR Schitts.Creek.S06E13.FRENCH.720p.WEB.H264-PROPJOE
2021-06-27 21:01:47 TV-HD-IT Calls.2021.S01E04.iTALiAN.1080p.WEB.H264-NTROPiC
2021-06-27 21:01:55 TV-X264 Charmed.Zauberhafte.Hexen.S02E05.Einfach.unwiederstehlich.German.DL.1080p.BluRay.x264-PL3X
2021-06-27 21:02:24 TV-SD-DE Charmed.Zauberhafte.Hexen.S02E11.Drei.Hexen.und.ein.Baby.German.REMASTERED.BDRiP.x264-PL3X
2021-06-27 21:03:20 TV-HD-IT Calls.2021.S01E05.iTALiAN.1080p.WEB.H264-NTROPiC
2021-06-27 21:04:19 TV-X264 Charmed.Zauberhafte.Hexen.S02E12.Fieber.German.DL.1080p.BluRay.x264-PL3X
2021-06-27 21:05:18 TV-HD-IT Calls.2021.S01E06.iTALiAN.1080p.WEB.H264-NTROPiC
2021-06-27 21:05:23 TV-SD-DE Charmed.Zauberhafte.Hexen.S02E14.Verflucht.in.alle.Ewigkeit.German.REMASTERED.BDRiP.x264-PL3X
2021-06-27 21:06:12 TV-X264 Anwaelte.der.Toten.Rechtsmediziner.decken.auf.S05E06.Der.Scheiterhaufen.Unfall.oder.Mord.German.DOKU.1080p.HDTV.x264-ATAX
2021-06-27 21:07:01 TV-HD-IT Calls.2021.S01E07.iTALiAN.1080p.WEB.H264-NTROPiC
2021-06-27 21:08:12 MP3 Lubelski--The_Universal_Groove-(PERCO028)-WEB-2020-OMA
2021-06-27 21:08:12 TV-HD-IT Calls.2021.S01E08.iTALiAN.1080p.WEB.H264-NTROPiC
2021-06-27 21:08:37 TV-X264 Charmed.Zauberhafte.Hexen.S02E16.Vom.Pech.verfolgt.German.DL.1080p.BluRay.x264-PL3X
2021-06-27 21:09:05 TV-X264 Charmed.Zauberhafte.Hexen.S02E16.Vom.Pech.verfolgt.German.DL.720p.BluRay.x264-PL3X
2021-06-27 21:09:33 TV-X264 Charmed.Zauberhafte.Hexen.S02E21.Die.Reiter.der.Apokalypse.German.DL.720p.BluRay.x264-PL3X
2021-06-27 21:10:12 XXX American-Pornstar.21.05.23.Charlotte.Sartre.Anal.In.The.Ass.Goth.XXX.1080p.MP4-GUSH
2021-06-27 21:10:46 TV-HD-IT Calls.2021.S01E09.iTALiAN.FiNAL.1080p.WEB.H264-NTROPiC
2021-06-27 21:11:44 TV-X264 Anwaelte.der.Toten.Rechtsmediziner.decken.auf.S05E06.Der.Scheiterhaufen.Unfall.oder.Mord.German.DOKU.720p.HDTV.x264-ATAX
2021-06-27 21:13:11 TV-HD-NORD Sommarlov.S12E14.SWEDiSH.720p.WEB.h264-DiRT
2021-06-27 21:14:04 TV-HD-NORD Sommarlov.S12E14.SWEDiSH.1080p.WEB.h264-DiRT
2021-06-27 21:14:11 FLAC VA-Connected_Vol_3-(DRV025)-VINYL-FLAC-2021-STAX
2021-06-27 21:14:48 TV-SD-DE Anwaelte.der.Toten.Rechtsmediziner.decken.auf.S05E06.Der.Scheiterhaufen.Unfall.oder.Mord.German.DOKU.HDTVRip.x264-ATAX
2021-06-27 21:15:08 TV-HD Wild.Mountain.Thyme.2020.1080p.BluRay.x264-GETiT
2021-06-27 21:16:26 TV-X264 Wild.Mountain.Thyme.2020.720p.BluRay.x264-GETiT
2021-06-27 21:17:01 MP3 Lubelski--The_Universal_Groove_Remixes-(PERCO042)-WEB-2021-OMA
2021-06-27 21:17:46 X264-SD Wild.Mountain.Thyme.2020.BDRip.x264-GETiT
2021-06-27 21:19:56 FLAC Unknown_Artist-Swope_002-(SWOPE002C)-VINYL-FLAC-2021-STAX
2021-06-27 21:20:36 TV-X264 Drag.Race.Espana.S01E05.1080p.WEB.h264-SECRETOS
2021-06-27 21:21:38 TV-X264 Drag.Race.Espana.S01E05.720p.WEB.h264-SECRETOS
2021-06-27 21:22:39 TV-SD Drag.Race.Espana.S01E05.WEB.h264-SECRETOS
2021-06-27 21:24:12 FLAC The_Mayans-Baditude_EP-(PFRITE006)-VINYL-FLAC-2021-STAX
2021-06-27 21:24:52 TV-X264 Begegnungen.mit.dem.Boesen.S01E01.Ted.Bundy.German.DL.DOKU.1080p.HDTV.x264-ATAX
2021-06-27 21:27:27 FLAC VA-Heartcore_Essentials-(KAOS08)-VINYL-FLAC-2021-STAX
2021-06-27 21:27:41 XXX American-Pornstar.21.05.01.Liv.Revamped.Basketball.Booty.XXX.1080p.MP4-GUSH
2021-06-27 21:29:07 TV-X264 Begegnungen.mit.dem.Boesen.S01E01.Ted.Bundy.German.DL.DOKU.720p.HDTV.x264-ATAX
2021-06-27 21:30:29 MP3 Colossale-Beaucoup_Sont_Appeles_Mais_Peu_Sont_Choisis_Vol_1-WEB-FR-2021-OND
2021-06-27 21:30:37 TV-HD-NORD Team.Dronix.S01E04.SWEDiSH.720p.WEB.h264-DiRT
2021-06-27 21:31:31 MP3 DJ_Mimi-Donne_Moi_(Feat_Tatane_Et_Mik_L)-SINGLE-WEB-FR-2021-OND
2021-06-27 21:31:51 TV-HD-NORD Team.Dronix.S01E04.SWEDiSH.1080p.WEB.h264-DiRT
2021-06-27 21:32:00 TV-SD-DE Begegnungen.mit.dem.Boesen.S01E01.Ted.Bundy.German.DL.DOKU.HDTVRip.x264-ATAX
2021-06-27 21:32:35 MP3 Gery_Spring-Ce_Que_Tu_Veux_Que_Je_Te_Dise-SINGLE-WEB-FR-2021-OND
2021-06-27 21:33:40 MP3 Jay_Jay-Bloc_2000-WEB-FR-2021-OND
2021-06-27 21:34:14 TV-HD-NORD UEFA.Euro.2020.2021.06.26.Italien.vs.Osterrike.SWEDiSH.720p.WEB.h264-DiRT
2021-06-27 21:34:42 MP3 Max_D._Carter-Les_Flottantes-WEB-FR-2021-OND
2021-06-27 21:35:42 TV-X264 Greys.Anatomy.S17E09.FRENCH.720p.HDTV.x264-OBSTACLE
2021-06-27 21:35:45 MP3 Menavor-Sykras-WEB-FR-2020-OND
2021-06-27 21:36:01 TV-SD Greys.Anatomy.S17E09.FRENCH.HDTV.x264-OBSTACLE
2021-06-27 21:36:21 TV-HD-FR Nomad.Megalo.Box.2.E13.FiNAL.SUBFRENCH.1080p.WEB.H264-AMB3R
2021-06-27 21:36:48 MP3 Negrito-Purge_6-SINGLE-WEB-FR-2021-OND
2021-06-27 21:37:45 TV-X264 Begegnungen.mit.dem.Boesen.S01E02.Peter.Sutcliffe.German.DL.DOKU.1080p.HDTV.x264-ATAX
2021-06-27 21:37:53 MP3 Rolian-La_Nezo-WEB-FR-2021-OND
2021-06-27 21:38:55 MP3 Ronisia-Dans_Ca-SINGLE-WEB-FR-2021-OND
2021-06-27 21:40:00 MP3 Shotas-La_Capuche_9-SINGLE-WEB-FR-2021-OND
2021-06-27 21:41:04 MP3 VA-Dream_Zouk-WEB-FR-2021-OND
2021-06-27 21:41:59 TV-X264 Begegnungen.mit.dem.Boesen.S01E02.Peter.Sutcliffe.German.DL.DOKU.720p.HDTV.x264-ATAX
2021-06-27 21:42:05 MP3 VA-RAPELLES_(Saison_1)-WEB-FR-2021-OND
2021-06-27 21:43:10 MP3 VA-RAPELLES_(Saison_2)-WEB-FR-2021-OND
2021-06-27 21:44:14 MP3 Wizdom-Payanke-SINGLE-WEB-FR-2021-OND
2021-06-27 21:44:15 TV-SD-DE Begegnungen.mit.dem.Boesen.S01E02.Peter.Sutcliffe.German.DL.DOKU.HDTVRip.x264-ATAX
2021-06-27 21:49:31 TV-X264 Begegnungen.mit.dem.Boesen.S01E03.Bobby.Joe.Long.German.DL.DOKU.1080p.HDTV.x264-ATAX
2021-06-27 21:52:57 TV-X264 Begegnungen.mit.dem.Boesen.S01E03.Bobby.Joe.Long.German.DL.DOKU.720p.HDTV.x264-ATAX
2021-06-27 21:53:15 TV-HD-IT Calls.2021.S01E01.iTALiAN.HDR.2160p.WEB.H265-NTROPiC
2021-06-27 21:54:16 TV-HD-IT Calls.2021.S01E02.iTALiAN.HDR.2160p.WEB.H265-NTROPiC
2021-06-27 21:55:05 TV-SD-DE Begegnungen.mit.dem.Boesen.S01E03.Bobby.Joe.Long.German.DL.DOKU.HDTVRip.x264-ATAX
2021-06-27 21:55:20 TV-HD-IT Calls.2021.S01E03.iTALiAN.HDR.2160p.WEB.H265-NTROPiC
2021-06-27 21:56:19 TV-HD-IT Calls.2021.S01E04.iTALiAN.HDR.2160p.WEB.H265-NTROPiC
2021-06-27 21:57:22 TV-HD-IT Calls.2021.S01E05.iTALiAN.HDR.2160p.WEB.H265-NTROPiC
2021-06-27 21:58:22 TV-HD-IT Calls.2021.S01E06.iTALiAN.HDR.2160p.WEB.H265-NTROPiC
2021-06-27 21:58:46 TV-HD-FR Kingdom.3.E13.SUBFRENCH.1080p.WEB.H264-AMB3R
2021-06-27 21:59:23 TV-HD-IT Calls.2021.S01E07.iTALiAN.HDR.2160p.WEB.H265-NTROPiC
2021-06-27 22:00:24 TV-HD-IT Calls.2021.S01E08.iTALiAN.HDR.2160p.WEB.H265-NTROPiC
2021-06-27 22:01:12 TV-X264 Begegnungen.mit.dem.Boesen.S01E04.John.Sweeney.German.DL.DOKU.1080p.HDTV.x264-ATAX
2021-06-27 22:01:26 TV-HD-IT Calls.2021.S01E09.iTALiAN.FiNAL.HDR.2160p.WEB.H265-NTROPiC
2021-06-27 22:03:23 TV-X264 Help.My.House.Is.Haunted.S03E01.1080p.WEB.h264-SKYFiRE
2021-06-27 22:03:56 TV-X264 Help.My.House.Is.Haunted.S03E01.720p.WEB.h264-SKYFiRE
2021-06-27 22:04:29 TV-X264 Help.My.House.Is.Haunted.S03E02.1080p.WEB.h264-SKYFiRE
2021-06-27 22:05:02 TV-X264 Help.My.House.Is.Haunted.S03E02.720p.WEB.h264-SKYFiRE
2021-06-27 22:05:05 TV-X264 Begegnungen.mit.dem.Boesen.S01E04.John.Sweeney.German.DL.DOKU.720p.HDTV.x264-ATAX
2021-06-27 22:05:36 TV-X264 Help.My.House.Is.Haunted.S03E03.1080p.WEB.h264-SKYFiRE
2021-06-27 22:06:10 TV-X264 Help.My.House.Is.Haunted.S03E03.720p.WEB.h264-SKYFiRE
2021-06-27 22:06:41 TV-X264 Help.My.House.Is.Haunted.S03E04.1080p.WEB.h264-SKYFiRE
2021-06-27 22:07:16 TV-X264 Help.My.House.Is.Haunted.S03E04.720p.WEB.h264-SKYFiRE
2021-06-27 22:07:47 TV-X264 Help.My.House.Is.Haunted.S03E05.1080p.WEB.h264-SKYFiRE
2021-06-27 22:08:20 TV-X264 Help.My.House.Is.Haunted.S03E05.720p.WEB.h264-SKYFiRE
2021-06-27 22:09:13 TV-SD-DE Begegnungen.mit.dem.Boesen.S01E04.John.Sweeney.German.DL.DOKU.HDTVRip.x264-ATAX
2021-06-27 22:12:51 TV-X264 PutaLocura.21.06.27.Yolisex.SPANISH.XXX.720p.MP4-WRB
2021-06-27 22:14:33 TV-X264 Brother.Bear.2003.PLDUB.DUAL.720p.BluRay.x264-FLAME
2021-06-27 22:14:52 TV-HD Brother.Bear.2003.PLDUB.DUAL.1080p.BluRay.x264-FLAME
2021-06-27 22:17:42 TV-X264 Die.Yukon.Tieraerztin.S04E08.Unter.Baeren.German.DL.DOKU.1080p.HDTV.x264-ATAX
2021-06-27 22:18:10 TV-X264 Greys.Anatomy.S17E10.FRENCH.720p.HDTV.x264-OBSTACLE
2021-06-27 22:18:29 TV-SD Greys.Anatomy.S17E10.FRENCH.HDTV.x264-OBSTACLE
2021-06-27 22:19:02 TV-HD-NORD Formula1.2021.Styrian.Grand.Prix.Kval.SWEDiSH.720p.WEB.H264-ALLURE
2021-06-27 22:21:34 TV-X264 Die.Yukon.Tieraerztin.S04E08.Unter.Baeren.German.DL.DOKU.720p.HDTV.x264-ATAX
2021-06-27 22:22:07 MP3 Dondon_und_Edo_Saiya-Verschwendete_Zeit-SINGLE-WEB-DE-2021-wAx
2021-06-27 22:22:15 X264-HD-DE One.Last.Call.2020.German.DL.1080p.BluRay.x265-PaTrol
2021-06-27 22:22:30 X264-HD-DE Gelobt.sei.Gott.2018.German.DL.1080p.BluRay.x265-PaTrol
2021-06-27 22:22:37 TV-HD-NORD Formula1.2021.Styrian.Grand.Prix.SWEDiSH.720p.WEB.H264-ALLURE
2021-06-27 22:23:04 X264-HD-DE FX.Toedliche.Tricks.1986.German.DL.1080p.BluRay.x265-PaTrol
2021-06-27 22:23:13 X264-HD-DE FX.2.Die.toedliche.Illusion.1991.German.DL.1080p.BluRay.x265-PaTrol
2021-06-27 22:24:08 TV-X264 The.Young.and.the.Restless.S48E160.720p.WEB.h264-DiRT
2021-06-27 22:24:55 TV-HD The.Young.and.the.Restless.S48E160.1080p.WEB.h264-DiRT
2021-06-27 22:25:21 TV-SD-DE Die.Yukon.Tieraerztin.S04E08.Unter.Baeren.German.DL.DOKU.HDTVRip.x264-ATAX
2021-06-27 22:27:00 TV-HD-FR Yuukoku.no.Moriarty.Second.Season.E13.FiNAL.SUBFRENCH.1080p.WEB.H264-AMB3R
2021-06-27 22:28:00 TV-X264 The.Young.and.the.Restless.S48E161.720p.WEB.h264-DiRT
2021-06-27 22:28:06 X264-HD Send.It.2021.1080p.WEB.H264-EMPATHY
2021-06-27 22:28:35 MP3 Rasean_The_Phenomenon-Bless_The_Mic-1999-CR
2021-06-27 22:29:06 TV-HD The.Young.and.the.Restless.S48E161.1080p.WEB.h264-DiRT
2021-06-27 22:30:41 TV-X264 Grave.Secrets.Tote.Zeugen.luegen.nicht.S02E09.Das.vermisste.Maedchen.German.DOKU.1080p.HDTV.x264-ATAX
2021-06-27 22:31:49 X264-HD Send.It.2021.2160p.WEB.H265-EMPATHY
2021-06-27 22:32:34 TV-X264 The.Young.and.the.Restless.S48E162.720p.WEB.h264-DiRT
2021-06-27 22:34:10 TV-HD The.Young.and.the.Restless.S48E162.1080p.WEB.h264-DiRT
2021-06-27 22:35:04 TV-X264 The.Young.and.the.Restless.S48E163.720p.WEB.h264-DiRT
2021-06-27 22:36:05 TV-HD The.Young.and.the.Restless.S48E163.1080p.WEB.h264-DiRT
2021-06-27 22:37:11 TV-X264 Grave.Secrets.Tote.Zeugen.luegen.nicht.S02E09.Das.vermisste.Maedchen.German.DOKU.720p.HDTV.x264-ATAX
2021-06-27 22:37:18 TV-X264 Parks.and.Recreation.S06E01E02.1080p.BluRay.x264-BORDURE
2021-06-27 22:37:46 TV-X264 The.Young.and.the.Restless.S48E164.720p.WEB.h264-DiRT
2021-06-27 22:38:16 X264-HD Initiation.2020.2160p.WEB.H265-EMPATHY
2021-06-27 22:38:31 MP3 KeefTee-Tru_Lov_Never_Died-SINGLE-WEB-2021-wAx
2021-06-27 22:38:39 MP3 Steve_Thornton_and_Digital_Mafia-Revenge_Porn-(CHEEK529)-WEB-2021-wAx
2021-06-27 22:38:56 TV-HD The.Young.and.the.Restless.S48E164.1080p.WEB.h264-DiRT
2021-06-27 22:39:11 TV-X264 The.Young.and.the.Restless.S48E165.720p.WEB.h264-DiRT
2021-06-27 22:39:31 TV-X264 Parks.and.Recreation.S06E03.1080p.BluRay.x264-BORDURE
2021-06-27 22:40:16 TV-HD The.Young.and.the.Restless.S48E165.1080p.WEB.h264-DiRT
2021-06-27 22:40:32 TV-X264 Parks.and.Recreation.S06E04.1080p.BluRay.x264-BORDURE
2021-06-27 22:41:39 TV-X264 Parks.and.Recreation.S06E05.1080p.BluRay.x264-BORDURE
2021-06-27 22:42:41 TV-X264 Parks.and.Recreation.S06E06.1080p.BluRay.x264-BORDURE
2021-06-27 22:42:56 TV-HD-FR Digimon.Adventure.2020.E54.SUBFRENCH.1080p.WEB.X264-SLEEPINGFOREST
2021-06-27 22:43:21 TV-HD-FR Sayonara.Watashi.no.Cramer.E13.FiNAL.SUBFRENCH.1080p.WEB.X264-SLEEPINGFOREST
2021-06-27 22:43:44 TV-X264 Parks.and.Recreation.S06E07.1080p.BluRay.x264-BORDURE
2021-06-27 22:44:45 TV-SD-DE Grave.Secrets.Tote.Zeugen.luegen.nicht.S02E09.Das.vermisste.Maedchen.German.DOKU.HDTVRip.x264-ATAX
2021-06-27 22:44:53 TV-X264 Parks.and.Recreation.S06E08.1080p.BluRay.x264-BORDURE
2021-06-27 22:45:34 X264-HD North.Hollywood.2021.2160p.WEB.H265-EMPATHY
2021-06-27 22:46:03 TV-X264 Parks.and.Recreation.S06E09.1080p.BluRay.x264-BORDURE
2021-06-27 22:47:04 TV-X264 Parks.and.Recreation.S06E10.1080p.BluRay.x264-BORDURE
2021-06-27 22:48:38 TV-X264 Parks.and.Recreation.S06E11.1080p.BluRay.x264-BORDURE
2021-06-27 22:49:43 TV-X264 Parks.and.Recreation.S06E12.1080p.BluRay.x264-BORDURE
2021-06-27 22:51:08 TV-X264 Parks.and.Recreation.S06E13.1080p.BluRay.x264-BORDURE
2021-06-27 22:52:14 TV-X264 Parks.and.Recreation.S06E14.1080p.BluRay.x264-BORDURE
2021-06-27 22:53:17 TV-X264 Parks.and.Recreation.S06E15.1080p.BluRay.x264-BORDURE
2021-06-27 22:54:19 TV-X264 Parks.and.Recreation.S06E16.1080p.BluRay.x264-BORDURE
2021-06-27 22:55:24 TV-X264 Parks.and.Recreation.S06E17.1080p.BluRay.x264-BORDURE
2021-06-27 22:55:54 TV-HD The.Young.and.the.Restless.S48E166.1080p.WEB.h264-DiRT
2021-06-27 22:56:26 TV-X264 Parks.and.Recreation.S06E18.1080p.BluRay.x264-BORDURE
2021-06-27 22:57:33 TV-X264 Parks.and.Recreation.S06E19.1080p.BluRay.x264-BORDURE
2021-06-27 22:58:37 TV-X264 In.Teufels.Kueche.mit.Gordon.Ramsay.S07E08.Die.erloschene.Flamme.2.German.DOKU.1080p.HDTV.x264-ATAX
2021-06-27 22:58:38 TV-X264 Parks.and.Recreation.S06E20.1080p.BluRay.x264-BORDURE
2021-06-27 22:59:39 TV-X264 Parks.and.Recreation.S06E21E22.1080p.BluRay.x264-BORDURE
2021-06-27 23:00:43 TV-X264 Parks.and.Recreation.S06E10.EXTENDED.1080p.BluRay.x264-BORDURE
2021-06-27 23:00:43 TV-X264 The.Young.and.the.Restless.S48E166.720p.WEB.h264-DiRT
2021-06-27 23:01:45 TV-X264 Parks.and.Recreation.S06E19.EXTENDED.1080p.BluRay.x264-BORDURE
2021-06-27 23:02:25 TV-X264 The.Young.and.the.Restless.S48E167.720p.WEB.h264-DiRT
2021-06-27 23:02:47 TV-X264 Parks.and.Recreation.S06E21E22.EXTENDED.1080p.BluRay.x264-BORDURE
2021-06-27 23:03:20 TV-HD The.Young.and.the.Restless.S48E167.1080p.WEB.h264-DiRT
2021-06-27 23:03:50 TV-X264 Parks.and.Recreation.S06E01E02.720p.BluRay.x264-BORDURE
2021-06-27 23:04:13 TV-X264 The.Young.and.the.Restless.S48E168.720p.WEB.h264-DiRT
2021-06-27 23:04:26 TV-X264 Parks.and.Recreation.S06E03.720p.BluRay.x264-BORDURE
2021-06-27 23:04:55 TV-X264 Parks.and.Recreation.S06E04.720p.BluRay.x264-BORDURE
2021-06-27 23:05:14 TV-X264 The.Young.and.the.Restless.S48E168.1080p.WEB.h264-DiRT
2021-06-27 23:05:27 TV-X264 Parks.and.Recreation.S06E05.720p.BluRay.x264-BORDURE
2021-06-27 23:05:56 TV-X264 Parks.and.Recreation.S06E06.720p.BluRay.x264-BORDURE
2021-06-27 23:06:08 TV-X264 The.Young.and.the.Restless.S48E169.720p.WEB.h264-DiRT
2021-06-27 23:06:29 TV-X264 Parks.and.Recreation.S06E07.720p.BluRay.x264-BORDURE
2021-06-27 23:06:56 TV-X264 Parks.and.Recreation.S06E08.720p.BluRay.x264-BORDURE
2021-06-27 23:07:13 TV-X264 The.Young.and.the.Restless.S48E170.720p.WEB.h264-DiRT
2021-06-27 23:07:25 TV-X264 Parks.and.Recreation.S06E09.720p.BluRay.x264-BORDURE
2021-06-27 23:07:55 TV-X264 Parks.and.Recreation.S06E10.720p.BluRay.x264-BORDURE
2021-06-27 23:08:15 TV-X264 Parks.and.Recreation.S06E11.720p.BluRay.x264-BORDURE
2021-06-27 23:08:18 TV-HD The.Young.and.the.Restless.S48E170.1080p.WEB.h264-DiRT
2021-06-27 23:08:37 TV-X264 Parks.and.Recreation.S06E12.720p.BluRay.x264-BORDURE
2021-06-27 23:08:55 TV-X264 Parks.and.Recreation.S06E13.720p.BluRay.x264-BORDURE
2021-06-27 23:09:15 TV-X264 Parks.and.Recreation.S06E14.720p.BluRay.x264-BORDURE
2021-06-27 23:09:33 TV-X264 The.Young.and.the.Restless.S48E171.720p.WEB.h264-DiRT
2021-06-27 23:09:37 TV-X264 Parks.and.Recreation.S06E15.720p.BluRay.x264-BORDURE
2021-06-27 23:09:55 TV-HD True.Fiction.2019.1080p.BluRay.x264-FREEMAN
2021-06-27 23:09:59 TV-X264 Parks.and.Recreation.S06E16.720p.BluRay.x264-BORDURE
2021-06-27 23:10:16 TV-X264 Parks.and.Recreation.S06E17.720p.BluRay.x264-BORDURE
2021-06-27 23:10:35 TV-X264 Parks.and.Recreation.S06E18.720p.BluRay.x264-BORDURE
2021-06-27 23:10:42 TV-HD The.Young.and.the.Restless.S48E171.1080p.WEB.h264-DiRT
2021-06-27 23:10:58 TV-X264 Parks.and.Recreation.S06E19.720p.BluRay.x264-BORDURE
2021-06-27 23:11:15 TV-X264 Parks.and.Recreation.S06E20.720p.BluRay.x264-BORDURE
2021-06-27 23:11:33 TV-X264 The.Young.and.the.Restless.S48E172.720p.WEB.h264-DiRT
2021-06-27 23:11:37 TV-X264 Parks.and.Recreation.S06E21E22.720p.BluRay.x264-BORDURE
2021-06-27 23:11:56 TV-X264 Parks.and.Recreation.S06E10.EXTENDED.720p.BluRay.x264-BORDURE
2021-06-27 23:12:04 TV-X264 True.Fiction.2019.720p.BluRay.x264-FREEMAN
2021-06-27 23:12:18 TV-X264 Parks.and.Recreation.S06E19.EXTENDED.720p.BluRay.x264-BORDURE
2021-06-27 23:12:25 TV-HD The.Young.and.the.Restless.S48E172.1080p.WEB.h264-DiRT
2021-06-27 23:12:42 TV-X264 Parks.and.Recreation.S06E21E22.EXTENDED.720p.BluRay.x264-BORDURE
2021-06-27 23:13:17 TV-X264 The.Young.and.the.Restless.S48E173.720p.WEB.h264-DiRT
2021-06-27 23:14:15 BLURAY-FULL Parks.and.Recreation.S06D01.COMPLETE.BLURAY-SLIPSTREAM
2021-06-27 23:14:17 TV-X264 The.Young.and.the.Restless.S48E174.720p.WEB.h264-DiRT
2021-06-27 23:15:10 TV-HD The.Young.and.the.Restless.S48E174.1080p.WEB.h264-DiRT
2021-06-27 23:15:43 BLURAY-FULL Parks.and.Recreation.S06D02.COMPLETE.BLURAY-SLIPSTREAM
2021-06-27 23:15:58 TV-X264 The.Young.and.the.Restless.S48E175.720p.WEB.h264-DiRT
2021-06-27 23:16:54 BLURAY-FULL Parks.and.Recreation.S06D03.COMPLETE.BLURAY-SLIPSTREAM
2021-06-27 23:17:13 TV-HD The.Young.and.the.Restless.S48E175.1080p.WEB.h264-DiRT
2021-06-27 23:18:26 TV-HD Raya.and.the.Last.Dragon.2021.MULTi.TRUEFRENCH.1080p.BluRay.x264-Ulysse
2021-06-27 23:20:30 TV-X264 In.Teufels.Kueche.mit.Gordon.Ramsay.S07E08.Die.erloschene.Flamme.2.German.DOKU.720p.HDTV.x264-ATAX
2021-06-27 23:22:03 TV-HD The.Young.and.the.Restless.S48E169.1080p.WEB.h264-DiRT
2021-06-27 23:22:09 TV-X264 Raya.and.the.Last.Dragon.2021.TRUEFRENCH.720p.BluRay.x264-Ulysse
2021-06-27 23:22:49 MP3 Aesis_Alien_-_Mandala-WEB-2021-JUSTiFY_iNT
2021-06-27 23:23:02 TV-HD The.Young.and.the.Restless.S48E173.1080p.WEB.h264-DiRT
2021-06-27 23:23:20 MP3 Flund_and_Mehdi_Belkadi_ft._Dan_Picknell_-_Waiting-(LER022)-WEB-2021-JUSTiFY_iNT
2021-06-27 23:23:41 MP3 Frieder_Morneweg_-_Drift_Away-WEB-2021-JUSTiFY_iNT
2021-06-27 23:24:05 MP3 Zitro_-_Overdrive-(ESK119)-WEB-2021-JUSTiFY_iNT
2021-06-27 23:24:16 TV-X264 The.Young.and.the.Restless.S48E176.720p.WEB.h264-DiRT
2021-06-27 23:25:20 TV-HD The.Young.and.the.Restless.S48E176.1080p.WEB.h264-DiRT
2021-06-27 23:26:02 TV-X264 The.Young.and.the.Restless.S48E177.720p.WEB.h264-DiRT
2021-06-27 23:26:51 TV-HD The.Young.and.the.Restless.S48E177.1080p.WEB.h264-DiRT
2021-06-27 23:28:04 TV-X264 The.Young.and.the.Restless.S48E178.720p.WEB.h264-DiRT
2021-06-27 23:28:15 MP3 Angelo-K_ft._Teodora_Gosheva_-_Like_We_Used_To_Be_(Remixes_Pt._1)-(NM262)-WEB-2021-JUSTiFY_iNT
2021-06-27 23:28:36 MP3 Dais_-_Something_Was_Wrong-(VRS123)-WEB-2021-JUSTiFY_iNT
2021-06-27 23:28:52 MP3 Paul_Parker__John_Laurant__Ron_van_Den_Beuken_-_Never_Leave_Me-(WOF0069)-SINGLE-WEB-2021-JUSTiFY_iNT
2021-06-27 23:28:57 TV-HD The.Young.and.the.Restless.S48E178.1080p.WEB.h264-DiRT
2021-06-27 23:29:31 TV-SD-DE In.Teufels.Kueche.mit.Gordon.Ramsay.S07E08.Die.erloschene.Flamme.2.German.DOKU.HDTVRip.x264-ATAX
2021-06-27 23:30:14 TV-X264 The.Young.and.the.Restless.S48E179.720p.WEB.h264-DiRT
2021-06-27 23:31:10 TV-HD The.Young.and.the.Restless.S48E179.1080p.WEB.h264-DiRT
2021-06-27 23:32:00 TV-X264 The.Young.and.the.Restless.S48E180.720p.WEB.h264-DiRT
2021-06-27 23:32:25 X264-SD Aladdin.2019.iNTERNAL.DVDRip.x264-HONOR
2021-06-27 23:33:52 X264-SD-FR Raya.and.the.Last.Dragon.2021.TRUEFRENCH.BDRip.x264-Ulysse
2021-06-27 23:36:38 X264-SD Angel.Has.Fallen.2019.iNTERNAL.DVDRip.x264-HONOR
2021-06-27 23:40:28 X264-SD Bad.Boys.For.Life.2020.iNTERNAL.DVDRip.x264-HONOR
2021-06-27 23:40:38 TV-HD-NORD Klovn.S08E05.DANISH.720p.WEB.H264-BALLIN
2021-06-27 23:43:30 X264-SD Bohemian.Rhapsody.2018.iNTERNAL.DVDRip.x264-HONOR
2021-06-27 23:43:31 TV-X264 In.Teufels.Kueche.mit.Gordon.Ramsay.S07E09.Tiefkuehlkost.auf.Italienisch.German.DOKU.1080p.HDTV.x264-ATAX
2021-06-27 23:46:51 TV-X264 Kevin.Can.Fuck.Himself.S01E04.iNTERNAL.1080p.WEB.H264-WHOSNEXT
2021-06-27 23:46:58 TV-X264 Kevin.Can.Fuck.Himself.S01E04.iNTERNAL.720p.WEB.H264-WHOSNEXT
2021-06-27 23:48:45 TV-X264 In.Teufels.Kueche.mit.Gordon.Ramsay.S07E09.Tiefkuehlkost.auf.Italienisch.German.DOKU.720p.HDTV.x264-ATAX
2021-06-27 23:51:50 TV-SD-DE In.Teufels.Kueche.mit.Gordon.Ramsay.S07E09.Tiefkuehlkost.auf.Italienisch.German.DOKU.HDTVRip.x264-ATAX
2021-06-27 23:53:44 TV-X264 Formula1.2021.Styrian.Grand.Prix.UNCUT.1080p.AHDTV.x264-DARKSPORT
2021-06-27 23:54:37 TV-X264 Formula1.2021.Styrian.Grand.Prix.UNCUT.720p.AHDTV.x264-DARKSPORT